<?xml version="1.0" encoding="UTF-8" standalone="no" ?>
<gpx xmlns="http://www.topografix.com/GPX/1/1" xmlns:xsi="http://www.w3.org/2001/XMLSchema-instance" xsi:schemaLocation="http://www.topografix.com/GPX/1/1 http://www.topografix.com/GPX/1/1/gpx.xsd" version="1.1" creator="VisuGPX - https://www.visugpx.com">
  <metadata>
    <name>chavenay saint nom feucherolles</name>
    <desc><![CDATA[AVF Antony JP Brethes chavenay saint nom feucherolles]]></desc>
  </metadata>
  <trk>
    <name><![CDATA[21 août 2014 10:11:06]]></name>
    <cmt><![CDATA[21 août 2014 10:11:06]]></cmt>
    <trkseg>
      <trkpt lat="48.85351" lon="1.98396">
        <ele>79</ele>
        <time>2014-08-21T08:11:07Z</time>
      </trkpt>
      <trkpt lat="48.85356" lon="1.98402">
        <ele>80</ele>
        <time>2014-08-21T08:11:16Z</time>
      </trkpt>
      <trkpt lat="48.8536" lon="1.98397">
        <ele>79</ele>
        <time>2014-08-21T08:11:34Z</time>
      </trkpt>
      <trkpt lat="48.85363" lon="1.98394">
        <ele>79</ele>
        <time>2014-08-21T08:11:43Z</time>
      </trkpt>
      <trkpt lat="48.85367" lon="1.98399">
        <ele>78</ele>
        <time>2014-08-21T08:11:49Z</time>
      </trkpt>
      <trkpt lat="48.85369" lon="1.98406">
        <ele>77</ele>
        <time>2014-08-21T08:11:53Z</time>
      </trkpt>
      <trkpt lat="48.85373" lon="1.98421">
        <ele>77</ele>
        <time>2014-08-21T08:12:02Z</time>
      </trkpt>
      <trkpt lat="48.85369" lon="1.98426">
        <ele>76</ele>
        <time>2014-08-21T08:12:07Z</time>
      </trkpt>
      <trkpt lat="48.85365" lon="1.98426">
        <ele>75</ele>
        <time>2014-08-21T08:12:11Z</time>
      </trkpt>
      <trkpt lat="48.85365" lon="1.98435">
        <ele>74</ele>
        <time>2014-08-21T08:12:17Z</time>
      </trkpt>
      <trkpt lat="48.85368" lon="1.9845">
        <ele>75</ele>
        <time>2014-08-21T08:12:25Z</time>
      </trkpt>
      <trkpt lat="48.85365" lon="1.98456">
        <ele>73</ele>
        <time>2014-08-21T08:12:31Z</time>
      </trkpt>
      <trkpt lat="48.85363" lon="1.98464">
        <ele>72</ele>
        <time>2014-08-21T08:12:35Z</time>
      </trkpt>
      <trkpt lat="48.85359" lon="1.9848">
        <ele>71</ele>
        <time>2014-08-21T08:12:42Z</time>
      </trkpt>
      <trkpt lat="48.85359" lon="1.98495">
        <ele>73</ele>
        <time>2014-08-21T08:12:49Z</time>
      </trkpt>
      <trkpt lat="48.85359" lon="1.98502">
        <ele>73</ele>
        <time>2014-08-21T08:12:53Z</time>
      </trkpt>
      <trkpt lat="48.85359" lon="1.98525">
        <ele>74</ele>
        <time>2014-08-21T08:13:05Z</time>
      </trkpt>
      <trkpt lat="48.85358" lon="1.98532">
        <ele>74</ele>
        <time>2014-08-21T08:13:08Z</time>
      </trkpt>
      <trkpt lat="48.85357" lon="1.9854">
        <ele>74</ele>
        <time>2014-08-21T08:13:12Z</time>
      </trkpt>
      <trkpt lat="48.85352" lon="1.98546">
        <ele>74</ele>
        <time>2014-08-21T08:13:16Z</time>
      </trkpt>
      <trkpt lat="48.85346" lon="1.9856">
        <ele>75</ele>
        <time>2014-08-21T08:13:24Z</time>
      </trkpt>
      <trkpt lat="48.85346" lon="1.98568">
        <ele>75</ele>
        <time>2014-08-21T08:13:27Z</time>
      </trkpt>
      <trkpt lat="48.85348" lon="1.98595">
        <ele>72</ele>
        <time>2014-08-21T08:13:37Z</time>
      </trkpt>
      <trkpt lat="48.8535" lon="1.98602">
        <ele>73</ele>
        <time>2014-08-21T08:13:42Z</time>
      </trkpt>
      <trkpt lat="48.85349" lon="1.98609">
        <ele>73</ele>
        <time>2014-08-21T08:13:47Z</time>
      </trkpt>
      <trkpt lat="48.85345" lon="1.98615">
        <ele>73</ele>
        <time>2014-08-21T08:13:51Z</time>
      </trkpt>
      <trkpt lat="48.8534" lon="1.9862">
        <ele>73</ele>
        <time>2014-08-21T08:13:54Z</time>
      </trkpt>
      <trkpt lat="48.85339" lon="1.98628">
        <ele>69</ele>
        <time>2014-08-21T08:13:58Z</time>
      </trkpt>
      <trkpt lat="48.85341" lon="1.98633">
        <ele>69</ele>
        <time>2014-08-21T08:14:04Z</time>
      </trkpt>
      <trkpt lat="48.85343" lon="1.98635">
        <ele>72</ele>
        <time>2014-08-21T08:14:27Z</time>
      </trkpt>
      <trkpt lat="48.85342" lon="1.98642">
        <ele>74</ele>
        <time>2014-08-21T08:14:43Z</time>
      </trkpt>
      <trkpt lat="48.85339" lon="1.98652">
        <ele>74</ele>
        <time>2014-08-21T08:14:55Z</time>
      </trkpt>
      <trkpt lat="48.85341" lon="1.98659">
        <ele>72</ele>
        <time>2014-08-21T08:14:59Z</time>
      </trkpt>
      <trkpt lat="48.8534" lon="1.98668">
        <ele>72</ele>
        <time>2014-08-21T08:15:03Z</time>
      </trkpt>
      <trkpt lat="48.85336" lon="1.98672">
        <ele>72</ele>
        <time>2014-08-21T08:15:10Z</time>
      </trkpt>
      <trkpt lat="48.85334" lon="1.9868">
        <ele>74</ele>
        <time>2014-08-21T08:15:19Z</time>
      </trkpt>
      <trkpt lat="48.85331" lon="1.98685">
        <ele>74</ele>
        <time>2014-08-21T08:15:22Z</time>
      </trkpt>
      <trkpt lat="48.85326" lon="1.98692">
        <ele>75</ele>
        <time>2014-08-21T08:15:25Z</time>
      </trkpt>
      <trkpt lat="48.85321" lon="1.98695">
        <ele>76</ele>
        <time>2014-08-21T08:15:29Z</time>
      </trkpt>
      <trkpt lat="48.85316" lon="1.98698">
        <ele>75</ele>
        <time>2014-08-21T08:15:34Z</time>
      </trkpt>
      <trkpt lat="48.85313" lon="1.98702">
        <ele>76</ele>
        <time>2014-08-21T08:15:38Z</time>
      </trkpt>
      <trkpt lat="48.85305" lon="1.9871">
        <ele>74</ele>
        <time>2014-08-21T08:15:46Z</time>
      </trkpt>
      <trkpt lat="48.85302" lon="1.98716">
        <ele>69</ele>
        <time>2014-08-21T08:15:51Z</time>
      </trkpt>
      <trkpt lat="48.85297" lon="1.98719">
        <ele>67</ele>
        <time>2014-08-21T08:15:55Z</time>
      </trkpt>
      <trkpt lat="48.85292" lon="1.98722">
        <ele>68</ele>
        <time>2014-08-21T08:15:59Z</time>
      </trkpt>
      <trkpt lat="48.85293" lon="1.98728">
        <ele>75</ele>
        <time>2014-08-21T08:16:25Z</time>
      </trkpt>
      <trkpt lat="48.85292" lon="1.98735">
        <ele>76</ele>
        <time>2014-08-21T08:16:29Z</time>
      </trkpt>
      <trkpt lat="48.85291" lon="1.98742">
        <ele>77</ele>
        <time>2014-08-21T08:16:32Z</time>
      </trkpt>
      <trkpt lat="48.85283" lon="1.98761">
        <ele>80</ele>
        <time>2014-08-21T08:16:46Z</time>
      </trkpt>
      <trkpt lat="48.85285" lon="1.98768">
        <ele>80</ele>
        <time>2014-08-21T08:16:49Z</time>
      </trkpt>
      <trkpt lat="48.8529" lon="1.98772">
        <ele>78</ele>
        <time>2014-08-21T08:16:53Z</time>
      </trkpt>
      <trkpt lat="48.85291" lon="1.9878">
        <ele>78</ele>
        <time>2014-08-21T08:16:57Z</time>
      </trkpt>
      <trkpt lat="48.8529" lon="1.98787">
        <ele>77</ele>
        <time>2014-08-21T08:17:00Z</time>
      </trkpt>
      <trkpt lat="48.85294" lon="1.98802">
        <ele>77</ele>
        <time>2014-08-21T08:17:08Z</time>
      </trkpt>
      <trkpt lat="48.8529" lon="1.98808">
        <ele>78</ele>
        <time>2014-08-21T08:17:13Z</time>
      </trkpt>
      <trkpt lat="48.85275" lon="1.9886">
        <ele>91</ele>
        <time>2014-08-21T08:17:40Z</time>
      </trkpt>
      <trkpt lat="48.85278" lon="1.98865">
        <ele>92</ele>
        <time>2014-08-21T08:17:46Z</time>
      </trkpt>
      <trkpt lat="48.8528" lon="1.98872">
        <ele>94</ele>
        <time>2014-08-21T08:17:50Z</time>
      </trkpt>
      <trkpt lat="48.85291" lon="1.98898">
        <ele>92</ele>
        <time>2014-08-21T08:18:06Z</time>
      </trkpt>
      <trkpt lat="48.85292" lon="1.98915">
        <ele>92</ele>
        <time>2014-08-21T08:18:12Z</time>
      </trkpt>
      <trkpt lat="48.85294" lon="1.98922">
        <ele>92</ele>
        <time>2014-08-21T08:18:16Z</time>
      </trkpt>
      <trkpt lat="48.85295" lon="1.98929">
        <ele>92</ele>
        <time>2014-08-21T08:18:20Z</time>
      </trkpt>
      <trkpt lat="48.85299" lon="1.98949">
        <ele>96</ele>
        <time>2014-08-21T08:18:32Z</time>
      </trkpt>
      <trkpt lat="48.85302" lon="1.98957">
        <ele>96</ele>
        <time>2014-08-21T08:18:37Z</time>
      </trkpt>
      <trkpt lat="48.85301" lon="1.98964">
        <ele>95</ele>
        <time>2014-08-21T08:18:41Z</time>
      </trkpt>
      <trkpt lat="48.85304" lon="1.98973">
        <ele>96</ele>
        <time>2014-08-21T08:18:45Z</time>
      </trkpt>
      <trkpt lat="48.85303" lon="1.98981">
        <ele>98</ele>
        <time>2014-08-21T08:18:50Z</time>
      </trkpt>
      <trkpt lat="48.85303" lon="1.98988">
        <ele>99</ele>
        <time>2014-08-21T08:18:54Z</time>
      </trkpt>
      <trkpt lat="48.85303" lon="1.99026">
        <ele>99</ele>
        <time>2014-08-21T08:19:14Z</time>
      </trkpt>
      <trkpt lat="48.85302" lon="1.99034">
        <ele>99</ele>
        <time>2014-08-21T08:19:18Z</time>
      </trkpt>
      <trkpt lat="48.85301" lon="1.99042">
        <ele>99</ele>
        <time>2014-08-21T08:19:21Z</time>
      </trkpt>
      <trkpt lat="48.85303" lon="1.99059">
        <ele>101</ele>
        <time>2014-08-21T08:19:27Z</time>
      </trkpt>
      <trkpt lat="48.85304" lon="1.99066">
        <ele>101</ele>
        <time>2014-08-21T08:19:31Z</time>
      </trkpt>
      <trkpt lat="48.85305" lon="1.99089">
        <ele>102</ele>
        <time>2014-08-21T08:19:44Z</time>
      </trkpt>
      <trkpt lat="48.85305" lon="1.99105">
        <ele>103</ele>
        <time>2014-08-21T08:19:52Z</time>
      </trkpt>
      <trkpt lat="48.8531" lon="1.99118">
        <ele>104</ele>
        <time>2014-08-21T08:19:58Z</time>
      </trkpt>
      <trkpt lat="48.8531" lon="1.99126">
        <ele>104</ele>
        <time>2014-08-21T08:20:02Z</time>
      </trkpt>
      <trkpt lat="48.85315" lon="1.9914">
        <ele>104</ele>
        <time>2014-08-21T08:20:09Z</time>
      </trkpt>
      <trkpt lat="48.85314" lon="1.99148">
        <ele>104</ele>
        <time>2014-08-21T08:20:13Z</time>
      </trkpt>
      <trkpt lat="48.85314" lon="1.99161">
        <ele>106</ele>
        <time>2014-08-21T08:20:20Z</time>
      </trkpt>
      <trkpt lat="48.85316" lon="1.99168">
        <ele>107</ele>
        <time>2014-08-21T08:20:22Z</time>
      </trkpt>
      <trkpt lat="48.85317" lon="1.99183">
        <ele>111</ele>
        <time>2014-08-21T08:20:28Z</time>
      </trkpt>
      <trkpt lat="48.85318" lon="1.9919">
        <ele>111</ele>
        <time>2014-08-21T08:20:33Z</time>
      </trkpt>
      <trkpt lat="48.8532" lon="1.99206">
        <ele>114</ele>
        <time>2014-08-21T08:20:41Z</time>
      </trkpt>
      <trkpt lat="48.85328" lon="1.99217">
        <ele>116</ele>
        <time>2014-08-21T08:20:48Z</time>
      </trkpt>
      <trkpt lat="48.85348" lon="1.99243">
        <ele>106</ele>
        <time>2014-08-21T08:21:38Z</time>
      </trkpt>
      <trkpt lat="48.85351" lon="1.9925">
        <ele>106</ele>
        <time>2014-08-21T08:21:40Z</time>
      </trkpt>
      <trkpt lat="48.85353" lon="1.99259">
        <ele>105</ele>
        <time>2014-08-21T08:21:49Z</time>
      </trkpt>
      <trkpt lat="48.85358" lon="1.99265">
        <ele>105</ele>
        <time>2014-08-21T08:21:53Z</time>
      </trkpt>
      <trkpt lat="48.85361" lon="1.99271">
        <ele>105</ele>
        <time>2014-08-21T08:21:57Z</time>
      </trkpt>
      <trkpt lat="48.85364" lon="1.99276">
        <ele>105</ele>
        <time>2014-08-21T08:22:00Z</time>
      </trkpt>
      <trkpt lat="48.85378" lon="1.99288">
        <ele>110</ele>
        <time>2014-08-21T08:22:10Z</time>
      </trkpt>
      <trkpt lat="48.85382" lon="1.99294">
        <ele>110</ele>
        <time>2014-08-21T08:22:13Z</time>
      </trkpt>
      <trkpt lat="48.85389" lon="1.99304">
        <ele>112</ele>
        <time>2014-08-21T08:22:21Z</time>
      </trkpt>
      <trkpt lat="48.85389" lon="1.99309">
        <ele>113</ele>
        <time>2014-08-21T08:22:32Z</time>
      </trkpt>
      <trkpt lat="48.85385" lon="1.99312">
        <ele>113</ele>
        <time>2014-08-21T08:22:35Z</time>
      </trkpt>
      <trkpt lat="48.85383" lon="1.9932">
        <ele>114</ele>
        <time>2014-08-21T08:22:39Z</time>
      </trkpt>
      <trkpt lat="48.85378" lon="1.9935">
        <ele>114</ele>
        <time>2014-08-21T08:22:50Z</time>
      </trkpt>
      <trkpt lat="48.85395" lon="1.99341">
        <ele>114</ele>
        <time>2014-08-21T08:22:52Z</time>
      </trkpt>
      <trkpt lat="48.85415" lon="1.9935">
        <ele>113</ele>
        <time>2014-08-21T08:22:59Z</time>
      </trkpt>
      <trkpt lat="48.85425" lon="1.99355">
        <ele>114</ele>
        <time>2014-08-21T08:23:03Z</time>
      </trkpt>
      <trkpt lat="48.85435" lon="1.99358">
        <ele>114</ele>
        <time>2014-08-21T08:23:07Z</time>
      </trkpt>
      <trkpt lat="48.85444" lon="1.99364">
        <ele>112</ele>
        <time>2014-08-21T08:23:13Z</time>
      </trkpt>
      <trkpt lat="48.85482" lon="1.99407">
        <ele>116</ele>
        <time>2014-08-21T08:23:45Z</time>
      </trkpt>
      <trkpt lat="48.85483" lon="1.99414">
        <ele>116</ele>
        <time>2014-08-21T08:23:49Z</time>
      </trkpt>
      <trkpt lat="48.85486" lon="1.9942">
        <ele>116</ele>
        <time>2014-08-21T08:23:53Z</time>
      </trkpt>
      <trkpt lat="48.85497" lon="1.99434">
        <ele>114</ele>
        <time>2014-08-21T08:24:05Z</time>
      </trkpt>
      <trkpt lat="48.85505" lon="1.99445">
        <ele>115</ele>
        <time>2014-08-21T08:24:16Z</time>
      </trkpt>
      <trkpt lat="48.85516" lon="1.9946">
        <ele>117</ele>
        <time>2014-08-21T08:24:26Z</time>
      </trkpt>
      <trkpt lat="48.8552" lon="1.99465">
        <ele>117</ele>
        <time>2014-08-21T08:24:29Z</time>
      </trkpt>
      <trkpt lat="48.85528" lon="1.99476">
        <ele>118</ele>
        <time>2014-08-21T08:24:37Z</time>
      </trkpt>
      <trkpt lat="48.8553" lon="1.99482">
        <ele>117</ele>
        <time>2014-08-21T08:24:40Z</time>
      </trkpt>
      <trkpt lat="48.85534" lon="1.99488">
        <ele>117</ele>
        <time>2014-08-21T08:24:44Z</time>
      </trkpt>
      <trkpt lat="48.85537" lon="1.99495">
        <ele>118</ele>
        <time>2014-08-21T08:24:49Z</time>
      </trkpt>
      <trkpt lat="48.8554" lon="1.99509">
        <ele>116</ele>
        <time>2014-08-21T08:25:01Z</time>
      </trkpt>
      <trkpt lat="48.85545" lon="1.99511">
        <ele>116</ele>
        <time>2014-08-21T08:25:07Z</time>
      </trkpt>
      <trkpt lat="48.85563" lon="1.99532">
        <ele>113</ele>
        <time>2014-08-21T08:25:19Z</time>
      </trkpt>
      <trkpt lat="48.85565" lon="1.9954">
        <ele>113</ele>
        <time>2014-08-21T08:25:24Z</time>
      </trkpt>
      <trkpt lat="48.85583" lon="1.99556">
        <ele>110</ele>
        <time>2014-08-21T08:25:38Z</time>
      </trkpt>
      <trkpt lat="48.85587" lon="1.99562">
        <ele>109</ele>
        <time>2014-08-21T08:25:45Z</time>
      </trkpt>
      <trkpt lat="48.85591" lon="1.99568">
        <ele>110</ele>
        <time>2014-08-21T08:25:48Z</time>
      </trkpt>
      <trkpt lat="48.85604" lon="1.99582">
        <ele>111</ele>
        <time>2014-08-21T08:25:57Z</time>
      </trkpt>
      <trkpt lat="48.85607" lon="1.99587">
        <ele>111</ele>
        <time>2014-08-21T08:26:01Z</time>
      </trkpt>
      <trkpt lat="48.8561" lon="1.99593">
        <ele>110</ele>
        <time>2014-08-21T08:26:05Z</time>
      </trkpt>
      <trkpt lat="48.85612" lon="1.99599">
        <ele>110</ele>
        <time>2014-08-21T08:26:08Z</time>
      </trkpt>
      <trkpt lat="48.8562" lon="1.99609">
        <ele>110</ele>
        <time>2014-08-21T08:26:12Z</time>
      </trkpt>
      <trkpt lat="48.85633" lon="1.99621">
        <ele>112</ele>
        <time>2014-08-21T08:26:25Z</time>
      </trkpt>
      <trkpt lat="48.85637" lon="1.99625">
        <ele>112</ele>
        <time>2014-08-21T08:26:28Z</time>
      </trkpt>
      <trkpt lat="48.85641" lon="1.99631">
        <ele>113</ele>
        <time>2014-08-21T08:26:32Z</time>
      </trkpt>
      <trkpt lat="48.85643" lon="1.99638">
        <ele>113</ele>
        <time>2014-08-21T08:26:38Z</time>
      </trkpt>
      <trkpt lat="48.85645" lon="1.99646">
        <ele>112</ele>
        <time>2014-08-21T08:26:42Z</time>
      </trkpt>
      <trkpt lat="48.85648" lon="1.99662">
        <ele>112</ele>
        <time>2014-08-21T08:26:48Z</time>
      </trkpt>
      <trkpt lat="48.85652" lon="1.99665">
        <ele>114</ele>
        <time>2014-08-21T08:26:52Z</time>
      </trkpt>
      <trkpt lat="48.85657" lon="1.99665">
        <ele>115</ele>
        <time>2014-08-21T08:26:55Z</time>
      </trkpt>
      <trkpt lat="48.85667" lon="1.9967">
        <ele>115</ele>
        <time>2014-08-21T08:27:03Z</time>
      </trkpt>
      <trkpt lat="48.85671" lon="1.99674">
        <ele>115</ele>
        <time>2014-08-21T08:27:07Z</time>
      </trkpt>
      <trkpt lat="48.85677" lon="1.99678">
        <ele>115</ele>
        <time>2014-08-21T08:27:11Z</time>
      </trkpt>
      <trkpt lat="48.85686" lon="1.99684">
        <ele>116</ele>
        <time>2014-08-21T08:27:18Z</time>
      </trkpt>
      <trkpt lat="48.85687" lon="1.99693">
        <ele>117</ele>
        <time>2014-08-21T08:27:22Z</time>
      </trkpt>
      <trkpt lat="48.8569" lon="1.99699">
        <ele>117</ele>
        <time>2014-08-21T08:27:26Z</time>
      </trkpt>
      <trkpt lat="48.85718" lon="1.99729">
        <ele>110</ele>
        <time>2014-08-21T08:27:53Z</time>
      </trkpt>
      <trkpt lat="48.85725" lon="1.99739">
        <ele>111</ele>
        <time>2014-08-21T08:27:59Z</time>
      </trkpt>
      <trkpt lat="48.85728" lon="1.99745">
        <ele>110</ele>
        <time>2014-08-21T08:28:02Z</time>
      </trkpt>
      <trkpt lat="48.85732" lon="1.99751">
        <ele>110</ele>
        <time>2014-08-21T08:28:07Z</time>
      </trkpt>
      <trkpt lat="48.85747" lon="1.99761">
        <ele>113</ele>
        <time>2014-08-21T08:28:20Z</time>
      </trkpt>
      <trkpt lat="48.85752" lon="1.99761">
        <ele>113</ele>
        <time>2014-08-21T08:28:25Z</time>
      </trkpt>
      <trkpt lat="48.8576" lon="1.9977">
        <ele>112</ele>
        <time>2014-08-21T08:28:34Z</time>
      </trkpt>
      <trkpt lat="48.85775" lon="1.99783">
        <ele>112</ele>
        <time>2014-08-21T08:28:44Z</time>
      </trkpt>
      <trkpt lat="48.85779" lon="1.99787">
        <ele>111</ele>
        <time>2014-08-21T08:28:46Z</time>
      </trkpt>
      <trkpt lat="48.85783" lon="1.9979">
        <ele>111</ele>
        <time>2014-08-21T08:28:49Z</time>
      </trkpt>
      <trkpt lat="48.85801" lon="1.99804">
        <ele>113</ele>
        <time>2014-08-21T08:29:02Z</time>
      </trkpt>
      <trkpt lat="48.85805" lon="1.9981">
        <ele>113</ele>
        <time>2014-08-21T08:29:07Z</time>
      </trkpt>
      <trkpt lat="48.85807" lon="1.99817">
        <ele>113</ele>
        <time>2014-08-21T08:29:13Z</time>
      </trkpt>
      <trkpt lat="48.8581" lon="1.99823">
        <ele>113</ele>
        <time>2014-08-21T08:29:17Z</time>
      </trkpt>
      <trkpt lat="48.85814" lon="1.99828">
        <ele>113</ele>
        <time>2014-08-21T08:29:20Z</time>
      </trkpt>
      <trkpt lat="48.85818" lon="1.99833">
        <ele>112</ele>
        <time>2014-08-21T08:29:24Z</time>
      </trkpt>
      <trkpt lat="48.85821" lon="1.99839">
        <ele>113</ele>
        <time>2014-08-21T08:29:28Z</time>
      </trkpt>
      <trkpt lat="48.8583" lon="1.99848">
        <ele>115</ele>
        <time>2014-08-21T08:29:36Z</time>
      </trkpt>
      <trkpt lat="48.85842" lon="1.99862">
        <ele>115</ele>
        <time>2014-08-21T08:29:47Z</time>
      </trkpt>
      <trkpt lat="48.85846" lon="1.99865">
        <ele>116</ele>
        <time>2014-08-21T08:29:50Z</time>
      </trkpt>
      <trkpt lat="48.8585" lon="1.9987">
        <ele>116</ele>
        <time>2014-08-21T08:29:54Z</time>
      </trkpt>
      <trkpt lat="48.85863" lon="1.99883">
        <ele>119</ele>
        <time>2014-08-21T08:30:06Z</time>
      </trkpt>
      <trkpt lat="48.85869" lon="1.99895">
        <ele>118</ele>
        <time>2014-08-21T08:30:16Z</time>
      </trkpt>
      <trkpt lat="48.85872" lon="1.99902">
        <ele>117</ele>
        <time>2014-08-21T08:30:23Z</time>
      </trkpt>
      <trkpt lat="48.85885" lon="1.99915">
        <ele>116</ele>
        <time>2014-08-21T08:30:33Z</time>
      </trkpt>
      <trkpt lat="48.85887" lon="1.99923">
        <ele>115</ele>
        <time>2014-08-21T08:30:38Z</time>
      </trkpt>
      <trkpt lat="48.85891" lon="1.99928">
        <ele>115</ele>
        <time>2014-08-21T08:30:42Z</time>
      </trkpt>
      <trkpt lat="48.85906" lon="1.99951">
        <ele>116</ele>
        <time>2014-08-21T08:30:58Z</time>
      </trkpt>
      <trkpt lat="48.85932" lon="1.99966">
        <ele>114</ele>
        <time>2014-08-21T08:31:08Z</time>
      </trkpt>
      <trkpt lat="48.85933" lon="1.99978">
        <ele>113</ele>
        <time>2014-08-21T08:31:22Z</time>
      </trkpt>
      <trkpt lat="48.85934" lon="1.99986">
        <ele>114</ele>
        <time>2014-08-21T08:31:27Z</time>
      </trkpt>
      <trkpt lat="48.85942" lon="1.99996">
        <ele>114</ele>
        <time>2014-08-21T08:31:33Z</time>
      </trkpt>
      <trkpt lat="48.85956" lon="2.00005">
        <ele>116</ele>
        <time>2014-08-21T08:31:47Z</time>
      </trkpt>
      <trkpt lat="48.85959" lon="2.00011">
        <ele>117</ele>
        <time>2014-08-21T08:31:51Z</time>
      </trkpt>
      <trkpt lat="48.8598" lon="2.00034">
        <ele>121</ele>
        <time>2014-08-21T08:32:11Z</time>
      </trkpt>
      <trkpt lat="48.85988" lon="2.00043">
        <ele>120</ele>
        <time>2014-08-21T08:32:19Z</time>
      </trkpt>
      <trkpt lat="48.86001" lon="2.0005">
        <ele>122</ele>
        <time>2014-08-21T08:32:52Z</time>
      </trkpt>
      <trkpt lat="48.86006" lon="2.00054">
        <ele>122</ele>
        <time>2014-08-21T08:32:56Z</time>
      </trkpt>
      <trkpt lat="48.8601" lon="2.00058">
        <ele>122</ele>
        <time>2014-08-21T08:33:00Z</time>
      </trkpt>
      <trkpt lat="48.86014" lon="2.00061">
        <ele>123</ele>
        <time>2014-08-21T08:33:04Z</time>
      </trkpt>
      <trkpt lat="48.86022" lon="2.00067">
        <ele>123</ele>
        <time>2014-08-21T08:33:13Z</time>
      </trkpt>
      <trkpt lat="48.86027" lon="2.00065">
        <ele>123</ele>
        <time>2014-08-21T08:33:16Z</time>
      </trkpt>
      <trkpt lat="48.86032" lon="2.00064">
        <ele>124</ele>
        <time>2014-08-21T08:33:20Z</time>
      </trkpt>
      <trkpt lat="48.86035" lon="2.00069">
        <ele>124</ele>
        <time>2014-08-21T08:33:24Z</time>
      </trkpt>
      <trkpt lat="48.86038" lon="2.00074">
        <ele>125</ele>
        <time>2014-08-21T08:33:28Z</time>
      </trkpt>
      <trkpt lat="48.86042" lon="2.00079">
        <ele>124</ele>
        <time>2014-08-21T08:33:33Z</time>
      </trkpt>
      <trkpt lat="48.86047" lon="2.00084">
        <ele>125</ele>
        <time>2014-08-21T08:33:39Z</time>
      </trkpt>
      <trkpt lat="48.86056" lon="2.0009">
        <ele>124</ele>
        <time>2014-08-21T08:33:46Z</time>
      </trkpt>
      <trkpt lat="48.86061" lon="2.0009">
        <ele>124</ele>
        <time>2014-08-21T08:33:50Z</time>
      </trkpt>
      <trkpt lat="48.86061" lon="2.00096">
        <ele>122</ele>
        <time>2014-08-21T08:34:11Z</time>
      </trkpt>
      <trkpt lat="48.86064" lon="2.00102">
        <ele>121</ele>
        <time>2014-08-21T08:34:18Z</time>
      </trkpt>
      <trkpt lat="48.86069" lon="2.00103">
        <ele>120</ele>
        <time>2014-08-21T08:34:22Z</time>
      </trkpt>
      <trkpt lat="48.86078" lon="2.00106">
        <ele>119</ele>
        <time>2014-08-21T08:34:29Z</time>
      </trkpt>
      <trkpt lat="48.86083" lon="2.0011">
        <ele>119</ele>
        <time>2014-08-21T08:34:32Z</time>
      </trkpt>
      <trkpt lat="48.86087" lon="2.00113">
        <ele>120</ele>
        <time>2014-08-21T08:34:35Z</time>
      </trkpt>
      <trkpt lat="48.86106" lon="2.00124">
        <ele>120</ele>
        <time>2014-08-21T08:34:51Z</time>
      </trkpt>
      <trkpt lat="48.86117" lon="2.00139">
        <ele>118</ele>
        <time>2014-08-21T08:35:04Z</time>
      </trkpt>
      <trkpt lat="48.86121" lon="2.00142">
        <ele>119</ele>
        <time>2014-08-21T08:35:08Z</time>
      </trkpt>
      <trkpt lat="48.86136" lon="2.00149">
        <ele>121</ele>
        <time>2014-08-21T08:35:19Z</time>
      </trkpt>
      <trkpt lat="48.86141" lon="2.00148">
        <ele>121</ele>
        <time>2014-08-21T08:35:23Z</time>
      </trkpt>
      <trkpt lat="48.86146" lon="2.00151">
        <ele>121</ele>
        <time>2014-08-21T08:35:27Z</time>
      </trkpt>
      <trkpt lat="48.8615" lon="2.00154">
        <ele>122</ele>
        <time>2014-08-21T08:35:30Z</time>
      </trkpt>
      <trkpt lat="48.86173" lon="2.00166">
        <ele>126</ele>
        <time>2014-08-21T08:35:50Z</time>
      </trkpt>
      <trkpt lat="48.86186" lon="2.00177">
        <ele>125</ele>
        <time>2014-08-21T08:36:02Z</time>
      </trkpt>
      <trkpt lat="48.86196" lon="2.00183">
        <ele>125</ele>
        <time>2014-08-21T08:36:12Z</time>
      </trkpt>
      <trkpt lat="48.86203" lon="2.00191">
        <ele>124</ele>
        <time>2014-08-21T08:36:20Z</time>
      </trkpt>
      <trkpt lat="48.86205" lon="2.00199">
        <ele>123</ele>
        <time>2014-08-21T08:36:28Z</time>
      </trkpt>
      <trkpt lat="48.86211" lon="2.00203">
        <ele>123</ele>
        <time>2014-08-21T08:36:31Z</time>
      </trkpt>
      <trkpt lat="48.86215" lon="2.00205">
        <ele>123</ele>
        <time>2014-08-21T08:36:33Z</time>
      </trkpt>
      <trkpt lat="48.8623" lon="2.00212">
        <ele>124</ele>
        <time>2014-08-21T08:36:41Z</time>
      </trkpt>
      <trkpt lat="48.86248" lon="2.00222">
        <ele>122</ele>
        <time>2014-08-21T08:36:56Z</time>
      </trkpt>
      <trkpt lat="48.86253" lon="2.00223">
        <ele>122</ele>
        <time>2014-08-21T08:37:00Z</time>
      </trkpt>
      <trkpt lat="48.86258" lon="2.00226">
        <ele>122</ele>
        <time>2014-08-21T08:37:04Z</time>
      </trkpt>
      <trkpt lat="48.86266" lon="2.00234">
        <ele>122</ele>
        <time>2014-08-21T08:37:11Z</time>
      </trkpt>
      <trkpt lat="48.86271" lon="2.00238">
        <ele>122</ele>
        <time>2014-08-21T08:37:15Z</time>
      </trkpt>
      <trkpt lat="48.86286" lon="2.00239">
        <ele>125</ele>
        <time>2014-08-21T08:37:26Z</time>
      </trkpt>
      <trkpt lat="48.86289" lon="2.00244">
        <ele>125</ele>
        <time>2014-08-21T08:37:31Z</time>
      </trkpt>
      <trkpt lat="48.86293" lon="2.00247">
        <ele>125</ele>
        <time>2014-08-21T08:37:36Z</time>
      </trkpt>
      <trkpt lat="48.86302" lon="2.00256">
        <ele>123</ele>
        <time>2014-08-21T08:37:46Z</time>
      </trkpt>
      <trkpt lat="48.86306" lon="2.00254">
        <ele>123</ele>
        <time>2014-08-21T08:37:49Z</time>
      </trkpt>
      <trkpt lat="48.86312" lon="2.00252">
        <ele>124</ele>
        <time>2014-08-21T08:37:56Z</time>
      </trkpt>
      <trkpt lat="48.8631" lon="2.00254">
        <ele>124</ele>
        <time>2014-08-21T08:38:08Z</time>
      </trkpt>
      <trkpt lat="48.86307" lon="2.0026">
        <ele>126</ele>
        <time>2014-08-21T08:38:26Z</time>
      </trkpt>
      <trkpt lat="48.86309" lon="2.00264">
        <ele>126</ele>
        <time>2014-08-21T08:38:35Z</time>
      </trkpt>
      <trkpt lat="48.86317" lon="2.00266">
        <ele>127</ele>
        <time>2014-08-21T08:38:48Z</time>
      </trkpt>
      <trkpt lat="48.86321" lon="2.00269">
        <ele>126</ele>
        <time>2014-08-21T08:38:55Z</time>
      </trkpt>
      <trkpt lat="48.86334" lon="2.00281">
        <ele>124</ele>
        <time>2014-08-21T08:39:10Z</time>
      </trkpt>
      <trkpt lat="48.86338" lon="2.00283">
        <ele>124</ele>
        <time>2014-08-21T08:39:13Z</time>
      </trkpt>
      <trkpt lat="48.86342" lon="2.00287">
        <ele>125</ele>
        <time>2014-08-21T08:39:17Z</time>
      </trkpt>
      <trkpt lat="48.86352" lon="2.00292">
        <ele>124</ele>
        <time>2014-08-21T08:39:24Z</time>
      </trkpt>
      <trkpt lat="48.86355" lon="2.00298">
        <ele>124</ele>
        <time>2014-08-21T08:39:28Z</time>
      </trkpt>
      <trkpt lat="48.8636" lon="2.00301">
        <ele>124</ele>
        <time>2014-08-21T08:39:31Z</time>
      </trkpt>
      <trkpt lat="48.86366" lon="2.00304">
        <ele>124</ele>
        <time>2014-08-21T08:39:35Z</time>
      </trkpt>
      <trkpt lat="48.86382" lon="2.00322">
        <ele>123</ele>
        <time>2014-08-21T08:39:48Z</time>
      </trkpt>
      <trkpt lat="48.86385" lon="2.00329">
        <ele>122</ele>
        <time>2014-08-21T08:39:57Z</time>
      </trkpt>
      <trkpt lat="48.86389" lon="2.00334">
        <ele>120</ele>
        <time>2014-08-21T08:40:03Z</time>
      </trkpt>
      <trkpt lat="48.86403" lon="2.00343">
        <ele>119</ele>
        <time>2014-08-21T08:40:13Z</time>
      </trkpt>
      <trkpt lat="48.86412" lon="2.00359">
        <ele>121</ele>
        <time>2014-08-21T08:40:27Z</time>
      </trkpt>
      <trkpt lat="48.86417" lon="2.0036">
        <ele>121</ele>
        <time>2014-08-21T08:40:30Z</time>
      </trkpt>
      <trkpt lat="48.8644" lon="2.00378">
        <ele>128</ele>
        <time>2014-08-21T08:40:47Z</time>
      </trkpt>
      <trkpt lat="48.86444" lon="2.00382">
        <ele>128</ele>
        <time>2014-08-21T08:40:51Z</time>
      </trkpt>
      <trkpt lat="48.86457" lon="2.00392">
        <ele>127</ele>
        <time>2014-08-21T08:41:05Z</time>
      </trkpt>
      <trkpt lat="48.86462" lon="2.00395">
        <ele>127</ele>
        <time>2014-08-21T08:41:09Z</time>
      </trkpt>
      <trkpt lat="48.86467" lon="2.00399">
        <ele>127</ele>
        <time>2014-08-21T08:41:14Z</time>
      </trkpt>
      <trkpt lat="48.865" lon="2.00423">
        <ele>124</ele>
        <time>2014-08-21T08:41:43Z</time>
      </trkpt>
      <trkpt lat="48.86505" lon="2.00426">
        <ele>125</ele>
        <time>2014-08-21T08:41:48Z</time>
      </trkpt>
      <trkpt lat="48.86509" lon="2.00431">
        <ele>125</ele>
        <time>2014-08-21T08:41:52Z</time>
      </trkpt>
      <trkpt lat="48.8652" lon="2.00434">
        <ele>125</ele>
        <time>2014-08-21T08:42:00Z</time>
      </trkpt>
      <trkpt lat="48.86535" lon="2.0044">
        <ele>127</ele>
        <time>2014-08-21T08:42:13Z</time>
      </trkpt>
      <trkpt lat="48.86548" lon="2.00451">
        <ele>124</ele>
        <time>2014-08-21T08:42:30Z</time>
      </trkpt>
      <trkpt lat="48.86554" lon="2.00452">
        <ele>124</ele>
        <time>2014-08-21T08:42:34Z</time>
      </trkpt>
      <trkpt lat="48.86557" lon="2.00456">
        <ele>123</ele>
        <time>2014-08-21T08:42:39Z</time>
      </trkpt>
      <trkpt lat="48.86566" lon="2.00463">
        <ele>121</ele>
        <time>2014-08-21T08:42:50Z</time>
      </trkpt>
      <trkpt lat="48.86571" lon="2.00465">
        <ele>120</ele>
        <time>2014-08-21T08:42:53Z</time>
      </trkpt>
      <trkpt lat="48.86575" lon="2.00468">
        <ele>121</ele>
        <time>2014-08-21T08:42:56Z</time>
      </trkpt>
      <trkpt lat="48.86598" lon="2.00481">
        <ele>124</ele>
        <time>2014-08-21T08:43:14Z</time>
      </trkpt>
      <trkpt lat="48.86603" lon="2.00485">
        <ele>124</ele>
        <time>2014-08-21T08:43:18Z</time>
      </trkpt>
      <trkpt lat="48.86608" lon="2.00486">
        <ele>124</ele>
        <time>2014-08-21T08:43:22Z</time>
      </trkpt>
      <trkpt lat="48.86634" lon="2.00499">
        <ele>127</ele>
        <time>2014-08-21T08:43:44Z</time>
      </trkpt>
      <trkpt lat="48.86653" lon="2.00506">
        <ele>131</ele>
        <time>2014-08-21T08:44:01Z</time>
      </trkpt>
      <trkpt lat="48.86658" lon="2.00508">
        <ele>131</ele>
        <time>2014-08-21T08:44:05Z</time>
      </trkpt>
      <trkpt lat="48.86667" lon="2.00514">
        <ele>130</ele>
        <time>2014-08-21T08:44:14Z</time>
      </trkpt>
      <trkpt lat="48.86691" lon="2.0053">
        <ele>129</ele>
        <time>2014-08-21T08:44:34Z</time>
      </trkpt>
      <trkpt lat="48.86716" lon="2.00544">
        <ele>131</ele>
        <time>2014-08-21T08:44:57Z</time>
      </trkpt>
      <trkpt lat="48.86726" lon="2.00547">
        <ele>131</ele>
        <time>2014-08-21T08:45:06Z</time>
      </trkpt>
      <trkpt lat="48.86742" lon="2.00563">
        <ele>126</ele>
        <time>2014-08-21T08:45:22Z</time>
      </trkpt>
      <trkpt lat="48.86751" lon="2.0057">
        <ele>126</ele>
        <time>2014-08-21T08:45:30Z</time>
      </trkpt>
      <trkpt lat="48.86755" lon="2.00575">
        <ele>126</ele>
        <time>2014-08-21T08:45:35Z</time>
      </trkpt>
      <trkpt lat="48.86759" lon="2.0058">
        <ele>126</ele>
        <time>2014-08-21T08:45:39Z</time>
      </trkpt>
      <trkpt lat="48.86768" lon="2.00589">
        <ele>125</ele>
        <time>2014-08-21T08:45:48Z</time>
      </trkpt>
      <trkpt lat="48.86776" lon="2.00598">
        <ele>125</ele>
        <time>2014-08-21T08:45:55Z</time>
      </trkpt>
      <trkpt lat="48.86782" lon="2.00599">
        <ele>126</ele>
        <time>2014-08-21T08:46:01Z</time>
      </trkpt>
      <trkpt lat="48.86785" lon="2.00604">
        <ele>127</ele>
        <time>2014-08-21T08:46:06Z</time>
      </trkpt>
      <trkpt lat="48.86788" lon="2.00611">
        <ele>127</ele>
        <time>2014-08-21T08:46:10Z</time>
      </trkpt>
      <trkpt lat="48.86793" lon="2.00614">
        <ele>127</ele>
        <time>2014-08-21T08:46:14Z</time>
      </trkpt>
      <trkpt lat="48.86802" lon="2.0062">
        <ele>127</ele>
        <time>2014-08-21T08:46:20Z</time>
      </trkpt>
      <trkpt lat="48.86806" lon="2.00625">
        <ele>127</ele>
        <time>2014-08-21T08:46:24Z</time>
      </trkpt>
      <trkpt lat="48.86824" lon="2.00639">
        <ele>122</ele>
        <time>2014-08-21T08:46:44Z</time>
      </trkpt>
      <trkpt lat="48.86835" lon="2.00644">
        <ele>122</ele>
        <time>2014-08-21T08:46:49Z</time>
      </trkpt>
      <trkpt lat="48.86844" lon="2.00651">
        <ele>125</ele>
        <time>2014-08-21T08:46:55Z</time>
      </trkpt>
      <trkpt lat="48.86846" lon="2.00657">
        <ele>124</ele>
        <time>2014-08-21T08:47:04Z</time>
      </trkpt>
      <trkpt lat="48.86852" lon="2.0066">
        <ele>124</ele>
        <time>2014-08-21T08:47:07Z</time>
      </trkpt>
      <trkpt lat="48.86871" lon="2.00671">
        <ele>126</ele>
        <time>2014-08-21T08:47:21Z</time>
      </trkpt>
      <trkpt lat="48.86876" lon="2.00675">
        <ele>126</ele>
        <time>2014-08-21T08:47:26Z</time>
      </trkpt>
      <trkpt lat="48.86884" lon="2.00685">
        <ele>125</ele>
        <time>2014-08-21T08:47:36Z</time>
      </trkpt>
      <trkpt lat="48.8689" lon="2.00693">
        <ele>125</ele>
        <time>2014-08-21T08:47:41Z</time>
      </trkpt>
      <trkpt lat="48.86896" lon="2.00696">
        <ele>125</ele>
        <time>2014-08-21T08:47:44Z</time>
      </trkpt>
      <trkpt lat="48.869" lon="2.00698">
        <ele>126</ele>
        <time>2014-08-21T08:47:47Z</time>
      </trkpt>
      <trkpt lat="48.86904" lon="2.00703">
        <ele>128</ele>
        <time>2014-08-21T08:47:51Z</time>
      </trkpt>
      <trkpt lat="48.86907" lon="2.00709">
        <ele>128</ele>
        <time>2014-08-21T08:47:56Z</time>
      </trkpt>
      <trkpt lat="48.8691" lon="2.00714">
        <ele>127</ele>
        <time>2014-08-21T08:48:00Z</time>
      </trkpt>
      <trkpt lat="48.86916" lon="2.00724">
        <ele>128</ele>
        <time>2014-08-21T08:48:12Z</time>
      </trkpt>
      <trkpt lat="48.86919" lon="2.0073">
        <ele>128</ele>
        <time>2014-08-21T08:48:18Z</time>
      </trkpt>
      <trkpt lat="48.86927" lon="2.0074">
        <ele>128</ele>
        <time>2014-08-21T08:48:27Z</time>
      </trkpt>
      <trkpt lat="48.86935" lon="2.00747">
        <ele>128</ele>
        <time>2014-08-21T08:48:31Z</time>
      </trkpt>
      <trkpt lat="48.86938" lon="2.00754">
        <ele>128</ele>
        <time>2014-08-21T08:48:34Z</time>
      </trkpt>
      <trkpt lat="48.86939" lon="2.00761">
        <ele>128</ele>
        <time>2014-08-21T08:48:38Z</time>
      </trkpt>
      <trkpt lat="48.86943" lon="2.00766">
        <ele>128</ele>
        <time>2014-08-21T08:48:42Z</time>
      </trkpt>
      <trkpt lat="48.86947" lon="2.0077">
        <ele>129</ele>
        <time>2014-08-21T08:48:49Z</time>
      </trkpt>
      <trkpt lat="48.8695" lon="2.00776">
        <ele>128</ele>
        <time>2014-08-21T08:48:55Z</time>
      </trkpt>
      <trkpt lat="48.86955" lon="2.00776">
        <ele>128</ele>
        <time>2014-08-21T08:48:59Z</time>
      </trkpt>
      <trkpt lat="48.86961" lon="2.00777">
        <ele>127</ele>
        <time>2014-08-21T08:49:03Z</time>
      </trkpt>
      <trkpt lat="48.86991" lon="2.00798">
        <ele>128</ele>
        <time>2014-08-21T08:49:29Z</time>
      </trkpt>
      <trkpt lat="48.87001" lon="2.00816">
        <ele>127</ele>
        <time>2014-08-21T08:49:44Z</time>
      </trkpt>
      <trkpt lat="48.87006" lon="2.00817">
        <ele>127</ele>
        <time>2014-08-21T08:49:47Z</time>
      </trkpt>
      <trkpt lat="48.87011" lon="2.00819">
        <ele>129</ele>
        <time>2014-08-21T08:49:50Z</time>
      </trkpt>
      <trkpt lat="48.87016" lon="2.00823">
        <ele>132</ele>
        <time>2014-08-21T08:49:55Z</time>
      </trkpt>
      <trkpt lat="48.87036" lon="2.0083">
        <ele>136</ele>
        <time>2014-08-21T08:50:09Z</time>
      </trkpt>
      <trkpt lat="48.87042" lon="2.00832">
        <ele>135</ele>
        <time>2014-08-21T08:50:13Z</time>
      </trkpt>
      <trkpt lat="48.87051" lon="2.00838">
        <ele>133</ele>
        <time>2014-08-21T08:50:21Z</time>
      </trkpt>
      <trkpt lat="48.87055" lon="2.00841">
        <ele>133</ele>
        <time>2014-08-21T08:50:25Z</time>
      </trkpt>
      <trkpt lat="48.87069" lon="2.0085">
        <ele>136</ele>
        <time>2014-08-21T08:50:38Z</time>
      </trkpt>
      <trkpt lat="48.87074" lon="2.00852">
        <ele>136</ele>
        <time>2014-08-21T08:50:42Z</time>
      </trkpt>
      <trkpt lat="48.87083" lon="2.00854">
        <ele>137</ele>
        <time>2014-08-21T08:50:51Z</time>
      </trkpt>
      <trkpt lat="48.87096" lon="2.00869">
        <ele>138</ele>
        <time>2014-08-21T08:51:02Z</time>
      </trkpt>
      <trkpt lat="48.87099" lon="2.00874">
        <ele>140</ele>
        <time>2014-08-21T08:51:09Z</time>
      </trkpt>
      <trkpt lat="48.87107" lon="2.00881">
        <ele>140</ele>
        <time>2014-08-21T08:51:16Z</time>
      </trkpt>
      <trkpt lat="48.87122" lon="2.00892">
        <ele>141</ele>
        <time>2014-08-21T08:51:27Z</time>
      </trkpt>
      <trkpt lat="48.87124" lon="2.00895">
        <ele>142</ele>
        <time>2014-08-21T08:51:34Z</time>
      </trkpt>
      <trkpt lat="48.87128" lon="2.0089">
        <ele>143</ele>
        <time>2014-08-21T08:51:37Z</time>
      </trkpt>
      <trkpt lat="48.87132" lon="2.00886">
        <ele>144</ele>
        <time>2014-08-21T08:51:40Z</time>
      </trkpt>
      <trkpt lat="48.87143" lon="2.00887">
        <ele>147</ele>
        <time>2014-08-21T08:51:47Z</time>
      </trkpt>
      <trkpt lat="48.87148" lon="2.00889">
        <ele>146</ele>
        <time>2014-08-21T08:51:50Z</time>
      </trkpt>
      <trkpt lat="48.87153" lon="2.00892">
        <ele>145</ele>
        <time>2014-08-21T08:51:54Z</time>
      </trkpt>
      <trkpt lat="48.87157" lon="2.00897">
        <ele>145</ele>
        <time>2014-08-21T08:52:00Z</time>
      </trkpt>
      <trkpt lat="48.87167" lon="2.00899">
        <ele>145</ele>
        <time>2014-08-21T08:52:08Z</time>
      </trkpt>
      <trkpt lat="48.87172" lon="2.00903">
        <ele>146</ele>
        <time>2014-08-21T08:52:13Z</time>
      </trkpt>
      <trkpt lat="48.87176" lon="2.00907">
        <ele>145</ele>
        <time>2014-08-21T08:52:17Z</time>
      </trkpt>
      <trkpt lat="48.87186" lon="2.00908">
        <ele>143</ele>
        <time>2014-08-21T08:52:23Z</time>
      </trkpt>
      <trkpt lat="48.8719" lon="2.00914">
        <ele>143</ele>
        <time>2014-08-21T08:52:29Z</time>
      </trkpt>
      <trkpt lat="48.87193" lon="2.00919">
        <ele>143</ele>
        <time>2014-08-21T08:52:34Z</time>
      </trkpt>
      <trkpt lat="48.87202" lon="2.00937">
        <ele>140</ele>
        <time>2014-08-21T08:52:47Z</time>
      </trkpt>
      <trkpt lat="48.87228" lon="2.00953">
        <ele>148</ele>
        <time>2014-08-21T08:53:05Z</time>
      </trkpt>
      <trkpt lat="48.87233" lon="2.00952">
        <ele>149</ele>
        <time>2014-08-21T08:53:09Z</time>
      </trkpt>
      <trkpt lat="48.87237" lon="2.00953">
        <ele>148</ele>
        <time>2014-08-21T08:53:17Z</time>
      </trkpt>
      <trkpt lat="48.87242" lon="2.00955">
        <ele>148</ele>
        <time>2014-08-21T08:53:39Z</time>
      </trkpt>
      <trkpt lat="48.87247" lon="2.00949">
        <ele>148</ele>
        <time>2014-08-21T08:54:09Z</time>
      </trkpt>
      <trkpt lat="48.87252" lon="2.00948">
        <ele>148</ele>
        <time>2014-08-21T08:54:14Z</time>
      </trkpt>
      <trkpt lat="48.87256" lon="2.00952">
        <ele>147</ele>
        <time>2014-08-21T08:54:20Z</time>
      </trkpt>
      <trkpt lat="48.87275" lon="2.00975">
        <ele>140</ele>
        <time>2014-08-21T08:54:52Z</time>
      </trkpt>
      <trkpt lat="48.87274" lon="2.00968">
        <ele>141</ele>
        <time>2014-08-21T08:56:14Z</time>
      </trkpt>
      <trkpt lat="48.87276" lon="2.00969">
        <ele>145</ele>
        <time>2014-08-21T08:56:49Z</time>
      </trkpt>
      <trkpt lat="48.8727" lon="2.00992">
        <ele>145</ele>
        <time>2014-08-21T08:56:55Z</time>
      </trkpt>
      <trkpt lat="48.87273" lon="2.01006">
        <ele>145</ele>
        <time>2014-08-21T08:57:00Z</time>
      </trkpt>
      <trkpt lat="48.8728" lon="2.01015">
        <ele>145</ele>
        <time>2014-08-21T08:57:05Z</time>
      </trkpt>
      <trkpt lat="48.8729" lon="2.01012">
        <ele>144</ele>
        <time>2014-08-21T08:57:18Z</time>
      </trkpt>
      <trkpt lat="48.87297" lon="2.0102">
        <ele>143</ele>
        <time>2014-08-21T08:57:25Z</time>
      </trkpt>
      <trkpt lat="48.87298" lon="2.01036">
        <ele>142</ele>
        <time>2014-08-21T08:57:31Z</time>
      </trkpt>
      <trkpt lat="48.87298" lon="2.01044">
        <ele>142</ele>
        <time>2014-08-21T08:57:35Z</time>
      </trkpt>
      <trkpt lat="48.87302" lon="2.01046">
        <ele>142</ele>
        <time>2014-08-21T08:57:39Z</time>
      </trkpt>
      <trkpt lat="48.87315" lon="2.01058">
        <ele>145</ele>
        <time>2014-08-21T08:57:51Z</time>
      </trkpt>
      <trkpt lat="48.8732" lon="2.01057">
        <ele>146</ele>
        <time>2014-08-21T08:57:59Z</time>
      </trkpt>
      <trkpt lat="48.87325" lon="2.01061">
        <ele>149</ele>
        <time>2014-08-21T08:58:10Z</time>
      </trkpt>
      <trkpt lat="48.87322" lon="2.01067">
        <ele>152</ele>
        <time>2014-08-21T08:58:13Z</time>
      </trkpt>
      <trkpt lat="48.87326" lon="2.01072">
        <ele>155</ele>
        <time>2014-08-21T08:58:17Z</time>
      </trkpt>
      <trkpt lat="48.8733" lon="2.01075">
        <ele>158</ele>
        <time>2014-08-21T08:58:24Z</time>
      </trkpt>
      <trkpt lat="48.87329" lon="2.01082">
        <ele>161</ele>
        <time>2014-08-21T08:58:29Z</time>
      </trkpt>
      <trkpt lat="48.87328" lon="2.01089">
        <ele>164</ele>
        <time>2014-08-21T08:58:33Z</time>
      </trkpt>
      <trkpt lat="48.87332" lon="2.01093">
        <ele>166</ele>
        <time>2014-08-21T08:58:39Z</time>
      </trkpt>
      <trkpt lat="48.87334" lon="2.01101">
        <ele>169</ele>
        <time>2014-08-21T08:58:45Z</time>
      </trkpt>
      <trkpt lat="48.87336" lon="2.01109">
        <ele>169</ele>
        <time>2014-08-21T08:58:50Z</time>
      </trkpt>
      <trkpt lat="48.87339" lon="2.01114">
        <ele>168</ele>
        <time>2014-08-21T08:58:55Z</time>
      </trkpt>
      <trkpt lat="48.87341" lon="2.01121">
        <ele>168</ele>
        <time>2014-08-21T08:59:01Z</time>
      </trkpt>
      <trkpt lat="48.87342" lon="2.01128">
        <ele>167</ele>
        <time>2014-08-21T08:59:06Z</time>
      </trkpt>
      <trkpt lat="48.87347" lon="2.01131">
        <ele>166</ele>
        <time>2014-08-21T08:59:09Z</time>
      </trkpt>
      <trkpt lat="48.8735" lon="2.01138">
        <ele>166</ele>
        <time>2014-08-21T08:59:14Z</time>
      </trkpt>
      <trkpt lat="48.87354" lon="2.01148">
        <ele>177</ele>
        <time>2014-08-21T08:59:29Z</time>
      </trkpt>
      <trkpt lat="48.87359" lon="2.0115">
        <ele>179</ele>
        <time>2014-08-21T08:59:34Z</time>
      </trkpt>
      <trkpt lat="48.8736" lon="2.01157">
        <ele>182</ele>
        <time>2014-08-21T08:59:40Z</time>
      </trkpt>
      <trkpt lat="48.87364" lon="2.01159">
        <ele>181</ele>
        <time>2014-08-21T08:59:44Z</time>
      </trkpt>
      <trkpt lat="48.87371" lon="2.01159">
        <ele>180</ele>
        <time>2014-08-21T08:59:55Z</time>
      </trkpt>
      <trkpt lat="48.87376" lon="2.01159">
        <ele>181</ele>
        <time>2014-08-21T08:59:59Z</time>
      </trkpt>
      <trkpt lat="48.87397" lon="2.01158">
        <ele>177</ele>
        <time>2014-08-21T09:00:20Z</time>
      </trkpt>
      <trkpt lat="48.87401" lon="2.01155">
        <ele>178</ele>
        <time>2014-08-21T09:00:26Z</time>
      </trkpt>
      <trkpt lat="48.87406" lon="2.01153">
        <ele>180</ele>
        <time>2014-08-21T09:00:30Z</time>
      </trkpt>
      <trkpt lat="48.87411" lon="2.01155">
        <ele>181</ele>
        <time>2014-08-21T09:00:37Z</time>
      </trkpt>
      <trkpt lat="48.87421" lon="2.01156">
        <ele>182</ele>
        <time>2014-08-21T09:00:45Z</time>
      </trkpt>
      <trkpt lat="48.87429" lon="2.01165">
        <ele>179</ele>
        <time>2014-08-21T09:00:56Z</time>
      </trkpt>
      <trkpt lat="48.87435" lon="2.01168">
        <ele>179</ele>
        <time>2014-08-21T09:01:03Z</time>
      </trkpt>
      <trkpt lat="48.87439" lon="2.01172">
        <ele>179</ele>
        <time>2014-08-21T09:01:07Z</time>
      </trkpt>
      <trkpt lat="48.87437" lon="2.0118">
        <ele>177</ele>
        <time>2014-08-21T09:01:10Z</time>
      </trkpt>
      <trkpt lat="48.87435" lon="2.01197">
        <ele>171</ele>
        <time>2014-08-21T09:01:23Z</time>
      </trkpt>
      <trkpt lat="48.87435" lon="2.01205">
        <ele>171</ele>
        <time>2014-08-21T09:01:27Z</time>
      </trkpt>
      <trkpt lat="48.87432" lon="2.01219">
        <ele>172</ele>
        <time>2014-08-21T09:01:37Z</time>
      </trkpt>
      <trkpt lat="48.87432" lon="2.01227">
        <ele>175</ele>
        <time>2014-08-21T09:01:43Z</time>
      </trkpt>
      <trkpt lat="48.87427" lon="2.01238">
        <ele>178</ele>
        <time>2014-08-21T09:01:52Z</time>
      </trkpt>
      <trkpt lat="48.87428" lon="2.01246">
        <ele>180</ele>
        <time>2014-08-21T09:02:00Z</time>
      </trkpt>
      <trkpt lat="48.87426" lon="2.01253">
        <ele>180</ele>
        <time>2014-08-21T09:02:03Z</time>
      </trkpt>
      <trkpt lat="48.87412" lon="2.01274">
        <ele>180</ele>
        <time>2014-08-21T09:02:29Z</time>
      </trkpt>
      <trkpt lat="48.87415" lon="2.01282">
        <ele>180</ele>
        <time>2014-08-21T09:02:45Z</time>
      </trkpt>
      <trkpt lat="48.87424" lon="2.01283">
        <ele>181</ele>
        <time>2014-08-21T09:03:09Z</time>
      </trkpt>
      <trkpt lat="48.87421" lon="2.01283">
        <ele>182</ele>
        <time>2014-08-21T09:03:26Z</time>
      </trkpt>
      <trkpt lat="48.87418" lon="2.01278">
        <ele>182</ele>
        <time>2014-08-21T09:03:29Z</time>
      </trkpt>
      <trkpt lat="48.8742" lon="2.01272">
        <ele>181</ele>
        <time>2014-08-21T09:03:36Z</time>
      </trkpt>
      <trkpt lat="48.87421" lon="2.01263">
        <ele>180</ele>
        <time>2014-08-21T09:03:43Z</time>
      </trkpt>
      <trkpt lat="48.87422" lon="2.01259">
        <ele>181</ele>
        <time>2014-08-21T09:03:49Z</time>
      </trkpt>
      <trkpt lat="48.87426" lon="2.01258">
        <ele>180</ele>
        <time>2014-08-21T09:03:56Z</time>
      </trkpt>
      <trkpt lat="48.8743" lon="2.01262">
        <ele>179</ele>
        <time>2014-08-21T09:04:02Z</time>
      </trkpt>
      <trkpt lat="48.87435" lon="2.01267">
        <ele>177</ele>
        <time>2014-08-21T09:04:07Z</time>
      </trkpt>
      <trkpt lat="48.8744" lon="2.01269">
        <ele>177</ele>
        <time>2014-08-21T09:04:11Z</time>
      </trkpt>
      <trkpt lat="48.87445" lon="2.01272">
        <ele>178</ele>
        <time>2014-08-21T09:04:15Z</time>
      </trkpt>
      <trkpt lat="48.8746" lon="2.01282">
        <ele>175</ele>
        <time>2014-08-21T09:04:27Z</time>
      </trkpt>
      <trkpt lat="48.87466" lon="2.01293">
        <ele>179</ele>
        <time>2014-08-21T09:04:37Z</time>
      </trkpt>
      <trkpt lat="48.8747" lon="2.01299">
        <ele>179</ele>
        <time>2014-08-21T09:04:40Z</time>
      </trkpt>
      <trkpt lat="48.87475" lon="2.01302">
        <ele>179</ele>
        <time>2014-08-21T09:04:43Z</time>
      </trkpt>
      <trkpt lat="48.87481" lon="2.01301">
        <ele>179</ele>
        <time>2014-08-21T09:04:47Z</time>
      </trkpt>
      <trkpt lat="48.87485" lon="2.01304">
        <ele>179</ele>
        <time>2014-08-21T09:04:50Z</time>
      </trkpt>
      <trkpt lat="48.87488" lon="2.01311">
        <ele>178</ele>
        <time>2014-08-21T09:04:54Z</time>
      </trkpt>
      <trkpt lat="48.8749" lon="2.01317">
        <ele>179</ele>
        <time>2014-08-21T09:05:00Z</time>
      </trkpt>
      <trkpt lat="48.8749" lon="2.01332">
        <ele>178</ele>
        <time>2014-08-21T09:05:07Z</time>
      </trkpt>
      <trkpt lat="48.87493" lon="2.01339">
        <ele>179</ele>
        <time>2014-08-21T09:05:12Z</time>
      </trkpt>
      <trkpt lat="48.87493" lon="2.01347">
        <ele>181</ele>
        <time>2014-08-21T09:05:16Z</time>
      </trkpt>
      <trkpt lat="48.87496" lon="2.01355">
        <ele>181</ele>
        <time>2014-08-21T09:05:20Z</time>
      </trkpt>
      <trkpt lat="48.87499" lon="2.0136">
        <ele>181</ele>
        <time>2014-08-21T09:05:24Z</time>
      </trkpt>
      <trkpt lat="48.87501" lon="2.01368">
        <ele>179</ele>
        <time>2014-08-21T09:05:30Z</time>
      </trkpt>
      <trkpt lat="48.87498" lon="2.01374">
        <ele>179</ele>
        <time>2014-08-21T09:05:34Z</time>
      </trkpt>
      <trkpt lat="48.875" lon="2.01383">
        <ele>177</ele>
        <time>2014-08-21T09:05:39Z</time>
      </trkpt>
      <trkpt lat="48.87509" lon="2.01392">
        <ele>176</ele>
        <time>2014-08-21T09:05:45Z</time>
      </trkpt>
      <trkpt lat="48.87512" lon="2.01397">
        <ele>175</ele>
        <time>2014-08-21T09:05:49Z</time>
      </trkpt>
      <trkpt lat="48.87516" lon="2.01404">
        <ele>175</ele>
        <time>2014-08-21T09:05:53Z</time>
      </trkpt>
      <trkpt lat="48.87519" lon="2.01409">
        <ele>175</ele>
        <time>2014-08-21T09:05:56Z</time>
      </trkpt>
      <trkpt lat="48.87523" lon="2.01431">
        <ele>169</ele>
        <time>2014-08-21T09:06:08Z</time>
      </trkpt>
      <trkpt lat="48.87522" lon="2.01446">
        <ele>168</ele>
        <time>2014-08-21T09:06:18Z</time>
      </trkpt>
      <trkpt lat="48.87522" lon="2.0146">
        <ele>169</ele>
        <time>2014-08-21T09:06:28Z</time>
      </trkpt>
      <trkpt lat="48.87525" lon="2.01468">
        <ele>169</ele>
        <time>2014-08-21T09:06:32Z</time>
      </trkpt>
      <trkpt lat="48.87528" lon="2.01474">
        <ele>168</ele>
        <time>2014-08-21T09:06:38Z</time>
      </trkpt>
      <trkpt lat="48.87533" lon="2.01495">
        <ele>167</ele>
        <time>2014-08-21T09:06:48Z</time>
      </trkpt>
      <trkpt lat="48.87534" lon="2.01502">
        <ele>169</ele>
        <time>2014-08-21T09:06:53Z</time>
      </trkpt>
      <trkpt lat="48.87534" lon="2.01518">
        <ele>169</ele>
        <time>2014-08-21T09:07:01Z</time>
      </trkpt>
      <trkpt lat="48.87538" lon="2.01523">
        <ele>171</ele>
        <time>2014-08-21T09:07:06Z</time>
      </trkpt>
      <trkpt lat="48.87552" lon="2.01529">
        <ele>175</ele>
        <time>2014-08-21T09:07:19Z</time>
      </trkpt>
      <trkpt lat="48.87572" lon="2.01524">
        <ele>179</ele>
        <time>2014-08-21T09:07:36Z</time>
      </trkpt>
      <trkpt lat="48.87577" lon="2.01527">
        <ele>182</ele>
        <time>2014-08-21T09:07:43Z</time>
      </trkpt>
      <trkpt lat="48.87588" lon="2.01525">
        <ele>184</ele>
        <time>2014-08-21T09:07:52Z</time>
      </trkpt>
      <trkpt lat="48.87598" lon="2.01528">
        <ele>184</ele>
        <time>2014-08-21T09:08:00Z</time>
      </trkpt>
      <trkpt lat="48.87603" lon="2.01527">
        <ele>184</ele>
        <time>2014-08-21T09:08:04Z</time>
      </trkpt>
      <trkpt lat="48.87608" lon="2.01523">
        <ele>185</ele>
        <time>2014-08-21T09:08:07Z</time>
      </trkpt>
      <trkpt lat="48.87623" lon="2.01526">
        <ele>191</ele>
        <time>2014-08-21T09:08:16Z</time>
      </trkpt>
      <trkpt lat="48.87627" lon="2.01529">
        <ele>191</ele>
        <time>2014-08-21T09:08:20Z</time>
      </trkpt>
      <trkpt lat="48.87641" lon="2.01536">
        <ele>187</ele>
        <time>2014-08-21T09:08:32Z</time>
      </trkpt>
      <trkpt lat="48.87657" lon="2.01536">
        <ele>185</ele>
        <time>2014-08-21T09:08:45Z</time>
      </trkpt>
      <trkpt lat="48.87667" lon="2.01541">
        <ele>185</ele>
        <time>2014-08-21T09:08:53Z</time>
      </trkpt>
      <trkpt lat="48.87692" lon="2.01532">
        <ele>186</ele>
        <time>2014-08-21T09:09:13Z</time>
      </trkpt>
      <trkpt lat="48.87701" lon="2.01536">
        <ele>185</ele>
        <time>2014-08-21T09:09:22Z</time>
      </trkpt>
      <trkpt lat="48.87745" lon="2.01542">
        <ele>184</ele>
        <time>2014-08-21T09:09:54Z</time>
      </trkpt>
      <trkpt lat="48.87751" lon="2.01554">
        <ele>183</ele>
        <time>2014-08-21T09:10:00Z</time>
      </trkpt>
      <trkpt lat="48.87775" lon="2.01583">
        <ele>177</ele>
        <time>2014-08-21T09:10:27Z</time>
      </trkpt>
      <trkpt lat="48.87782" lon="2.01594">
        <ele>177</ele>
        <time>2014-08-21T09:10:36Z</time>
      </trkpt>
      <trkpt lat="48.87785" lon="2.01599">
        <ele>177</ele>
        <time>2014-08-21T09:10:41Z</time>
      </trkpt>
      <trkpt lat="48.87789" lon="2.01607">
        <ele>177</ele>
        <time>2014-08-21T09:10:48Z</time>
      </trkpt>
      <trkpt lat="48.87802" lon="2.01614">
        <ele>179</ele>
        <time>2014-08-21T09:10:53Z</time>
      </trkpt>
      <trkpt lat="48.87807" lon="2.01619">
        <ele>180</ele>
        <time>2014-08-21T09:10:55Z</time>
      </trkpt>
      <trkpt lat="48.87815" lon="2.01628">
        <ele>178</ele>
        <time>2014-08-21T09:11:03Z</time>
      </trkpt>
      <trkpt lat="48.87819" lon="2.01633">
        <ele>179</ele>
        <time>2014-08-21T09:11:06Z</time>
      </trkpt>
      <trkpt lat="48.87829" lon="2.01637">
        <ele>182</ele>
        <time>2014-08-21T09:11:13Z</time>
      </trkpt>
      <trkpt lat="48.87834" lon="2.01636">
        <ele>182</ele>
        <time>2014-08-21T09:11:18Z</time>
      </trkpt>
      <trkpt lat="48.87839" lon="2.01637">
        <ele>183</ele>
        <time>2014-08-21T09:11:23Z</time>
      </trkpt>
      <trkpt lat="48.87838" lon="2.01632">
        <ele>184</ele>
        <time>2014-08-21T09:11:36Z</time>
      </trkpt>
      <trkpt lat="48.87834" lon="2.01639">
        <ele>185</ele>
        <time>2014-08-21T09:11:47Z</time>
      </trkpt>
      <trkpt lat="48.87836" lon="2.01647">
        <ele>185</ele>
        <time>2014-08-21T09:12:02Z</time>
      </trkpt>
      <trkpt lat="48.87837" lon="2.01647">
        <ele>187</ele>
        <time>2014-08-21T09:12:17Z</time>
      </trkpt>
      <trkpt lat="48.87841" lon="2.01631">
        <ele>178</ele>
        <time>2014-08-21T09:12:34Z</time>
      </trkpt>
      <trkpt lat="48.87843" lon="2.01628">
        <ele>181</ele>
        <time>2014-08-21T09:12:41Z</time>
      </trkpt>
      <trkpt lat="48.87849" lon="2.01628">
        <ele>183</ele>
        <time>2014-08-21T09:12:47Z</time>
      </trkpt>
      <trkpt lat="48.87854" lon="2.01628">
        <ele>184</ele>
        <time>2014-08-21T09:12:52Z</time>
      </trkpt>
      <trkpt lat="48.87859" lon="2.01631">
        <ele>183</ele>
        <time>2014-08-21T09:12:58Z</time>
      </trkpt>
      <trkpt lat="48.87864" lon="2.01629">
        <ele>183</ele>
        <time>2014-08-21T09:13:03Z</time>
      </trkpt>
      <trkpt lat="48.87867" lon="2.01623">
        <ele>183</ele>
        <time>2014-08-21T09:13:10Z</time>
      </trkpt>
      <trkpt lat="48.87873" lon="2.01619">
        <ele>182</ele>
        <time>2014-08-21T09:13:18Z</time>
      </trkpt>
      <trkpt lat="48.87882" lon="2.01609">
        <ele>184</ele>
        <time>2014-08-21T09:13:24Z</time>
      </trkpt>
      <trkpt lat="48.87887" lon="2.01608">
        <ele>187</ele>
        <time>2014-08-21T09:13:29Z</time>
      </trkpt>
      <trkpt lat="48.87917" lon="2.01599">
        <ele>180</ele>
        <time>2014-08-21T09:14:01Z</time>
      </trkpt>
      <trkpt lat="48.87928" lon="2.01596">
        <ele>179</ele>
        <time>2014-08-21T09:14:13Z</time>
      </trkpt>
      <trkpt lat="48.87933" lon="2.01597">
        <ele>179</ele>
        <time>2014-08-21T09:14:16Z</time>
      </trkpt>
      <trkpt lat="48.87936" lon="2.01598">
        <ele>178</ele>
        <time>2014-08-21T09:14:23Z</time>
      </trkpt>
      <trkpt lat="48.87939" lon="2.01592">
        <ele>178</ele>
        <time>2014-08-21T09:14:28Z</time>
      </trkpt>
      <trkpt lat="48.87948" lon="2.01587">
        <ele>177</ele>
        <time>2014-08-21T09:14:35Z</time>
      </trkpt>
      <trkpt lat="48.87951" lon="2.01593">
        <ele>177</ele>
        <time>2014-08-21T09:14:40Z</time>
      </trkpt>
      <trkpt lat="48.87954" lon="2.01598">
        <ele>176</ele>
        <time>2014-08-21T09:14:53Z</time>
      </trkpt>
      <trkpt lat="48.87957" lon="2.01591">
        <ele>176</ele>
        <time>2014-08-21T09:15:06Z</time>
      </trkpt>
      <trkpt lat="48.87962" lon="2.01585">
        <ele>175</ele>
        <time>2014-08-21T09:15:09Z</time>
      </trkpt>
      <trkpt lat="48.87965" lon="2.01578">
        <ele>175</ele>
        <time>2014-08-21T09:15:12Z</time>
      </trkpt>
      <trkpt lat="48.87975" lon="2.01563">
        <ele>179</ele>
        <time>2014-08-21T09:15:23Z</time>
      </trkpt>
      <trkpt lat="48.87994" lon="2.01552">
        <ele>181</ele>
        <time>2014-08-21T09:15:37Z</time>
      </trkpt>
      <trkpt lat="48.87998" lon="2.01551">
        <ele>181</ele>
        <time>2014-08-21T09:15:41Z</time>
      </trkpt>
      <trkpt lat="48.88009" lon="2.01552">
        <ele>183</ele>
        <time>2014-08-21T09:15:50Z</time>
      </trkpt>
      <trkpt lat="48.88013" lon="2.0155">
        <ele>183</ele>
        <time>2014-08-21T09:15:54Z</time>
      </trkpt>
      <trkpt lat="48.88039" lon="2.0155">
        <ele>176</ele>
        <time>2014-08-21T09:16:17Z</time>
      </trkpt>
      <trkpt lat="48.88043" lon="2.01549">
        <ele>175</ele>
        <time>2014-08-21T09:16:31Z</time>
      </trkpt>
      <trkpt lat="48.88041" lon="2.0154">
        <ele>175</ele>
        <time>2014-08-21T09:16:33Z</time>
      </trkpt>
      <trkpt lat="48.8804" lon="2.01532">
        <ele>175</ele>
        <time>2014-08-21T09:16:35Z</time>
      </trkpt>
      <trkpt lat="48.88043" lon="2.01531">
        <ele>175</ele>
        <time>2014-08-21T09:16:49Z</time>
      </trkpt>
      <trkpt lat="48.88047" lon="2.01534">
        <ele>175</ele>
        <time>2014-08-21T09:16:55Z</time>
      </trkpt>
      <trkpt lat="48.88052" lon="2.0153">
        <ele>176</ele>
        <time>2014-08-21T09:16:58Z</time>
      </trkpt>
      <trkpt lat="48.88057" lon="2.01526">
        <ele>177</ele>
        <time>2014-08-21T09:17:02Z</time>
      </trkpt>
      <trkpt lat="48.8806" lon="2.01519">
        <ele>178</ele>
        <time>2014-08-21T09:17:07Z</time>
      </trkpt>
      <trkpt lat="48.88062" lon="2.01512">
        <ele>179</ele>
        <time>2014-08-21T09:17:10Z</time>
      </trkpt>
      <trkpt lat="48.88071" lon="2.01506">
        <ele>180</ele>
        <time>2014-08-21T09:17:25Z</time>
      </trkpt>
      <trkpt lat="48.88075" lon="2.01504">
        <ele>179</ele>
        <time>2014-08-21T09:17:28Z</time>
      </trkpt>
      <trkpt lat="48.88085" lon="2.01501">
        <ele>180</ele>
        <time>2014-08-21T09:17:37Z</time>
      </trkpt>
      <trkpt lat="48.8809" lon="2.01503">
        <ele>180</ele>
        <time>2014-08-21T09:17:42Z</time>
      </trkpt>
      <trkpt lat="48.88094" lon="2.01501">
        <ele>180</ele>
        <time>2014-08-21T09:17:47Z</time>
      </trkpt>
      <trkpt lat="48.881" lon="2.015">
        <ele>180</ele>
        <time>2014-08-21T09:17:51Z</time>
      </trkpt>
      <trkpt lat="48.88105" lon="2.01495">
        <ele>180</ele>
        <time>2014-08-21T09:17:55Z</time>
      </trkpt>
      <trkpt lat="48.8811" lon="2.01492">
        <ele>180</ele>
        <time>2014-08-21T09:17:58Z</time>
      </trkpt>
      <trkpt lat="48.88116" lon="2.0149">
        <ele>180</ele>
        <time>2014-08-21T09:18:01Z</time>
      </trkpt>
      <trkpt lat="48.8813" lon="2.01486">
        <ele>181</ele>
        <time>2014-08-21T09:18:14Z</time>
      </trkpt>
      <trkpt lat="48.88135" lon="2.01481">
        <ele>181</ele>
        <time>2014-08-21T09:18:18Z</time>
      </trkpt>
      <trkpt lat="48.88139" lon="2.01477">
        <ele>181</ele>
        <time>2014-08-21T09:18:22Z</time>
      </trkpt>
      <trkpt lat="48.88144" lon="2.01474">
        <ele>180</ele>
        <time>2014-08-21T09:18:29Z</time>
      </trkpt>
      <trkpt lat="48.88149" lon="2.01475">
        <ele>180</ele>
        <time>2014-08-21T09:18:34Z</time>
      </trkpt>
      <trkpt lat="48.8818" lon="2.0146">
        <ele>183</ele>
        <time>2014-08-21T09:18:57Z</time>
      </trkpt>
      <trkpt lat="48.88183" lon="2.01454">
        <ele>183</ele>
        <time>2014-08-21T09:19:02Z</time>
      </trkpt>
      <trkpt lat="48.88198" lon="2.01445">
        <ele>185</ele>
        <time>2014-08-21T09:19:21Z</time>
      </trkpt>
      <trkpt lat="48.88221" lon="2.01424">
        <ele>190</ele>
        <time>2014-08-21T09:19:41Z</time>
      </trkpt>
      <trkpt lat="48.88226" lon="2.01425">
        <ele>191</ele>
        <time>2014-08-21T09:19:44Z</time>
      </trkpt>
      <trkpt lat="48.88236" lon="2.01421">
        <ele>191</ele>
        <time>2014-08-21T09:19:50Z</time>
      </trkpt>
      <trkpt lat="48.88239" lon="2.01416">
        <ele>192</ele>
        <time>2014-08-21T09:19:58Z</time>
      </trkpt>
      <trkpt lat="48.88239" lon="2.01409">
        <ele>192</ele>
        <time>2014-08-21T09:20:04Z</time>
      </trkpt>
      <trkpt lat="48.88244" lon="2.01406">
        <ele>192</ele>
        <time>2014-08-21T09:20:08Z</time>
      </trkpt>
      <trkpt lat="48.88249" lon="2.01403">
        <ele>192</ele>
        <time>2014-08-21T09:20:12Z</time>
      </trkpt>
      <trkpt lat="48.88259" lon="2.01398">
        <ele>192</ele>
        <time>2014-08-21T09:20:19Z</time>
      </trkpt>
      <trkpt lat="48.88264" lon="2.01396">
        <ele>192</ele>
        <time>2014-08-21T09:20:22Z</time>
      </trkpt>
      <trkpt lat="48.88268" lon="2.0139">
        <ele>192</ele>
        <time>2014-08-21T09:20:27Z</time>
      </trkpt>
      <trkpt lat="48.88271" lon="2.01385">
        <ele>192</ele>
        <time>2014-08-21T09:20:32Z</time>
      </trkpt>
      <trkpt lat="48.88275" lon="2.01385">
        <ele>191</ele>
        <time>2014-08-21T09:20:39Z</time>
      </trkpt>
      <trkpt lat="48.88277" lon="2.01375">
        <ele>190</ele>
        <time>2014-08-21T09:20:51Z</time>
      </trkpt>
      <trkpt lat="48.88281" lon="2.01372">
        <ele>190</ele>
        <time>2014-08-21T09:20:57Z</time>
      </trkpt>
      <trkpt lat="48.88286" lon="2.01357">
        <ele>190</ele>
        <time>2014-08-21T09:21:07Z</time>
      </trkpt>
      <trkpt lat="48.88286" lon="2.0135">
        <ele>189</ele>
        <time>2014-08-21T09:21:11Z</time>
      </trkpt>
      <trkpt lat="48.88289" lon="2.0135">
        <ele>190</ele>
        <time>2014-08-21T09:21:17Z</time>
      </trkpt>
      <trkpt lat="48.8829" lon="2.01343">
        <ele>190</ele>
        <time>2014-08-21T09:21:27Z</time>
      </trkpt>
      <trkpt lat="48.88301" lon="2.01308">
        <ele>185</ele>
        <time>2014-08-21T09:21:57Z</time>
      </trkpt>
      <trkpt lat="48.8831" lon="2.01292">
        <ele>184</ele>
        <time>2014-08-21T09:22:06Z</time>
      </trkpt>
      <trkpt lat="48.88316" lon="2.01279">
        <ele>185</ele>
        <time>2014-08-21T09:22:14Z</time>
      </trkpt>
      <trkpt lat="48.8832" lon="2.01275">
        <ele>185</ele>
        <time>2014-08-21T09:22:19Z</time>
      </trkpt>
      <trkpt lat="48.88332" lon="2.01251">
        <ele>186</ele>
        <time>2014-08-21T09:22:35Z</time>
      </trkpt>
      <trkpt lat="48.88338" lon="2.01237">
        <ele>185</ele>
        <time>2014-08-21T09:22:40Z</time>
      </trkpt>
      <trkpt lat="48.88342" lon="2.01219">
        <ele>185</ele>
        <time>2014-08-21T09:22:46Z</time>
      </trkpt>
      <trkpt lat="48.88342" lon="2.01212">
        <ele>184</ele>
        <time>2014-08-21T09:22:50Z</time>
      </trkpt>
      <trkpt lat="48.88338" lon="2.01208">
        <ele>183</ele>
        <time>2014-08-21T09:22:53Z</time>
      </trkpt>
      <trkpt lat="48.88343" lon="2.012">
        <ele>181</ele>
        <time>2014-08-21T09:23:04Z</time>
      </trkpt>
      <trkpt lat="48.88358" lon="2.01178">
        <ele>180</ele>
        <time>2014-08-21T09:23:16Z</time>
      </trkpt>
      <trkpt lat="48.88364" lon="2.01157">
        <ele>181</ele>
        <time>2014-08-21T09:23:25Z</time>
      </trkpt>
      <trkpt lat="48.8836" lon="2.01137">
        <ele>181</ele>
        <time>2014-08-21T09:23:33Z</time>
      </trkpt>
      <trkpt lat="48.88371" lon="2.01134">
        <ele>181</ele>
        <time>2014-08-21T09:23:38Z</time>
      </trkpt>
      <trkpt lat="48.88391" lon="2.01132">
        <ele>180</ele>
        <time>2014-08-21T09:23:47Z</time>
      </trkpt>
      <trkpt lat="48.88388" lon="2.01118">
        <ele>180</ele>
        <time>2014-08-21T09:23:56Z</time>
      </trkpt>
      <trkpt lat="48.88389" lon="2.01101">
        <ele>180</ele>
        <time>2014-08-21T09:24:02Z</time>
      </trkpt>
      <trkpt lat="48.88396" lon="2.01091">
        <ele>180</ele>
        <time>2014-08-21T09:24:07Z</time>
      </trkpt>
      <trkpt lat="48.88406" lon="2.01068">
        <ele>181</ele>
        <time>2014-08-21T09:24:21Z</time>
      </trkpt>
      <trkpt lat="48.8841" lon="2.01065">
        <ele>182</ele>
        <time>2014-08-21T09:24:30Z</time>
      </trkpt>
      <trkpt lat="48.88409" lon="2.01052">
        <ele>182</ele>
        <time>2014-08-21T09:24:43Z</time>
      </trkpt>
      <trkpt lat="48.88414" lon="2.0104">
        <ele>183</ele>
        <time>2014-08-21T09:24:57Z</time>
      </trkpt>
      <trkpt lat="48.88416" lon="2.01033">
        <ele>183</ele>
        <time>2014-08-21T09:25:00Z</time>
      </trkpt>
      <trkpt lat="48.88424" lon="2.01023">
        <ele>183</ele>
        <time>2014-08-21T09:25:08Z</time>
      </trkpt>
      <trkpt lat="48.8843" lon="2.01">
        <ele>184</ele>
        <time>2014-08-21T09:25:17Z</time>
      </trkpt>
      <trkpt lat="48.88433" lon="2.00994">
        <ele>184</ele>
        <time>2014-08-21T09:25:22Z</time>
      </trkpt>
      <trkpt lat="48.88437" lon="2.00982">
        <ele>182</ele>
        <time>2014-08-21T09:25:31Z</time>
      </trkpt>
      <trkpt lat="48.88439" lon="2.00971">
        <ele>182</ele>
        <time>2014-08-21T09:25:37Z</time>
      </trkpt>
      <trkpt lat="48.88449" lon="2.00957">
        <ele>181</ele>
        <time>2014-08-21T09:25:45Z</time>
      </trkpt>
      <trkpt lat="48.88452" lon="2.00942">
        <ele>181</ele>
        <time>2014-08-21T09:25:50Z</time>
      </trkpt>
      <trkpt lat="48.88467" lon="2.0093">
        <ele>180</ele>
        <time>2014-08-21T09:26:07Z</time>
      </trkpt>
      <trkpt lat="48.88476" lon="2.00936">
        <ele>179</ele>
        <time>2014-08-21T09:26:13Z</time>
      </trkpt>
      <trkpt lat="48.88482" lon="2.00932">
        <ele>179</ele>
        <time>2014-08-21T09:26:15Z</time>
      </trkpt>
      <trkpt lat="48.88486" lon="2.00927">
        <ele>182</ele>
        <time>2014-08-21T09:26:20Z</time>
      </trkpt>
      <trkpt lat="48.88486" lon="2.00924">
        <ele>184</ele>
        <time>2014-08-21T09:26:32Z</time>
      </trkpt>
      <trkpt lat="48.88481" lon="2.00922">
        <ele>184</ele>
        <time>2014-08-21T09:26:36Z</time>
      </trkpt>
      <trkpt lat="48.8848" lon="2.00929">
        <ele>181</ele>
        <time>2014-08-21T09:26:47Z</time>
      </trkpt>
      <trkpt lat="48.88487" lon="2.00929">
        <ele>179</ele>
        <time>2014-08-21T09:26:55Z</time>
      </trkpt>
      <trkpt lat="48.88527" lon="2.00923">
        <ele>165</ele>
        <time>2014-08-21T09:27:27Z</time>
      </trkpt>
      <trkpt lat="48.88532" lon="2.00923">
        <ele>164</ele>
        <time>2014-08-21T09:27:32Z</time>
      </trkpt>
      <trkpt lat="48.88542" lon="2.00929">
        <ele>166</ele>
        <time>2014-08-21T09:27:40Z</time>
      </trkpt>
      <trkpt lat="48.88546" lon="2.00931">
        <ele>166</ele>
        <time>2014-08-21T09:27:44Z</time>
      </trkpt>
      <trkpt lat="48.88551" lon="2.00933">
        <ele>169</ele>
        <time>2014-08-21T09:27:53Z</time>
      </trkpt>
      <trkpt lat="48.88556" lon="2.00934">
        <ele>169</ele>
        <time>2014-08-21T09:27:57Z</time>
      </trkpt>
      <trkpt lat="48.88567" lon="2.00934">
        <ele>165</ele>
        <time>2014-08-21T09:28:05Z</time>
      </trkpt>
      <trkpt lat="48.88571" lon="2.00938">
        <ele>163</ele>
        <time>2014-08-21T09:28:10Z</time>
      </trkpt>
      <trkpt lat="48.88576" lon="2.00942">
        <ele>163</ele>
        <time>2014-08-21T09:28:13Z</time>
      </trkpt>
      <trkpt lat="48.88586" lon="2.00941">
        <ele>161</ele>
        <time>2014-08-21T09:28:20Z</time>
      </trkpt>
      <trkpt lat="48.8859" lon="2.00938">
        <ele>160</ele>
        <time>2014-08-21T09:28:30Z</time>
      </trkpt>
      <trkpt lat="48.88601" lon="2.0094">
        <ele>162</ele>
        <time>2014-08-21T09:28:40Z</time>
      </trkpt>
      <trkpt lat="48.88606" lon="2.00939">
        <ele>162</ele>
        <time>2014-08-21T09:28:44Z</time>
      </trkpt>
      <trkpt lat="48.8861" lon="2.00941">
        <ele>163</ele>
        <time>2014-08-21T09:28:54Z</time>
      </trkpt>
      <trkpt lat="48.88614" lon="2.00947">
        <ele>162</ele>
        <time>2014-08-21T09:29:03Z</time>
      </trkpt>
      <trkpt lat="48.88619" lon="2.00949">
        <ele>163</ele>
        <time>2014-08-21T09:29:06Z</time>
      </trkpt>
      <trkpt lat="48.88624" lon="2.00952">
        <ele>164</ele>
        <time>2014-08-21T09:29:08Z</time>
      </trkpt>
      <trkpt lat="48.88632" lon="2.00962">
        <ele>164</ele>
        <time>2014-08-21T09:29:12Z</time>
      </trkpt>
      <trkpt lat="48.88636" lon="2.00967">
        <ele>164</ele>
        <time>2014-08-21T09:29:15Z</time>
      </trkpt>
      <trkpt lat="48.8864" lon="2.00972">
        <ele>163</ele>
        <time>2014-08-21T09:29:19Z</time>
      </trkpt>
      <trkpt lat="48.88651" lon="2.00979">
        <ele>167</ele>
        <time>2014-08-21T09:29:47Z</time>
      </trkpt>
      <trkpt lat="48.88649" lon="2.00985">
        <ele>167</ele>
        <time>2014-08-21T09:29:59Z</time>
      </trkpt>
      <trkpt lat="48.88649" lon="2.00979">
        <ele>168</ele>
        <time>2014-08-21T09:30:15Z</time>
      </trkpt>
      <trkpt lat="48.88657" lon="2.00958">
        <ele>170</ele>
        <time>2014-08-21T09:30:23Z</time>
      </trkpt>
      <trkpt lat="48.88659" lon="2.00951">
        <ele>171</ele>
        <time>2014-08-21T09:30:28Z</time>
      </trkpt>
      <trkpt lat="48.88664" lon="2.00945">
        <ele>172</ele>
        <time>2014-08-21T09:30:32Z</time>
      </trkpt>
      <trkpt lat="48.88668" lon="2.00941">
        <ele>173</ele>
        <time>2014-08-21T09:30:35Z</time>
      </trkpt>
      <trkpt lat="48.8867" lon="2.00934">
        <ele>172</ele>
        <time>2014-08-21T09:30:40Z</time>
      </trkpt>
      <trkpt lat="48.88675" lon="2.00913">
        <ele>170</ele>
        <time>2014-08-21T09:30:54Z</time>
      </trkpt>
      <trkpt lat="48.88678" lon="2.00907">
        <ele>170</ele>
        <time>2014-08-21T09:30:58Z</time>
      </trkpt>
      <trkpt lat="48.88684" lon="2.00894">
        <ele>167</ele>
        <time>2014-08-21T09:31:11Z</time>
      </trkpt>
      <trkpt lat="48.88686" lon="2.00886">
        <ele>166</ele>
        <time>2014-08-21T09:31:14Z</time>
      </trkpt>
      <trkpt lat="48.88688" lon="2.00879">
        <ele>166</ele>
        <time>2014-08-21T09:31:18Z</time>
      </trkpt>
      <trkpt lat="48.8869" lon="2.00872">
        <ele>165</ele>
        <time>2014-08-21T09:31:23Z</time>
      </trkpt>
      <trkpt lat="48.88699" lon="2.00864">
        <ele>165</ele>
        <time>2014-08-21T09:31:29Z</time>
      </trkpt>
      <trkpt lat="48.88701" lon="2.00857">
        <ele>165</ele>
        <time>2014-08-21T09:31:32Z</time>
      </trkpt>
      <trkpt lat="48.88701" lon="2.00849">
        <ele>166</ele>
        <time>2014-08-21T09:31:37Z</time>
      </trkpt>
      <trkpt lat="48.88708" lon="2.00837">
        <ele>172</ele>
        <time>2014-08-21T09:31:45Z</time>
      </trkpt>
      <trkpt lat="48.88712" lon="2.00829">
        <ele>170</ele>
        <time>2014-08-21T09:31:59Z</time>
      </trkpt>
      <trkpt lat="48.88717" lon="2.00815">
        <ele>171</ele>
        <time>2014-08-21T09:32:06Z</time>
      </trkpt>
      <trkpt lat="48.8872" lon="2.00808">
        <ele>171</ele>
        <time>2014-08-21T09:32:10Z</time>
      </trkpt>
      <trkpt lat="48.88725" lon="2.00806">
        <ele>171</ele>
        <time>2014-08-21T09:32:13Z</time>
      </trkpt>
      <trkpt lat="48.8873" lon="2.00803">
        <ele>171</ele>
        <time>2014-08-21T09:32:17Z</time>
      </trkpt>
      <trkpt lat="48.88732" lon="2.00794">
        <ele>171</ele>
        <time>2014-08-21T09:32:21Z</time>
      </trkpt>
      <trkpt lat="48.88731" lon="2.00787">
        <ele>171</ele>
        <time>2014-08-21T09:32:24Z</time>
      </trkpt>
      <trkpt lat="48.88731" lon="2.00778">
        <ele>166</ele>
        <time>2014-08-21T09:32:39Z</time>
      </trkpt>
      <trkpt lat="48.88738" lon="2.00765">
        <ele>165</ele>
        <time>2014-08-21T09:32:44Z</time>
      </trkpt>
      <trkpt lat="48.88737" lon="2.00758">
        <ele>164</ele>
        <time>2014-08-21T09:32:49Z</time>
      </trkpt>
      <trkpt lat="48.88739" lon="2.00751">
        <ele>162</ele>
        <time>2014-08-21T09:32:53Z</time>
      </trkpt>
      <trkpt lat="48.88746" lon="2.00741">
        <ele>161</ele>
        <time>2014-08-21T09:33:00Z</time>
      </trkpt>
      <trkpt lat="48.88755" lon="2.00722">
        <ele>160</ele>
        <time>2014-08-21T09:33:09Z</time>
      </trkpt>
      <trkpt lat="48.88761" lon="2.00707">
        <ele>160</ele>
        <time>2014-08-21T09:33:15Z</time>
      </trkpt>
      <trkpt lat="48.88761" lon="2.007">
        <ele>161</ele>
        <time>2014-08-21T09:33:19Z</time>
      </trkpt>
      <trkpt lat="48.88765" lon="2.00696">
        <ele>162</ele>
        <time>2014-08-21T09:33:24Z</time>
      </trkpt>
      <trkpt lat="48.88769" lon="2.00693">
        <ele>164</ele>
        <time>2014-08-21T09:33:29Z</time>
      </trkpt>
      <trkpt lat="48.88781" lon="2.00674">
        <ele>160</ele>
        <time>2014-08-21T09:33:40Z</time>
      </trkpt>
      <trkpt lat="48.88783" lon="2.00668">
        <ele>161</ele>
        <time>2014-08-21T09:33:44Z</time>
      </trkpt>
      <trkpt lat="48.88795" lon="2.00628">
        <ele>164</ele>
        <time>2014-08-21T09:34:07Z</time>
      </trkpt>
      <trkpt lat="48.88799" lon="2.00622">
        <ele>164</ele>
        <time>2014-08-21T09:34:11Z</time>
      </trkpt>
      <trkpt lat="48.888" lon="2.00614">
        <ele>164</ele>
        <time>2014-08-21T09:34:16Z</time>
      </trkpt>
      <trkpt lat="48.88801" lon="2.00607">
        <ele>164</ele>
        <time>2014-08-21T09:34:20Z</time>
      </trkpt>
      <trkpt lat="48.88807" lon="2.00594">
        <ele>164</ele>
        <time>2014-08-21T09:34:28Z</time>
      </trkpt>
      <trkpt lat="48.88818" lon="2.00584">
        <ele>164</ele>
        <time>2014-08-21T09:34:41Z</time>
      </trkpt>
      <trkpt lat="48.88825" lon="2.00576">
        <ele>164</ele>
        <time>2014-08-21T09:34:47Z</time>
      </trkpt>
      <trkpt lat="48.88839" lon="2.00541">
        <ele>164</ele>
        <time>2014-08-21T09:35:07Z</time>
      </trkpt>
      <trkpt lat="48.88849" lon="2.0051">
        <ele>165</ele>
        <time>2014-08-21T09:35:20Z</time>
      </trkpt>
      <trkpt lat="48.88864" lon="2.00508">
        <ele>167</ele>
        <time>2014-08-21T09:35:34Z</time>
      </trkpt>
      <trkpt lat="48.88864" lon="2.00494">
        <ele>168</ele>
        <time>2014-08-21T09:35:41Z</time>
      </trkpt>
      <trkpt lat="48.88874" lon="2.00437">
        <ele>174</ele>
        <time>2014-08-21T09:36:01Z</time>
      </trkpt>
      <trkpt lat="48.8888" lon="2.00426">
        <ele>174</ele>
        <time>2014-08-21T09:36:06Z</time>
      </trkpt>
      <trkpt lat="48.88886" lon="2.00422">
        <ele>174</ele>
        <time>2014-08-21T09:36:11Z</time>
      </trkpt>
      <trkpt lat="48.88897" lon="2.00398">
        <ele>175</ele>
        <time>2014-08-21T09:36:25Z</time>
      </trkpt>
      <trkpt lat="48.88898" lon="2.00383">
        <ele>175</ele>
        <time>2014-08-21T09:36:31Z</time>
      </trkpt>
      <trkpt lat="48.88905" lon="2.00374">
        <ele>175</ele>
        <time>2014-08-21T09:36:38Z</time>
      </trkpt>
      <trkpt lat="48.88914" lon="2.00369">
        <ele>176</ele>
        <time>2014-08-21T09:36:46Z</time>
      </trkpt>
      <trkpt lat="48.88917" lon="2.00356">
        <ele>177</ele>
        <time>2014-08-21T09:36:54Z</time>
      </trkpt>
      <trkpt lat="48.88918" lon="2.00342">
        <ele>179</ele>
        <time>2014-08-21T09:37:00Z</time>
      </trkpt>
      <trkpt lat="48.88925" lon="2.0033">
        <ele>180</ele>
        <time>2014-08-21T09:37:08Z</time>
      </trkpt>
      <trkpt lat="48.8893" lon="2.00317">
        <ele>179</ele>
        <time>2014-08-21T09:37:15Z</time>
      </trkpt>
      <trkpt lat="48.88936" lon="2.00305">
        <ele>180</ele>
        <time>2014-08-21T09:37:22Z</time>
      </trkpt>
      <trkpt lat="48.88938" lon="2.00287">
        <ele>184</ele>
        <time>2014-08-21T09:37:27Z</time>
      </trkpt>
      <trkpt lat="48.88944" lon="2.00269">
        <ele>184</ele>
        <time>2014-08-21T09:37:33Z</time>
      </trkpt>
      <trkpt lat="48.88947" lon="2.00263">
        <ele>183</ele>
        <time>2014-08-21T09:37:37Z</time>
      </trkpt>
      <trkpt lat="48.8895" lon="2.00258">
        <ele>183</ele>
        <time>2014-08-21T09:37:41Z</time>
      </trkpt>
      <trkpt lat="48.88951" lon="2.00251">
        <ele>183</ele>
        <time>2014-08-21T09:37:44Z</time>
      </trkpt>
      <trkpt lat="48.88951" lon="2.00242">
        <ele>184</ele>
        <time>2014-08-21T09:37:46Z</time>
      </trkpt>
      <trkpt lat="48.88951" lon="2.00234">
        <ele>183</ele>
        <time>2014-08-21T09:37:49Z</time>
      </trkpt>
      <trkpt lat="48.88955" lon="2.0023">
        <ele>183</ele>
        <time>2014-08-21T09:37:53Z</time>
      </trkpt>
      <trkpt lat="48.88959" lon="2.00224">
        <ele>180</ele>
        <time>2014-08-21T09:37:58Z</time>
      </trkpt>
      <trkpt lat="48.88963" lon="2.00223">
        <ele>179</ele>
        <time>2014-08-21T09:38:03Z</time>
      </trkpt>
      <trkpt lat="48.88979" lon="2.00228">
        <ele>174</ele>
        <time>2014-08-21T09:38:13Z</time>
      </trkpt>
      <trkpt lat="48.88984" lon="2.00229">
        <ele>174</ele>
        <time>2014-08-21T09:38:17Z</time>
      </trkpt>
      <trkpt lat="48.8899" lon="2.00231">
        <ele>174</ele>
        <time>2014-08-21T09:38:20Z</time>
      </trkpt>
      <trkpt lat="48.88999" lon="2.00236">
        <ele>171</ele>
        <time>2014-08-21T09:38:30Z</time>
      </trkpt>
      <trkpt lat="48.89003" lon="2.00236">
        <ele>171</ele>
        <time>2014-08-21T09:38:35Z</time>
      </trkpt>
      <trkpt lat="48.89008" lon="2.00238">
        <ele>171</ele>
        <time>2014-08-21T09:38:41Z</time>
      </trkpt>
      <trkpt lat="48.89028" lon="2.00246">
        <ele>167</ele>
        <time>2014-08-21T09:38:53Z</time>
      </trkpt>
      <trkpt lat="48.89032" lon="2.00252">
        <ele>167</ele>
        <time>2014-08-21T09:38:56Z</time>
      </trkpt>
      <trkpt lat="48.89037" lon="2.00254">
        <ele>166</ele>
        <time>2014-08-21T09:39:03Z</time>
      </trkpt>
      <trkpt lat="48.89042" lon="2.00252">
        <ele>166</ele>
        <time>2014-08-21T09:39:07Z</time>
      </trkpt>
      <trkpt lat="48.89047" lon="2.00253">
        <ele>166</ele>
        <time>2014-08-21T09:39:11Z</time>
      </trkpt>
      <trkpt lat="48.89052" lon="2.00257">
        <ele>166</ele>
        <time>2014-08-21T09:39:15Z</time>
      </trkpt>
      <trkpt lat="48.89058" lon="2.00259">
        <ele>166</ele>
        <time>2014-08-21T09:39:18Z</time>
      </trkpt>
      <trkpt lat="48.89063" lon="2.00262">
        <ele>166</ele>
        <time>2014-08-21T09:39:21Z</time>
      </trkpt>
      <trkpt lat="48.89067" lon="2.00265">
        <ele>165</ele>
        <time>2014-08-21T09:39:24Z</time>
      </trkpt>
      <trkpt lat="48.89072" lon="2.0027">
        <ele>165</ele>
        <time>2014-08-21T09:39:28Z</time>
      </trkpt>
      <trkpt lat="48.89076" lon="2.00277">
        <ele>165</ele>
        <time>2014-08-21T09:39:32Z</time>
      </trkpt>
      <trkpt lat="48.89091" lon="2.00306">
        <ele>157</ele>
        <time>2014-08-21T09:39:52Z</time>
      </trkpt>
      <trkpt lat="48.89094" lon="2.00313">
        <ele>158</ele>
        <time>2014-08-21T09:39:56Z</time>
      </trkpt>
      <trkpt lat="48.89097" lon="2.0032">
        <ele>158</ele>
        <time>2014-08-21T09:40:00Z</time>
      </trkpt>
      <trkpt lat="48.89104" lon="2.00339">
        <ele>161</ele>
        <time>2014-08-21T09:40:12Z</time>
      </trkpt>
      <trkpt lat="48.89108" lon="2.00344">
        <ele>162</ele>
        <time>2014-08-21T09:40:16Z</time>
      </trkpt>
      <trkpt lat="48.89111" lon="2.00348">
        <ele>161</ele>
        <time>2014-08-21T09:40:25Z</time>
      </trkpt>
      <trkpt lat="48.89117" lon="2.00351">
        <ele>161</ele>
        <time>2014-08-21T09:40:37Z</time>
      </trkpt>
      <trkpt lat="48.8912" lon="2.00344">
        <ele>160</ele>
        <time>2014-08-21T09:40:49Z</time>
      </trkpt>
      <trkpt lat="48.89125" lon="2.00342">
        <ele>161</ele>
        <time>2014-08-21T09:40:57Z</time>
      </trkpt>
      <trkpt lat="48.8913" lon="2.00344">
        <ele>162</ele>
        <time>2014-08-21T09:41:00Z</time>
      </trkpt>
      <trkpt lat="48.89134" lon="2.00346">
        <ele>163</ele>
        <time>2014-08-21T09:41:03Z</time>
      </trkpt>
      <trkpt lat="48.89139" lon="2.00347">
        <ele>163</ele>
        <time>2014-08-21T09:41:07Z</time>
      </trkpt>
      <trkpt lat="48.89144" lon="2.00345">
        <ele>162</ele>
        <time>2014-08-21T09:41:12Z</time>
      </trkpt>
      <trkpt lat="48.89159" lon="2.00347">
        <ele>156</ele>
        <time>2014-08-21T09:41:26Z</time>
      </trkpt>
      <trkpt lat="48.89163" lon="2.00345">
        <ele>157</ele>
        <time>2014-08-21T09:41:30Z</time>
      </trkpt>
      <trkpt lat="48.89171" lon="2.00346">
        <ele>145</ele>
        <time>2014-08-21T09:42:10Z</time>
      </trkpt>
      <trkpt lat="48.89175" lon="2.00343">
        <ele>141</ele>
        <time>2014-08-21T09:42:15Z</time>
      </trkpt>
      <trkpt lat="48.8918" lon="2.00343">
        <ele>141</ele>
        <time>2014-08-21T09:42:22Z</time>
      </trkpt>
      <trkpt lat="48.89194" lon="2.00342">
        <ele>139</ele>
        <time>2014-08-21T09:42:35Z</time>
      </trkpt>
      <trkpt lat="48.89198" lon="2.00336">
        <ele>137</ele>
        <time>2014-08-21T09:42:50Z</time>
      </trkpt>
      <trkpt lat="48.89203" lon="2.00336">
        <ele>136</ele>
        <time>2014-08-21T09:42:53Z</time>
      </trkpt>
      <trkpt lat="48.89208" lon="2.00336">
        <ele>136</ele>
        <time>2014-08-21T09:42:57Z</time>
      </trkpt>
      <trkpt lat="48.89213" lon="2.00336">
        <ele>136</ele>
        <time>2014-08-21T09:43:03Z</time>
      </trkpt>
      <trkpt lat="48.89224" lon="2.0033">
        <ele>138</ele>
        <time>2014-08-21T09:43:12Z</time>
      </trkpt>
      <trkpt lat="48.89227" lon="2.00325">
        <ele>136</ele>
        <time>2014-08-21T09:43:16Z</time>
      </trkpt>
      <trkpt lat="48.89225" lon="2.00317">
        <ele>135</ele>
        <time>2014-08-21T09:43:34Z</time>
      </trkpt>
      <trkpt lat="48.89227" lon="2.00311">
        <ele>135</ele>
        <time>2014-08-21T09:43:37Z</time>
      </trkpt>
      <trkpt lat="48.89231" lon="2.00305">
        <ele>135</ele>
        <time>2014-08-21T09:43:40Z</time>
      </trkpt>
      <trkpt lat="48.89233" lon="2.00297">
        <ele>135</ele>
        <time>2014-08-21T09:43:44Z</time>
      </trkpt>
      <trkpt lat="48.89235" lon="2.00284">
        <ele>131</ele>
        <time>2014-08-21T09:43:55Z</time>
      </trkpt>
      <trkpt lat="48.8923" lon="2.00284">
        <ele>129</ele>
        <time>2014-08-21T09:44:00Z</time>
      </trkpt>
      <trkpt lat="48.89231" lon="2.00279">
        <ele>128</ele>
        <time>2014-08-21T09:44:13Z</time>
      </trkpt>
      <trkpt lat="48.8923" lon="2.00273">
        <ele>129</ele>
        <time>2014-08-21T09:44:19Z</time>
      </trkpt>
      <trkpt lat="48.89227" lon="2.0026">
        <ele>135</ele>
        <time>2014-08-21T09:44:33Z</time>
      </trkpt>
      <trkpt lat="48.89227" lon="2.00236">
        <ele>140</ele>
        <time>2014-08-21T09:44:47Z</time>
      </trkpt>
      <trkpt lat="48.89223" lon="2.00231">
        <ele>141</ele>
        <time>2014-08-21T09:44:52Z</time>
      </trkpt>
      <trkpt lat="48.89219" lon="2.00226">
        <ele>141</ele>
        <time>2014-08-21T09:44:56Z</time>
      </trkpt>
      <trkpt lat="48.89215" lon="2.00222">
        <ele>141</ele>
        <time>2014-08-21T09:45:00Z</time>
      </trkpt>
      <trkpt lat="48.89207" lon="2.00212">
        <ele>140</ele>
        <time>2014-08-21T09:45:07Z</time>
      </trkpt>
      <trkpt lat="48.89202" lon="2.00207">
        <ele>141</ele>
        <time>2014-08-21T09:45:12Z</time>
      </trkpt>
      <trkpt lat="48.892" lon="2.002">
        <ele>143</ele>
        <time>2014-08-21T09:45:18Z</time>
      </trkpt>
      <trkpt lat="48.89199" lon="2.0018">
        <ele>140</ele>
        <time>2014-08-21T09:45:35Z</time>
      </trkpt>
      <trkpt lat="48.89195" lon="2.00173">
        <ele>141</ele>
        <time>2014-08-21T09:45:42Z</time>
      </trkpt>
      <trkpt lat="48.89184" lon="2.0017">
        <ele>142</ele>
        <time>2014-08-21T09:45:51Z</time>
      </trkpt>
      <trkpt lat="48.89179" lon="2.00171">
        <ele>142</ele>
        <time>2014-08-21T09:45:54Z</time>
      </trkpt>
      <trkpt lat="48.89174" lon="2.0017">
        <ele>143</ele>
        <time>2014-08-21T09:45:59Z</time>
      </trkpt>
      <trkpt lat="48.89169" lon="2.00165">
        <ele>143</ele>
        <time>2014-08-21T09:46:04Z</time>
      </trkpt>
      <trkpt lat="48.89163" lon="2.00153">
        <ele>143</ele>
        <time>2014-08-21T09:46:13Z</time>
      </trkpt>
      <trkpt lat="48.89159" lon="2.00149">
        <ele>142</ele>
        <time>2014-08-21T09:46:18Z</time>
      </trkpt>
      <trkpt lat="48.89154" lon="2.00147">
        <ele>142</ele>
        <time>2014-08-21T09:46:23Z</time>
      </trkpt>
      <trkpt lat="48.89141" lon="2.00133">
        <ele>140</ele>
        <time>2014-08-21T09:46:37Z</time>
      </trkpt>
      <trkpt lat="48.89137" lon="2.00119">
        <ele>142</ele>
        <time>2014-08-21T09:46:45Z</time>
      </trkpt>
      <trkpt lat="48.89138" lon="2.00112">
        <ele>143</ele>
        <time>2014-08-21T09:46:52Z</time>
      </trkpt>
      <trkpt lat="48.89141" lon="2.00106">
        <ele>143</ele>
        <time>2014-08-21T09:46:56Z</time>
      </trkpt>
      <trkpt lat="48.89137" lon="2.00102">
        <ele>144</ele>
        <time>2014-08-21T09:47:02Z</time>
      </trkpt>
      <trkpt lat="48.89132" lon="2.001">
        <ele>144</ele>
        <time>2014-08-21T09:47:06Z</time>
      </trkpt>
      <trkpt lat="48.89122" lon="2.00081">
        <ele>148</ele>
        <time>2014-08-21T09:47:21Z</time>
      </trkpt>
      <trkpt lat="48.89119" lon="2.00075">
        <ele>148</ele>
        <time>2014-08-21T09:47:28Z</time>
      </trkpt>
      <trkpt lat="48.89117" lon="2.00068">
        <ele>148</ele>
        <time>2014-08-21T09:47:33Z</time>
      </trkpt>
      <trkpt lat="48.89114" lon="2.00063">
        <ele>147</ele>
        <time>2014-08-21T09:47:37Z</time>
      </trkpt>
      <trkpt lat="48.89111" lon="2.00056">
        <ele>147</ele>
        <time>2014-08-21T09:47:42Z</time>
      </trkpt>
      <trkpt lat="48.89105" lon="2.00043">
        <ele>149</ele>
        <time>2014-08-21T09:47:55Z</time>
      </trkpt>
      <trkpt lat="48.891" lon="2.00043">
        <ele>152</ele>
        <time>2014-08-21T09:48:01Z</time>
      </trkpt>
      <trkpt lat="48.89097" lon="2.00037">
        <ele>153</ele>
        <time>2014-08-21T09:48:09Z</time>
      </trkpt>
      <trkpt lat="48.89094" lon="2.00029">
        <ele>155</ele>
        <time>2014-08-21T09:48:15Z</time>
      </trkpt>
      <trkpt lat="48.89089" lon="2.00026">
        <ele>156</ele>
        <time>2014-08-21T09:48:19Z</time>
      </trkpt>
      <trkpt lat="48.89074" lon="2.00029">
        <ele>162</ele>
        <time>2014-08-21T09:48:34Z</time>
      </trkpt>
      <trkpt lat="48.89065" lon="2.00021">
        <ele>164</ele>
        <time>2014-08-21T09:48:45Z</time>
      </trkpt>
      <trkpt lat="48.89061" lon="2.00016">
        <ele>166</ele>
        <time>2014-08-21T09:48:49Z</time>
      </trkpt>
      <trkpt lat="48.89063" lon="2.00009">
        <ele>167</ele>
        <time>2014-08-21T09:48:53Z</time>
      </trkpt>
      <trkpt lat="48.89062" lon="2.00002">
        <ele>167</ele>
        <time>2014-08-21T09:48:57Z</time>
      </trkpt>
      <trkpt lat="48.89061" lon="1.99995">
        <ele>167</ele>
        <time>2014-08-21T09:49:01Z</time>
      </trkpt>
      <trkpt lat="48.89059" lon="1.99988">
        <ele>166</ele>
        <time>2014-08-21T09:49:06Z</time>
      </trkpt>
      <trkpt lat="48.89057" lon="1.99981">
        <ele>166</ele>
        <time>2014-08-21T09:49:12Z</time>
      </trkpt>
      <trkpt lat="48.89046" lon="1.99961">
        <ele>168</ele>
        <time>2014-08-21T09:49:24Z</time>
      </trkpt>
      <trkpt lat="48.89047" lon="1.99953">
        <ele>168</ele>
        <time>2014-08-21T09:49:28Z</time>
      </trkpt>
      <trkpt lat="48.89049" lon="1.99947">
        <ele>170</ele>
        <time>2014-08-21T09:49:33Z</time>
      </trkpt>
      <trkpt lat="48.89048" lon="1.9994">
        <ele>169</ele>
        <time>2014-08-21T09:49:37Z</time>
      </trkpt>
      <trkpt lat="48.89047" lon="1.99933">
        <ele>169</ele>
        <time>2014-08-21T09:49:42Z</time>
      </trkpt>
      <trkpt lat="48.89044" lon="1.99927">
        <ele>168</ele>
        <time>2014-08-21T09:49:47Z</time>
      </trkpt>
      <trkpt lat="48.89039" lon="1.99924">
        <ele>167</ele>
        <time>2014-08-21T09:50:04Z</time>
      </trkpt>
      <trkpt lat="48.89033" lon="1.99923">
        <ele>168</ele>
        <time>2014-08-21T09:50:07Z</time>
      </trkpt>
      <trkpt lat="48.89029" lon="1.99919">
        <ele>168</ele>
        <time>2014-08-21T09:50:12Z</time>
      </trkpt>
      <trkpt lat="48.8902" lon="1.99921">
        <ele>168</ele>
        <time>2014-08-21T09:50:23Z</time>
      </trkpt>
      <trkpt lat="48.89014" lon="1.9992">
        <ele>169</ele>
        <time>2014-08-21T09:50:27Z</time>
      </trkpt>
      <trkpt lat="48.8901" lon="1.99919">
        <ele>169</ele>
        <time>2014-08-21T09:50:31Z</time>
      </trkpt>
      <trkpt lat="48.89007" lon="1.99914">
        <ele>170</ele>
        <time>2014-08-21T09:50:35Z</time>
      </trkpt>
      <trkpt lat="48.88994" lon="1.99889">
        <ele>174</ele>
        <time>2014-08-21T09:50:51Z</time>
      </trkpt>
      <trkpt lat="48.88992" lon="1.99881">
        <ele>174</ele>
        <time>2014-08-21T09:50:56Z</time>
      </trkpt>
      <trkpt lat="48.88993" lon="1.99873">
        <ele>173</ele>
        <time>2014-08-21T09:51:00Z</time>
      </trkpt>
      <trkpt lat="48.88995" lon="1.99866">
        <ele>174</ele>
        <time>2014-08-21T09:51:04Z</time>
      </trkpt>
      <trkpt lat="48.88995" lon="1.99858">
        <ele>174</ele>
        <time>2014-08-21T09:51:08Z</time>
      </trkpt>
      <trkpt lat="48.88998" lon="1.99827">
        <ele>178</ele>
        <time>2014-08-21T09:51:26Z</time>
      </trkpt>
      <trkpt lat="48.88995" lon="1.9982">
        <ele>179</ele>
        <time>2014-08-21T09:51:31Z</time>
      </trkpt>
      <trkpt lat="48.88994" lon="1.99814">
        <ele>179</ele>
        <time>2014-08-21T09:51:36Z</time>
      </trkpt>
      <trkpt lat="48.88989" lon="1.99813">
        <ele>178</ele>
        <time>2014-08-21T09:51:44Z</time>
      </trkpt>
      <trkpt lat="48.88983" lon="1.99802">
        <ele>179</ele>
        <time>2014-08-21T09:51:56Z</time>
      </trkpt>
      <trkpt lat="48.88978" lon="1.998">
        <ele>179</ele>
        <time>2014-08-21T09:52:00Z</time>
      </trkpt>
      <trkpt lat="48.88967" lon="1.99794">
        <ele>178</ele>
        <time>2014-08-21T09:52:08Z</time>
      </trkpt>
      <trkpt lat="48.88963" lon="1.99789">
        <ele>177</ele>
        <time>2014-08-21T09:52:13Z</time>
      </trkpt>
      <trkpt lat="48.88962" lon="1.99782">
        <ele>176</ele>
        <time>2014-08-21T09:52:17Z</time>
      </trkpt>
      <trkpt lat="48.88958" lon="1.99776">
        <ele>176</ele>
        <time>2014-08-21T09:52:23Z</time>
      </trkpt>
      <trkpt lat="48.88953" lon="1.99778">
        <ele>176</ele>
        <time>2014-08-21T09:52:29Z</time>
      </trkpt>
      <trkpt lat="48.88948" lon="1.99781">
        <ele>179</ele>
        <time>2014-08-21T09:52:35Z</time>
      </trkpt>
      <trkpt lat="48.88944" lon="1.99778">
        <ele>177</ele>
        <time>2014-08-21T09:52:39Z</time>
      </trkpt>
      <trkpt lat="48.88939" lon="1.99775">
        <ele>175</ele>
        <time>2014-08-21T09:52:45Z</time>
      </trkpt>
      <trkpt lat="48.88935" lon="1.99773">
        <ele>175</ele>
        <time>2014-08-21T09:52:49Z</time>
      </trkpt>
      <trkpt lat="48.8893" lon="1.99772">
        <ele>173</ele>
        <time>2014-08-21T09:52:52Z</time>
      </trkpt>
      <trkpt lat="48.88929" lon="1.99766">
        <ele>175</ele>
        <time>2014-08-21T09:53:04Z</time>
      </trkpt>
      <trkpt lat="48.88923" lon="1.99763">
        <ele>175</ele>
        <time>2014-08-21T09:53:07Z</time>
      </trkpt>
      <trkpt lat="48.88917" lon="1.99761">
        <ele>175</ele>
        <time>2014-08-21T09:53:10Z</time>
      </trkpt>
      <trkpt lat="48.88912" lon="1.9976">
        <ele>176</ele>
        <time>2014-08-21T09:53:13Z</time>
      </trkpt>
      <trkpt lat="48.88904" lon="1.99751">
        <ele>178</ele>
        <time>2014-08-21T09:53:18Z</time>
      </trkpt>
      <trkpt lat="48.889" lon="1.99745">
        <ele>178</ele>
        <time>2014-08-21T09:53:21Z</time>
      </trkpt>
      <trkpt lat="48.88893" lon="1.99707">
        <ele>172</ele>
        <time>2014-08-21T09:53:41Z</time>
      </trkpt>
      <trkpt lat="48.88895" lon="1.99701">
        <ele>172</ele>
        <time>2014-08-21T09:53:43Z</time>
      </trkpt>
      <trkpt lat="48.88894" lon="1.99692">
        <ele>173</ele>
        <time>2014-08-21T09:53:47Z</time>
      </trkpt>
      <trkpt lat="48.88891" lon="1.99686">
        <ele>173</ele>
        <time>2014-08-21T09:53:51Z</time>
      </trkpt>
      <trkpt lat="48.88888" lon="1.99681">
        <ele>171</ele>
        <time>2014-08-21T09:53:59Z</time>
      </trkpt>
      <trkpt lat="48.88888" lon="1.99674">
        <ele>171</ele>
        <time>2014-08-21T09:54:03Z</time>
      </trkpt>
      <trkpt lat="48.88886" lon="1.99667">
        <ele>172</ele>
        <time>2014-08-21T09:54:06Z</time>
      </trkpt>
      <trkpt lat="48.8889" lon="1.99643">
        <ele>176</ele>
        <time>2014-08-21T09:54:16Z</time>
      </trkpt>
      <trkpt lat="48.88893" lon="1.99637">
        <ele>176</ele>
        <time>2014-08-21T09:54:21Z</time>
      </trkpt>
      <trkpt lat="48.88897" lon="1.99632">
        <ele>177</ele>
        <time>2014-08-21T09:54:25Z</time>
      </trkpt>
      <trkpt lat="48.88904" lon="1.99621">
        <ele>178</ele>
        <time>2014-08-21T09:54:32Z</time>
      </trkpt>
      <trkpt lat="48.88907" lon="1.99616">
        <ele>178</ele>
        <time>2014-08-21T09:54:36Z</time>
      </trkpt>
      <trkpt lat="48.8891" lon="1.9961">
        <ele>179</ele>
        <time>2014-08-21T09:54:41Z</time>
      </trkpt>
      <trkpt lat="48.88916" lon="1.99599">
        <ele>179</ele>
        <time>2014-08-21T09:54:47Z</time>
      </trkpt>
      <trkpt lat="48.88919" lon="1.99594">
        <ele>179</ele>
        <time>2014-08-21T09:54:53Z</time>
      </trkpt>
      <trkpt lat="48.88923" lon="1.99589">
        <ele>179</ele>
        <time>2014-08-21T09:54:58Z</time>
      </trkpt>
      <trkpt lat="48.88925" lon="1.99582">
        <ele>178</ele>
        <time>2014-08-21T09:55:03Z</time>
      </trkpt>
      <trkpt lat="48.88929" lon="1.99569">
        <ele>175</ele>
        <time>2014-08-21T09:55:16Z</time>
      </trkpt>
      <trkpt lat="48.88933" lon="1.99562">
        <ele>175</ele>
        <time>2014-08-21T09:55:21Z</time>
      </trkpt>
      <trkpt lat="48.88936" lon="1.99558">
        <ele>175</ele>
        <time>2014-08-21T09:55:29Z</time>
      </trkpt>
      <trkpt lat="48.88947" lon="1.9954">
        <ele>173</ele>
        <time>2014-08-21T09:55:46Z</time>
      </trkpt>
      <trkpt lat="48.88954" lon="1.99529">
        <ele>173</ele>
        <time>2014-08-21T09:55:55Z</time>
      </trkpt>
      <trkpt lat="48.88957" lon="1.99525">
        <ele>174</ele>
        <time>2014-08-21T09:56:00Z</time>
      </trkpt>
      <trkpt lat="48.88962" lon="1.99521">
        <ele>174</ele>
        <time>2014-08-21T09:56:06Z</time>
      </trkpt>
      <trkpt lat="48.88978" lon="1.995">
        <ele>164</ele>
        <time>2014-08-21T09:56:21Z</time>
      </trkpt>
      <trkpt lat="48.88978" lon="1.99493">
        <ele>160</ele>
        <time>2014-08-21T09:56:25Z</time>
      </trkpt>
      <trkpt lat="48.8898" lon="1.99485">
        <ele>159</ele>
        <time>2014-08-21T09:56:29Z</time>
      </trkpt>
      <trkpt lat="48.88982" lon="1.99479">
        <ele>160</ele>
        <time>2014-08-21T09:56:33Z</time>
      </trkpt>
      <trkpt lat="48.88989" lon="1.99458">
        <ele>156</ele>
        <time>2014-08-21T09:56:48Z</time>
      </trkpt>
      <trkpt lat="48.88985" lon="1.99455">
        <ele>156</ele>
        <time>2014-08-21T09:56:51Z</time>
      </trkpt>
      <trkpt lat="48.88979" lon="1.99453">
        <ele>156</ele>
        <time>2014-08-21T09:56:55Z</time>
      </trkpt>
      <trkpt lat="48.88975" lon="1.99449">
        <ele>156</ele>
        <time>2014-08-21T09:57:00Z</time>
      </trkpt>
      <trkpt lat="48.88972" lon="1.99442">
        <ele>157</ele>
        <time>2014-08-21T09:57:05Z</time>
      </trkpt>
      <trkpt lat="48.88969" lon="1.99437">
        <ele>157</ele>
        <time>2014-08-21T09:57:08Z</time>
      </trkpt>
      <trkpt lat="48.88964" lon="1.99432">
        <ele>156</ele>
        <time>2014-08-21T09:57:17Z</time>
      </trkpt>
      <trkpt lat="48.88958" lon="1.99412">
        <ele>157</ele>
        <time>2014-08-21T09:57:33Z</time>
      </trkpt>
      <trkpt lat="48.88957" lon="1.99405">
        <ele>157</ele>
        <time>2014-08-21T09:57:38Z</time>
      </trkpt>
      <trkpt lat="48.88953" lon="1.99389">
        <ele>156</ele>
        <time>2014-08-21T09:57:47Z</time>
      </trkpt>
      <trkpt lat="48.88951" lon="1.99367">
        <ele>157</ele>
        <time>2014-08-21T09:58:00Z</time>
      </trkpt>
      <trkpt lat="48.88947" lon="1.99365">
        <ele>157</ele>
        <time>2014-08-21T09:58:04Z</time>
      </trkpt>
      <trkpt lat="48.88942" lon="1.99361">
        <ele>158</ele>
        <time>2014-08-21T09:58:08Z</time>
      </trkpt>
      <trkpt lat="48.88937" lon="1.9936">
        <ele>157</ele>
        <time>2014-08-21T09:58:12Z</time>
      </trkpt>
      <trkpt lat="48.88919" lon="1.9935">
        <ele>159</ele>
        <time>2014-08-21T09:58:26Z</time>
      </trkpt>
      <trkpt lat="48.88915" lon="1.99336">
        <ele>159</ele>
        <time>2014-08-21T09:58:34Z</time>
      </trkpt>
      <trkpt lat="48.88915" lon="1.99329">
        <ele>160</ele>
        <time>2014-08-21T09:58:41Z</time>
      </trkpt>
      <trkpt lat="48.88911" lon="1.99326">
        <ele>161</ele>
        <time>2014-08-21T09:58:44Z</time>
      </trkpt>
      <trkpt lat="48.88906" lon="1.99323">
        <ele>162</ele>
        <time>2014-08-21T09:58:48Z</time>
      </trkpt>
      <trkpt lat="48.88908" lon="1.99315">
        <ele>161</ele>
        <time>2014-08-21T09:58:51Z</time>
      </trkpt>
      <trkpt lat="48.88909" lon="1.99308">
        <ele>161</ele>
        <time>2014-08-21T09:58:54Z</time>
      </trkpt>
      <trkpt lat="48.88906" lon="1.99301">
        <ele>162</ele>
        <time>2014-08-21T09:58:59Z</time>
      </trkpt>
      <trkpt lat="48.88897" lon="1.99295">
        <ele>166</ele>
        <time>2014-08-21T09:59:09Z</time>
      </trkpt>
      <trkpt lat="48.88892" lon="1.99297">
        <ele>167</ele>
        <time>2014-08-21T09:59:15Z</time>
      </trkpt>
      <trkpt lat="48.88889" lon="1.99295">
        <ele>167</ele>
        <time>2014-08-21T09:59:37Z</time>
      </trkpt>
      <trkpt lat="48.88885" lon="1.99291">
        <ele>166</ele>
        <time>2014-08-21T09:59:44Z</time>
      </trkpt>
      <trkpt lat="48.88882" lon="1.99285">
        <ele>163</ele>
        <time>2014-08-21T09:59:50Z</time>
      </trkpt>
      <trkpt lat="48.88852" lon="1.99257">
        <ele>158</ele>
        <time>2014-08-21T10:00:21Z</time>
      </trkpt>
      <trkpt lat="48.88847" lon="1.99253">
        <ele>157</ele>
        <time>2014-08-21T10:00:25Z</time>
      </trkpt>
      <trkpt lat="48.88844" lon="1.99247">
        <ele>159</ele>
        <time>2014-08-21T10:00:32Z</time>
      </trkpt>
      <trkpt lat="48.88814" lon="1.99224">
        <ele>166</ele>
        <time>2014-08-21T10:01:06Z</time>
      </trkpt>
      <trkpt lat="48.8881" lon="1.99219">
        <ele>168</ele>
        <time>2014-08-21T10:01:12Z</time>
      </trkpt>
      <trkpt lat="48.88804" lon="1.99217">
        <ele>169</ele>
        <time>2014-08-21T10:01:15Z</time>
      </trkpt>
      <trkpt lat="48.88799" lon="1.99219">
        <ele>169</ele>
        <time>2014-08-21T10:01:17Z</time>
      </trkpt>
      <trkpt lat="48.88782" lon="1.99227">
        <ele>170</ele>
        <time>2014-08-21T10:01:25Z</time>
      </trkpt>
      <trkpt lat="48.88778" lon="1.99225">
        <ele>171</ele>
        <time>2014-08-21T10:01:30Z</time>
      </trkpt>
      <trkpt lat="48.88774" lon="1.99219">
        <ele>171</ele>
        <time>2014-08-21T10:01:36Z</time>
      </trkpt>
      <trkpt lat="48.88771" lon="1.99214">
        <ele>171</ele>
        <time>2014-08-21T10:01:42Z</time>
      </trkpt>
      <trkpt lat="48.88767" lon="1.9921">
        <ele>172</ele>
        <time>2014-08-21T10:01:47Z</time>
      </trkpt>
      <trkpt lat="48.88762" lon="1.99207">
        <ele>172</ele>
        <time>2014-08-21T10:01:50Z</time>
      </trkpt>
      <trkpt lat="48.88754" lon="1.99202">
        <ele>172</ele>
        <time>2014-08-21T10:01:58Z</time>
      </trkpt>
      <trkpt lat="48.88745" lon="1.99182">
        <ele>168</ele>
        <time>2014-08-21T10:02:12Z</time>
      </trkpt>
      <trkpt lat="48.8874" lon="1.99179">
        <ele>167</ele>
        <time>2014-08-21T10:02:17Z</time>
      </trkpt>
      <trkpt lat="48.88704" lon="1.99167">
        <ele>174</ele>
        <time>2014-08-21T10:02:53Z</time>
      </trkpt>
      <trkpt lat="48.88697" lon="1.99155">
        <ele>170</ele>
        <time>2014-08-21T10:03:00Z</time>
      </trkpt>
      <trkpt lat="48.88697" lon="1.99148">
        <ele>170</ele>
        <time>2014-08-21T10:03:04Z</time>
      </trkpt>
      <trkpt lat="48.88693" lon="1.99143">
        <ele>170</ele>
        <time>2014-08-21T10:03:17Z</time>
      </trkpt>
      <trkpt lat="48.88688" lon="1.99142">
        <ele>170</ele>
        <time>2014-08-21T10:03:22Z</time>
      </trkpt>
      <trkpt lat="48.88686" lon="1.99135">
        <ele>169</ele>
        <time>2014-08-21T10:03:30Z</time>
      </trkpt>
      <trkpt lat="48.88685" lon="1.99132">
        <ele>168</ele>
        <time>2014-08-21T10:03:36Z</time>
      </trkpt>
      <trkpt lat="48.88677" lon="1.99122">
        <ele>166</ele>
        <time>2014-08-21T10:03:46Z</time>
      </trkpt>
      <trkpt lat="48.88673" lon="1.99116">
        <ele>166</ele>
        <time>2014-08-21T10:03:50Z</time>
      </trkpt>
      <trkpt lat="48.8867" lon="1.99111">
        <ele>168</ele>
        <time>2014-08-21T10:03:55Z</time>
      </trkpt>
      <trkpt lat="48.88665" lon="1.99107">
        <ele>168</ele>
        <time>2014-08-21T10:04:02Z</time>
      </trkpt>
      <trkpt lat="48.88662" lon="1.99114">
        <ele>169</ele>
        <time>2014-08-21T10:04:07Z</time>
      </trkpt>
      <trkpt lat="48.8866" lon="1.99107">
        <ele>169</ele>
        <time>2014-08-21T10:04:13Z</time>
      </trkpt>
      <trkpt lat="48.88655" lon="1.99101">
        <ele>169</ele>
        <time>2014-08-21T10:04:24Z</time>
      </trkpt>
      <trkpt lat="48.88655" lon="1.99092">
        <ele>171</ele>
        <time>2014-08-21T10:04:30Z</time>
      </trkpt>
      <trkpt lat="48.88652" lon="1.99084">
        <ele>172</ele>
        <time>2014-08-21T10:04:35Z</time>
      </trkpt>
      <trkpt lat="48.88634" lon="1.99051">
        <ele>173</ele>
        <time>2014-08-21T10:04:54Z</time>
      </trkpt>
      <trkpt lat="48.88625" lon="1.99046">
        <ele>173</ele>
        <time>2014-08-21T10:05:01Z</time>
      </trkpt>
      <trkpt lat="48.88621" lon="1.99032">
        <ele>173</ele>
        <time>2014-08-21T10:05:16Z</time>
      </trkpt>
      <trkpt lat="48.88613" lon="1.98989">
        <ele>174</ele>
        <time>2014-08-21T10:05:44Z</time>
      </trkpt>
      <trkpt lat="48.88615" lon="1.98983">
        <ele>173</ele>
        <time>2014-08-21T10:05:47Z</time>
      </trkpt>
      <trkpt lat="48.88612" lon="1.98969">
        <ele>171</ele>
        <time>2014-08-21T10:05:57Z</time>
      </trkpt>
      <trkpt lat="48.88605" lon="1.98961">
        <ele>171</ele>
        <time>2014-08-21T10:06:04Z</time>
      </trkpt>
      <trkpt lat="48.88602" lon="1.98955">
        <ele>170</ele>
        <time>2014-08-21T10:06:08Z</time>
      </trkpt>
      <trkpt lat="48.88601" lon="1.98948">
        <ele>170</ele>
        <time>2014-08-21T10:06:14Z</time>
      </trkpt>
      <trkpt lat="48.88602" lon="1.98941">
        <ele>171</ele>
        <time>2014-08-21T10:06:20Z</time>
      </trkpt>
      <trkpt lat="48.88604" lon="1.98935">
        <ele>171</ele>
        <time>2014-08-21T10:06:23Z</time>
      </trkpt>
      <trkpt lat="48.88605" lon="1.98927">
        <ele>171</ele>
        <time>2014-08-21T10:06:27Z</time>
      </trkpt>
      <trkpt lat="48.88604" lon="1.9892">
        <ele>170</ele>
        <time>2014-08-21T10:06:34Z</time>
      </trkpt>
      <trkpt lat="48.88605" lon="1.98916">
        <ele>168</ele>
        <time>2014-08-21T10:06:40Z</time>
      </trkpt>
      <trkpt lat="48.88604" lon="1.98912">
        <ele>166</ele>
        <time>2014-08-21T10:06:52Z</time>
      </trkpt>
      <trkpt lat="48.88607" lon="1.98906">
        <ele>166</ele>
        <time>2014-08-21T10:07:00Z</time>
      </trkpt>
      <trkpt lat="48.8861" lon="1.98901">
        <ele>164</ele>
        <time>2014-08-21T10:07:08Z</time>
      </trkpt>
      <trkpt lat="48.88605" lon="1.98896">
        <ele>162</ele>
        <time>2014-08-21T10:07:21Z</time>
      </trkpt>
      <trkpt lat="48.88598" lon="1.98899">
        <ele>162</ele>
        <time>2014-08-21T10:07:31Z</time>
      </trkpt>
      <trkpt lat="48.88593" lon="1.98902">
        <ele>162</ele>
        <time>2014-08-21T10:07:35Z</time>
      </trkpt>
      <trkpt lat="48.88588" lon="1.98902">
        <ele>163</ele>
        <time>2014-08-21T10:07:39Z</time>
      </trkpt>
      <trkpt lat="48.88578" lon="1.98895">
        <ele>166</ele>
        <time>2014-08-21T10:07:49Z</time>
      </trkpt>
      <trkpt lat="48.88574" lon="1.98893">
        <ele>166</ele>
        <time>2014-08-21T10:07:53Z</time>
      </trkpt>
      <trkpt lat="48.8857" lon="1.98893">
        <ele>166</ele>
        <time>2014-08-21T10:08:02Z</time>
      </trkpt>
      <trkpt lat="48.88566" lon="1.98898">
        <ele>167</ele>
        <time>2014-08-21T10:08:08Z</time>
      </trkpt>
      <trkpt lat="48.88562" lon="1.98898">
        <ele>168</ele>
        <time>2014-08-21T10:08:15Z</time>
      </trkpt>
      <trkpt lat="48.88552" lon="1.98898">
        <ele>170</ele>
        <time>2014-08-21T10:08:23Z</time>
      </trkpt>
      <trkpt lat="48.88548" lon="1.98898">
        <ele>170</ele>
        <time>2014-08-21T10:08:27Z</time>
      </trkpt>
      <trkpt lat="48.88543" lon="1.989">
        <ele>170</ele>
        <time>2014-08-21T10:08:34Z</time>
      </trkpt>
      <trkpt lat="48.88538" lon="1.989">
        <ele>170</ele>
        <time>2014-08-21T10:08:38Z</time>
      </trkpt>
      <trkpt lat="48.88529" lon="1.98901">
        <ele>171</ele>
        <time>2014-08-21T10:08:46Z</time>
      </trkpt>
      <trkpt lat="48.88524" lon="1.98904">
        <ele>171</ele>
        <time>2014-08-21T10:08:51Z</time>
      </trkpt>
      <trkpt lat="48.88519" lon="1.98916">
        <ele>170</ele>
        <time>2014-08-21T10:08:59Z</time>
      </trkpt>
      <trkpt lat="48.88514" lon="1.98917">
        <ele>169</ele>
        <time>2014-08-21T10:09:04Z</time>
      </trkpt>
      <trkpt lat="48.88508" lon="1.98915">
        <ele>166</ele>
        <time>2014-08-21T10:09:08Z</time>
      </trkpt>
      <trkpt lat="48.88504" lon="1.98914">
        <ele>166</ele>
        <time>2014-08-21T10:09:12Z</time>
      </trkpt>
      <trkpt lat="48.88499" lon="1.98914">
        <ele>167</ele>
        <time>2014-08-21T10:09:16Z</time>
      </trkpt>
      <trkpt lat="48.88488" lon="1.98909">
        <ele>166</ele>
        <time>2014-08-21T10:09:25Z</time>
      </trkpt>
      <trkpt lat="48.88473" lon="1.9891">
        <ele>173</ele>
        <time>2014-08-21T10:09:37Z</time>
      </trkpt>
      <trkpt lat="48.88451" lon="1.98912">
        <ele>166</ele>
        <time>2014-08-21T10:09:54Z</time>
      </trkpt>
      <trkpt lat="48.88446" lon="1.98909">
        <ele>166</ele>
        <time>2014-08-21T10:09:58Z</time>
      </trkpt>
      <trkpt lat="48.88431" lon="1.98911">
        <ele>167</ele>
        <time>2014-08-21T10:10:10Z</time>
      </trkpt>
      <trkpt lat="48.88427" lon="1.98914">
        <ele>168</ele>
        <time>2014-08-21T10:10:13Z</time>
      </trkpt>
      <trkpt lat="48.88423" lon="1.9892">
        <ele>168</ele>
        <time>2014-08-21T10:10:16Z</time>
      </trkpt>
      <trkpt lat="48.88419" lon="1.98925">
        <ele>167</ele>
        <time>2014-08-21T10:10:19Z</time>
      </trkpt>
      <trkpt lat="48.88414" lon="1.98928">
        <ele>167</ele>
        <time>2014-08-21T10:10:24Z</time>
      </trkpt>
      <trkpt lat="48.88407" lon="1.98939">
        <ele>163</ele>
        <time>2014-08-21T10:10:45Z</time>
      </trkpt>
      <trkpt lat="48.88402" lon="1.98943">
        <ele>164</ele>
        <time>2014-08-21T10:10:51Z</time>
      </trkpt>
      <trkpt lat="48.88398" lon="1.98939">
        <ele>164</ele>
        <time>2014-08-21T10:10:55Z</time>
      </trkpt>
      <trkpt lat="48.88387" lon="1.98924">
        <ele>168</ele>
        <time>2014-08-21T10:11:08Z</time>
      </trkpt>
      <trkpt lat="48.88387" lon="1.98921">
        <ele>169</ele>
        <time>2014-08-21T10:11:20Z</time>
      </trkpt>
      <trkpt lat="48.88384" lon="1.98915">
        <ele>170</ele>
        <time>2014-08-21T10:11:26Z</time>
      </trkpt>
      <trkpt lat="48.88389" lon="1.98906">
        <ele>170</ele>
        <time>2014-08-21T10:11:48Z</time>
      </trkpt>
      <trkpt lat="48.88393" lon="1.989">
        <ele>166</ele>
        <time>2014-08-21T10:11:53Z</time>
      </trkpt>
      <trkpt lat="48.88397" lon="1.98899">
        <ele>165</ele>
        <time>2014-08-21T10:12:03Z</time>
      </trkpt>
      <trkpt lat="48.88399" lon="1.98906">
        <ele>164</ele>
        <time>2014-08-21T10:12:07Z</time>
      </trkpt>
      <trkpt lat="48.8841" lon="1.98918">
        <ele>161</ele>
        <time>2014-08-21T10:12:16Z</time>
      </trkpt>
      <trkpt lat="48.88413" lon="1.98923">
        <ele>162</ele>
        <time>2014-08-21T10:12:20Z</time>
      </trkpt>
      <trkpt lat="48.88418" lon="1.98934">
        <ele>163</ele>
        <time>2014-08-21T10:12:33Z</time>
      </trkpt>
      <trkpt lat="48.88414" lon="1.9894">
        <ele>163</ele>
        <time>2014-08-21T10:12:37Z</time>
      </trkpt>
      <trkpt lat="48.88412" lon="1.98935">
        <ele>166</ele>
        <time>2014-08-21T10:13:12Z</time>
      </trkpt>
      <trkpt lat="48.88404" lon="1.98927">
        <ele>166</ele>
        <time>2014-08-21T10:13:19Z</time>
      </trkpt>
      <trkpt lat="48.88397" lon="1.98939">
        <ele>166</ele>
        <time>2014-08-21T10:13:26Z</time>
      </trkpt>
      <trkpt lat="48.88396" lon="1.98933">
        <ele>168</ele>
        <time>2014-08-21T10:13:35Z</time>
      </trkpt>
      <trkpt lat="48.88398" lon="1.98931">
        <ele>168</ele>
        <time>2014-08-21T10:13:41Z</time>
      </trkpt>
      <trkpt lat="48.88401" lon="1.98929">
        <ele>171</ele>
        <time>2014-08-21T10:14:37Z</time>
      </trkpt>
      <trkpt lat="48.88404" lon="1.98935">
        <ele>171</ele>
        <time>2014-08-21T10:14:43Z</time>
      </trkpt>
      <trkpt lat="48.88407" lon="1.98936">
        <ele>172</ele>
        <time>2014-08-21T10:15:19Z</time>
      </trkpt>
      <trkpt lat="48.88403" lon="1.98942">
        <ele>172</ele>
        <time>2014-08-21T10:15:21Z</time>
      </trkpt>
      <trkpt lat="48.884" lon="1.98944">
        <ele>173</ele>
        <time>2014-08-21T10:15:28Z</time>
      </trkpt>
      <trkpt lat="48.88403" lon="1.98948">
        <ele>177</ele>
        <time>2014-08-21T10:16:47Z</time>
      </trkpt>
      <trkpt lat="48.88404" lon="1.98941">
        <ele>177</ele>
        <time>2014-08-21T10:17:09Z</time>
      </trkpt>
      <trkpt lat="48.88415" lon="1.98926">
        <ele>170</ele>
        <time>2014-08-21T10:17:38Z</time>
      </trkpt>
      <trkpt lat="48.8841" lon="1.98929">
        <ele>168</ele>
        <time>2014-08-21T10:17:50Z</time>
      </trkpt>
      <trkpt lat="48.88405" lon="1.98935">
        <ele>168</ele>
        <time>2014-08-21T10:18:03Z</time>
      </trkpt>
      <trkpt lat="48.88403" lon="1.9894">
        <ele>168</ele>
        <time>2014-08-21T10:18:12Z</time>
      </trkpt>
      <trkpt lat="48.88394" lon="1.98939">
        <ele>170</ele>
        <time>2014-08-21T10:21:22Z</time>
      </trkpt>
      <trkpt lat="48.88395" lon="1.98935">
        <ele>182</ele>
        <time>2014-08-21T10:21:49Z</time>
      </trkpt>
      <trkpt lat="48.88401" lon="1.98934">
        <ele>183</ele>
        <time>2014-08-21T10:23:18Z</time>
      </trkpt>
      <trkpt lat="48.88406" lon="1.98938">
        <ele>181</ele>
        <time>2014-08-21T10:31:48Z</time>
      </trkpt>
      <trkpt lat="48.88411" lon="1.98937">
        <ele>178</ele>
        <time>2014-08-21T10:31:51Z</time>
      </trkpt>
      <trkpt lat="48.88413" lon="1.98931">
        <ele>175</ele>
        <time>2014-08-21T10:31:55Z</time>
      </trkpt>
      <trkpt lat="48.88413" lon="1.98924">
        <ele>174</ele>
        <time>2014-08-21T10:32:00Z</time>
      </trkpt>
      <trkpt lat="48.88413" lon="1.98928">
        <ele>174</ele>
        <time>2014-08-21T10:32:09Z</time>
      </trkpt>
      <trkpt lat="48.88413" lon="1.98935">
        <ele>174</ele>
        <time>2014-08-21T10:32:12Z</time>
      </trkpt>
      <trkpt lat="48.88412" lon="1.98942">
        <ele>174</ele>
        <time>2014-08-21T10:32:22Z</time>
      </trkpt>
      <trkpt lat="48.88409" lon="1.98943">
        <ele>179</ele>
        <time>2014-08-21T10:36:37Z</time>
      </trkpt>
      <trkpt lat="48.88407" lon="1.98941">
        <ele>180</ele>
        <time>2014-08-21T10:37:32Z</time>
      </trkpt>
      <trkpt lat="48.8841" lon="1.98935">
        <ele>180</ele>
        <time>2014-08-21T10:37:33Z</time>
      </trkpt>
      <trkpt lat="48.88411" lon="1.98931">
        <ele>180</ele>
        <time>2014-08-21T10:38:15Z</time>
      </trkpt>
      <trkpt lat="48.88417" lon="1.98931">
        <ele>180</ele>
        <time>2014-08-21T10:38:49Z</time>
      </trkpt>
      <trkpt lat="48.88416" lon="1.98928">
        <ele>178</ele>
        <time>2014-08-21T10:41:05Z</time>
      </trkpt>
      <trkpt lat="48.88421" lon="1.98925">
        <ele>178</ele>
        <time>2014-08-21T10:41:08Z</time>
      </trkpt>
      <trkpt lat="48.88421" lon="1.98923">
        <ele>179</ele>
        <time>2014-08-21T10:41:17Z</time>
      </trkpt>
      <trkpt lat="48.88423" lon="1.98935">
        <ele>179</ele>
        <time>2014-08-21T10:41:21Z</time>
      </trkpt>
      <trkpt lat="48.88419" lon="1.9894">
        <ele>180</ele>
        <time>2014-08-21T10:43:02Z</time>
      </trkpt>
      <trkpt lat="48.88415" lon="1.98937">
        <ele>178</ele>
        <time>2014-08-21T10:43:18Z</time>
      </trkpt>
      <trkpt lat="48.88408" lon="1.98928">
        <ele>176</ele>
        <time>2014-08-21T10:44:04Z</time>
      </trkpt>
      <trkpt lat="48.884" lon="1.98931">
        <ele>171</ele>
        <time>2014-08-21T10:45:09Z</time>
      </trkpt>
      <trkpt lat="48.88389" lon="1.9892">
        <ele>172</ele>
        <time>2014-08-21T10:46:18Z</time>
      </trkpt>
      <trkpt lat="48.88397" lon="1.98911">
        <ele>173</ele>
        <time>2014-08-21T10:46:25Z</time>
      </trkpt>
      <trkpt lat="48.88396" lon="1.98913">
        <ele>175</ele>
        <time>2014-08-21T10:47:03Z</time>
      </trkpt>
      <trkpt lat="48.88388" lon="1.98922">
        <ele>174</ele>
        <time>2014-08-21T10:47:11Z</time>
      </trkpt>
      <trkpt lat="48.88379" lon="1.98919">
        <ele>171</ele>
        <time>2014-08-21T10:47:19Z</time>
      </trkpt>
      <trkpt lat="48.88371" lon="1.98926">
        <ele>170</ele>
        <time>2014-08-21T10:47:28Z</time>
      </trkpt>
      <trkpt lat="48.88365" lon="1.98938">
        <ele>169</ele>
        <time>2014-08-21T10:47:38Z</time>
      </trkpt>
      <trkpt lat="48.88357" lon="1.98935">
        <ele>168</ele>
        <time>2014-08-21T10:47:46Z</time>
      </trkpt>
      <trkpt lat="48.88354" lon="1.98933">
        <ele>167</ele>
        <time>2014-08-21T10:47:52Z</time>
      </trkpt>
      <trkpt lat="48.88344" lon="1.98932">
        <ele>168</ele>
        <time>2014-08-21T10:48:04Z</time>
      </trkpt>
      <trkpt lat="48.8834" lon="1.9893">
        <ele>168</ele>
        <time>2014-08-21T10:48:09Z</time>
      </trkpt>
      <trkpt lat="48.88326" lon="1.9893">
        <ele>173</ele>
        <time>2014-08-21T10:48:20Z</time>
      </trkpt>
      <trkpt lat="48.88321" lon="1.98932">
        <ele>173</ele>
        <time>2014-08-21T10:48:29Z</time>
      </trkpt>
      <trkpt lat="48.88311" lon="1.98934">
        <ele>173</ele>
        <time>2014-08-21T10:48:39Z</time>
      </trkpt>
      <trkpt lat="48.88315" lon="1.9893">
        <ele>172</ele>
        <time>2014-08-21T10:48:48Z</time>
      </trkpt>
      <trkpt lat="48.88311" lon="1.98933">
        <ele>172</ele>
        <time>2014-08-21T10:49:19Z</time>
      </trkpt>
      <trkpt lat="48.88307" lon="1.98934">
        <ele>172</ele>
        <time>2014-08-21T10:49:23Z</time>
      </trkpt>
      <trkpt lat="48.88301" lon="1.98934">
        <ele>171</ele>
        <time>2014-08-21T10:49:26Z</time>
      </trkpt>
      <trkpt lat="48.8829" lon="1.9892">
        <ele>170</ele>
        <time>2014-08-21T10:49:39Z</time>
      </trkpt>
      <trkpt lat="48.88288" lon="1.9892">
        <ele>171</ele>
        <time>2014-08-21T10:49:52Z</time>
      </trkpt>
      <trkpt lat="48.8829" lon="1.98936">
        <ele>170</ele>
        <time>2014-08-21T10:49:58Z</time>
      </trkpt>
      <trkpt lat="48.88287" lon="1.98942">
        <ele>170</ele>
        <time>2014-08-21T10:50:05Z</time>
      </trkpt>
      <trkpt lat="48.88284" lon="1.98943">
        <ele>170</ele>
        <time>2014-08-21T10:50:13Z</time>
      </trkpt>
      <trkpt lat="48.88274" lon="1.98945">
        <ele>169</ele>
        <time>2014-08-21T10:50:25Z</time>
      </trkpt>
      <trkpt lat="48.88264" lon="1.98943">
        <ele>169</ele>
        <time>2014-08-21T10:50:32Z</time>
      </trkpt>
      <trkpt lat="48.88237" lon="1.98944">
        <ele>178</ele>
        <time>2014-08-21T10:50:57Z</time>
      </trkpt>
      <trkpt lat="48.88233" lon="1.98957">
        <ele>178</ele>
        <time>2014-08-21T10:51:18Z</time>
      </trkpt>
      <trkpt lat="48.88223" lon="1.98952">
        <ele>178</ele>
        <time>2014-08-21T10:51:23Z</time>
      </trkpt>
      <trkpt lat="48.88214" lon="1.98948">
        <ele>178</ele>
        <time>2014-08-21T10:51:29Z</time>
      </trkpt>
      <trkpt lat="48.88202" lon="1.98958">
        <ele>177</ele>
        <time>2014-08-21T10:52:21Z</time>
      </trkpt>
      <trkpt lat="48.88193" lon="1.98963">
        <ele>178</ele>
        <time>2014-08-21T10:52:31Z</time>
      </trkpt>
      <trkpt lat="48.88178" lon="1.98962">
        <ele>181</ele>
        <time>2014-08-21T10:52:43Z</time>
      </trkpt>
      <trkpt lat="48.88173" lon="1.98961">
        <ele>181</ele>
        <time>2014-08-21T10:52:48Z</time>
      </trkpt>
      <trkpt lat="48.88167" lon="1.98961">
        <ele>180</ele>
        <time>2014-08-21T10:52:53Z</time>
      </trkpt>
      <trkpt lat="48.88161" lon="1.98962">
        <ele>179</ele>
        <time>2014-08-21T10:52:57Z</time>
      </trkpt>
      <trkpt lat="48.88156" lon="1.98962">
        <ele>179</ele>
        <time>2014-08-21T10:53:00Z</time>
      </trkpt>
      <trkpt lat="48.88152" lon="1.98966">
        <ele>179</ele>
        <time>2014-08-21T10:53:06Z</time>
      </trkpt>
      <trkpt lat="48.88147" lon="1.98968">
        <ele>178</ele>
        <time>2014-08-21T10:53:11Z</time>
      </trkpt>
      <trkpt lat="48.88139" lon="1.98976">
        <ele>178</ele>
        <time>2014-08-21T10:53:20Z</time>
      </trkpt>
      <trkpt lat="48.88133" lon="1.98973">
        <ele>176</ele>
        <time>2014-08-21T10:53:25Z</time>
      </trkpt>
      <trkpt lat="48.88118" lon="1.98965">
        <ele>171</ele>
        <time>2014-08-21T10:53:37Z</time>
      </trkpt>
      <trkpt lat="48.88113" lon="1.98965">
        <ele>171</ele>
        <time>2014-08-21T10:53:42Z</time>
      </trkpt>
      <trkpt lat="48.88102" lon="1.98966">
        <ele>172</ele>
        <time>2014-08-21T10:53:51Z</time>
      </trkpt>
      <trkpt lat="48.88097" lon="1.98968">
        <ele>172</ele>
        <time>2014-08-21T10:53:55Z</time>
      </trkpt>
      <trkpt lat="48.8806" lon="1.98978">
        <ele>177</ele>
        <time>2014-08-21T10:54:28Z</time>
      </trkpt>
      <trkpt lat="48.88056" lon="1.98975">
        <ele>177</ele>
        <time>2014-08-21T10:54:34Z</time>
      </trkpt>
      <trkpt lat="48.8805" lon="1.98977">
        <ele>176</ele>
        <time>2014-08-21T10:54:38Z</time>
      </trkpt>
      <trkpt lat="48.88041" lon="1.9898">
        <ele>178</ele>
        <time>2014-08-21T10:54:47Z</time>
      </trkpt>
      <trkpt lat="48.88036" lon="1.98982">
        <ele>179</ele>
        <time>2014-08-21T10:54:52Z</time>
      </trkpt>
      <trkpt lat="48.88031" lon="1.98984">
        <ele>178</ele>
        <time>2014-08-21T10:54:59Z</time>
      </trkpt>
      <trkpt lat="48.88026" lon="1.98987">
        <ele>178</ele>
        <time>2014-08-21T10:55:05Z</time>
      </trkpt>
      <trkpt lat="48.88021" lon="1.98989">
        <ele>178</ele>
        <time>2014-08-21T10:55:09Z</time>
      </trkpt>
      <trkpt lat="48.88015" lon="1.98992">
        <ele>179</ele>
        <time>2014-08-21T10:55:12Z</time>
      </trkpt>
      <trkpt lat="48.88004" lon="1.98995">
        <ele>177</ele>
        <time>2014-08-21T10:55:21Z</time>
      </trkpt>
      <trkpt lat="48.88" lon="1.99001">
        <ele>178</ele>
        <time>2014-08-21T10:55:25Z</time>
      </trkpt>
      <trkpt lat="48.87986" lon="1.99008">
        <ele>178</ele>
        <time>2014-08-21T10:55:36Z</time>
      </trkpt>
      <trkpt lat="48.87983" lon="1.99013">
        <ele>179</ele>
        <time>2014-08-21T10:55:42Z</time>
      </trkpt>
      <trkpt lat="48.87978" lon="1.99013">
        <ele>180</ele>
        <time>2014-08-21T10:55:47Z</time>
      </trkpt>
      <trkpt lat="48.87974" lon="1.99016">
        <ele>185</ele>
        <time>2014-08-21T10:56:19Z</time>
      </trkpt>
      <trkpt lat="48.87974" lon="1.99013">
        <ele>186</ele>
        <time>2014-08-21T10:56:39Z</time>
      </trkpt>
      <trkpt lat="48.87972" lon="1.99007">
        <ele>185</ele>
        <time>2014-08-21T10:57:00Z</time>
      </trkpt>
      <trkpt lat="48.87968" lon="1.99">
        <ele>183</ele>
        <time>2014-08-21T10:57:04Z</time>
      </trkpt>
      <trkpt lat="48.87965" lon="1.98995">
        <ele>183</ele>
        <time>2014-08-21T10:57:07Z</time>
      </trkpt>
      <trkpt lat="48.87955" lon="1.98976">
        <ele>183</ele>
        <time>2014-08-21T10:57:18Z</time>
      </trkpt>
      <trkpt lat="48.87959" lon="1.98971">
        <ele>180</ele>
        <time>2014-08-21T10:57:25Z</time>
      </trkpt>
      <trkpt lat="48.87964" lon="1.98967">
        <ele>175</ele>
        <time>2014-08-21T10:57:32Z</time>
      </trkpt>
      <trkpt lat="48.87963" lon="1.9896">
        <ele>173</ele>
        <time>2014-08-21T10:57:45Z</time>
      </trkpt>
      <trkpt lat="48.87969" lon="1.98946">
        <ele>175</ele>
        <time>2014-08-21T10:57:56Z</time>
      </trkpt>
      <trkpt lat="48.87972" lon="1.98939">
        <ele>174</ele>
        <time>2014-08-21T10:57:59Z</time>
      </trkpt>
      <trkpt lat="48.87975" lon="1.98931">
        <ele>174</ele>
        <time>2014-08-21T10:58:02Z</time>
      </trkpt>
      <trkpt lat="48.87977" lon="1.98925">
        <ele>173</ele>
        <time>2014-08-21T10:58:05Z</time>
      </trkpt>
      <trkpt lat="48.87978" lon="1.98909">
        <ele>173</ele>
        <time>2014-08-21T10:58:13Z</time>
      </trkpt>
      <trkpt lat="48.87984" lon="1.98896">
        <ele>174</ele>
        <time>2014-08-21T10:58:21Z</time>
      </trkpt>
      <trkpt lat="48.87984" lon="1.98888">
        <ele>175</ele>
        <time>2014-08-21T10:58:26Z</time>
      </trkpt>
      <trkpt lat="48.87984" lon="1.98881">
        <ele>175</ele>
        <time>2014-08-21T10:58:30Z</time>
      </trkpt>
      <trkpt lat="48.87986" lon="1.98857">
        <ele>171</ele>
        <time>2014-08-21T10:58:41Z</time>
      </trkpt>
      <trkpt lat="48.87991" lon="1.98836">
        <ele>171</ele>
        <time>2014-08-21T10:58:52Z</time>
      </trkpt>
      <trkpt lat="48.87993" lon="1.98814">
        <ele>171</ele>
        <time>2014-08-21T10:59:09Z</time>
      </trkpt>
      <trkpt lat="48.87994" lon="1.98807">
        <ele>171</ele>
        <time>2014-08-21T10:59:15Z</time>
      </trkpt>
      <trkpt lat="48.87995" lon="1.98799">
        <ele>171</ele>
        <time>2014-08-21T10:59:20Z</time>
      </trkpt>
      <trkpt lat="48.87994" lon="1.98784">
        <ele>171</ele>
        <time>2014-08-21T10:59:28Z</time>
      </trkpt>
      <trkpt lat="48.87992" lon="1.98767">
        <ele>169</ele>
        <time>2014-08-21T10:59:34Z</time>
      </trkpt>
      <trkpt lat="48.87992" lon="1.9876">
        <ele>169</ele>
        <time>2014-08-21T10:59:38Z</time>
      </trkpt>
      <trkpt lat="48.88002" lon="1.98722">
        <ele>166</ele>
        <time>2014-08-21T10:59:56Z</time>
      </trkpt>
      <trkpt lat="48.88001" lon="1.98699">
        <ele>166</ele>
        <time>2014-08-21T11:00:08Z</time>
      </trkpt>
      <trkpt lat="48.88004" lon="1.98693">
        <ele>166</ele>
        <time>2014-08-21T11:00:12Z</time>
      </trkpt>
      <trkpt lat="48.88007" lon="1.98686">
        <ele>166</ele>
        <time>2014-08-21T11:00:17Z</time>
      </trkpt>
      <trkpt lat="48.88011" lon="1.98678">
        <ele>165</ele>
        <time>2014-08-21T11:00:20Z</time>
      </trkpt>
      <trkpt lat="48.88014" lon="1.98671">
        <ele>164</ele>
        <time>2014-08-21T11:00:23Z</time>
      </trkpt>
      <trkpt lat="48.88011" lon="1.98667">
        <ele>164</ele>
        <time>2014-08-21T11:00:29Z</time>
      </trkpt>
      <trkpt lat="48.88013" lon="1.98659">
        <ele>165</ele>
        <time>2014-08-21T11:00:33Z</time>
      </trkpt>
      <trkpt lat="48.88016" lon="1.98652">
        <ele>165</ele>
        <time>2014-08-21T11:00:36Z</time>
      </trkpt>
      <trkpt lat="48.88022" lon="1.9864">
        <ele>165</ele>
        <time>2014-08-21T11:00:45Z</time>
      </trkpt>
      <trkpt lat="48.88022" lon="1.98625">
        <ele>165</ele>
        <time>2014-08-21T11:00:51Z</time>
      </trkpt>
      <trkpt lat="48.88031" lon="1.98599">
        <ele>166</ele>
        <time>2014-08-21T11:01:03Z</time>
      </trkpt>
      <trkpt lat="48.88024" lon="1.98588">
        <ele>166</ele>
        <time>2014-08-21T11:01:10Z</time>
      </trkpt>
      <trkpt lat="48.88018" lon="1.9856">
        <ele>166</ele>
        <time>2014-08-21T11:01:22Z</time>
      </trkpt>
      <trkpt lat="48.87997" lon="1.98537">
        <ele>167</ele>
        <time>2014-08-21T11:01:52Z</time>
      </trkpt>
      <trkpt lat="48.87945" lon="1.98564">
        <ele>167</ele>
        <time>2014-08-21T11:02:06Z</time>
      </trkpt>
      <trkpt lat="48.87941" lon="1.98554">
        <ele>167</ele>
        <time>2014-08-21T11:02:12Z</time>
      </trkpt>
      <trkpt lat="48.8794" lon="1.98541">
        <ele>167</ele>
        <time>2014-08-21T11:02:22Z</time>
      </trkpt>
      <trkpt lat="48.87931" lon="1.98529">
        <ele>167</ele>
        <time>2014-08-21T11:02:32Z</time>
      </trkpt>
      <trkpt lat="48.87911" lon="1.9852">
        <ele>168</ele>
        <time>2014-08-21T11:02:44Z</time>
      </trkpt>
      <trkpt lat="48.87901" lon="1.98522">
        <ele>168</ele>
        <time>2014-08-21T11:02:51Z</time>
      </trkpt>
      <trkpt lat="48.87892" lon="1.98527">
        <ele>169</ele>
        <time>2014-08-21T11:02:56Z</time>
      </trkpt>
      <trkpt lat="48.87887" lon="1.98528">
        <ele>170</ele>
        <time>2014-08-21T11:03:01Z</time>
      </trkpt>
      <trkpt lat="48.87883" lon="1.98532">
        <ele>170</ele>
        <time>2014-08-21T11:03:13Z</time>
      </trkpt>
      <trkpt lat="48.87878" lon="1.98532">
        <ele>169</ele>
        <time>2014-08-21T11:03:20Z</time>
      </trkpt>
      <trkpt lat="48.87873" lon="1.98533">
        <ele>168</ele>
        <time>2014-08-21T11:03:24Z</time>
      </trkpt>
      <trkpt lat="48.87861" lon="1.98533">
        <ele>170</ele>
        <time>2014-08-21T11:03:32Z</time>
      </trkpt>
      <trkpt lat="48.87857" lon="1.98533">
        <ele>171</ele>
        <time>2014-08-21T11:03:35Z</time>
      </trkpt>
      <trkpt lat="48.87854" lon="1.98541">
        <ele>166</ele>
        <time>2014-08-21T11:03:42Z</time>
      </trkpt>
      <trkpt lat="48.87851" lon="1.98547">
        <ele>166</ele>
        <time>2014-08-21T11:03:45Z</time>
      </trkpt>
      <trkpt lat="48.87846" lon="1.98546">
        <ele>166</ele>
        <time>2014-08-21T11:03:48Z</time>
      </trkpt>
      <trkpt lat="48.87841" lon="1.98543">
        <ele>166</ele>
        <time>2014-08-21T11:03:51Z</time>
      </trkpt>
      <trkpt lat="48.87836" lon="1.9854">
        <ele>166</ele>
        <time>2014-08-21T11:03:56Z</time>
      </trkpt>
      <trkpt lat="48.87826" lon="1.98538">
        <ele>166</ele>
        <time>2014-08-21T11:04:03Z</time>
      </trkpt>
      <trkpt lat="48.8781" lon="1.98537">
        <ele>168</ele>
        <time>2014-08-21T11:04:14Z</time>
      </trkpt>
      <trkpt lat="48.87805" lon="1.98539">
        <ele>168</ele>
        <time>2014-08-21T11:04:18Z</time>
      </trkpt>
      <trkpt lat="48.87799" lon="1.9854">
        <ele>169</ele>
        <time>2014-08-21T11:04:22Z</time>
      </trkpt>
      <trkpt lat="48.87789" lon="1.98542">
        <ele>172</ele>
        <time>2014-08-21T11:04:28Z</time>
      </trkpt>
      <trkpt lat="48.87774" lon="1.9854">
        <ele>173</ele>
        <time>2014-08-21T11:04:41Z</time>
      </trkpt>
      <trkpt lat="48.87768" lon="1.98541">
        <ele>174</ele>
        <time>2014-08-21T11:04:46Z</time>
      </trkpt>
      <trkpt lat="48.87763" lon="1.98543">
        <ele>173</ele>
        <time>2014-08-21T11:04:50Z</time>
      </trkpt>
      <trkpt lat="48.87759" lon="1.98544">
        <ele>173</ele>
        <time>2014-08-21T11:04:54Z</time>
      </trkpt>
      <trkpt lat="48.87754" lon="1.98544">
        <ele>172</ele>
        <time>2014-08-21T11:05:00Z</time>
      </trkpt>
      <trkpt lat="48.87755" lon="1.98552">
        <ele>170</ele>
        <time>2014-08-21T11:05:12Z</time>
      </trkpt>
      <trkpt lat="48.87753" lon="1.98552">
        <ele>169</ele>
        <time>2014-08-21T11:05:22Z</time>
      </trkpt>
      <trkpt lat="48.8775" lon="1.98545">
        <ele>169</ele>
        <time>2014-08-21T11:05:25Z</time>
      </trkpt>
      <trkpt lat="48.87746" lon="1.98541">
        <ele>169</ele>
        <time>2014-08-21T11:05:28Z</time>
      </trkpt>
      <trkpt lat="48.87741" lon="1.98543">
        <ele>169</ele>
        <time>2014-08-21T11:05:32Z</time>
      </trkpt>
      <trkpt lat="48.87731" lon="1.98542">
        <ele>168</ele>
        <time>2014-08-21T11:05:40Z</time>
      </trkpt>
      <trkpt lat="48.8773" lon="1.98551">
        <ele>168</ele>
        <time>2014-08-21T11:05:50Z</time>
      </trkpt>
      <trkpt lat="48.87708" lon="1.9857">
        <ele>168</ele>
        <time>2014-08-21T11:06:10Z</time>
      </trkpt>
      <trkpt lat="48.87704" lon="1.98568">
        <ele>168</ele>
        <time>2014-08-21T11:06:15Z</time>
      </trkpt>
      <trkpt lat="48.87699" lon="1.9857">
        <ele>171</ele>
        <time>2014-08-21T11:06:24Z</time>
      </trkpt>
      <trkpt lat="48.87697" lon="1.98561">
        <ele>172</ele>
        <time>2014-08-21T11:06:32Z</time>
      </trkpt>
      <trkpt lat="48.87699" lon="1.98555">
        <ele>171</ele>
        <time>2014-08-21T11:06:35Z</time>
      </trkpt>
      <trkpt lat="48.87704" lon="1.98547">
        <ele>169</ele>
        <time>2014-08-21T11:06:44Z</time>
      </trkpt>
      <trkpt lat="48.87705" lon="1.9855">
        <ele>169</ele>
        <time>2014-08-21T11:06:51Z</time>
      </trkpt>
      <trkpt lat="48.87705" lon="1.98556">
        <ele>175</ele>
        <time>2014-08-21T11:08:13Z</time>
      </trkpt>
      <trkpt lat="48.87699" lon="1.98551">
        <ele>175</ele>
        <time>2014-08-21T11:08:31Z</time>
      </trkpt>
      <trkpt lat="48.87694" lon="1.98552">
        <ele>174</ele>
        <time>2014-08-21T11:08:35Z</time>
      </trkpt>
      <trkpt lat="48.87689" lon="1.98554">
        <ele>174</ele>
        <time>2014-08-21T11:08:39Z</time>
      </trkpt>
      <trkpt lat="48.87684" lon="1.98554">
        <ele>173</ele>
        <time>2014-08-21T11:08:43Z</time>
      </trkpt>
      <trkpt lat="48.87675" lon="1.98545">
        <ele>171</ele>
        <time>2014-08-21T11:08:52Z</time>
      </trkpt>
      <trkpt lat="48.8767" lon="1.98548">
        <ele>170</ele>
        <time>2014-08-21T11:08:56Z</time>
      </trkpt>
      <trkpt lat="48.8766" lon="1.98554">
        <ele>170</ele>
        <time>2014-08-21T11:09:04Z</time>
      </trkpt>
      <trkpt lat="48.87655" lon="1.98554">
        <ele>170</ele>
        <time>2014-08-21T11:09:08Z</time>
      </trkpt>
      <trkpt lat="48.87634" lon="1.98553">
        <ele>169</ele>
        <time>2014-08-21T11:09:26Z</time>
      </trkpt>
      <trkpt lat="48.87631" lon="1.98547">
        <ele>163</ele>
        <time>2014-08-21T11:09:33Z</time>
      </trkpt>
      <trkpt lat="48.87627" lon="1.98546">
        <ele>159</ele>
        <time>2014-08-21T11:09:38Z</time>
      </trkpt>
      <trkpt lat="48.87613" lon="1.98555">
        <ele>148</ele>
        <time>2014-08-21T11:09:52Z</time>
      </trkpt>
      <trkpt lat="48.87608" lon="1.98554">
        <ele>148</ele>
        <time>2014-08-21T11:09:57Z</time>
      </trkpt>
      <trkpt lat="48.87588" lon="1.98551">
        <ele>150</ele>
        <time>2014-08-21T11:10:11Z</time>
      </trkpt>
      <trkpt lat="48.87579" lon="1.98546">
        <ele>148</ele>
        <time>2014-08-21T11:10:19Z</time>
      </trkpt>
      <trkpt lat="48.87568" lon="1.98544">
        <ele>144</ele>
        <time>2014-08-21T11:10:39Z</time>
      </trkpt>
      <trkpt lat="48.87564" lon="1.98539">
        <ele>143</ele>
        <time>2014-08-21T11:10:45Z</time>
      </trkpt>
      <trkpt lat="48.87551" lon="1.98528">
        <ele>142</ele>
        <time>2014-08-21T11:10:56Z</time>
      </trkpt>
      <trkpt lat="48.87541" lon="1.98521">
        <ele>138</ele>
        <time>2014-08-21T11:11:04Z</time>
      </trkpt>
      <trkpt lat="48.87507" lon="1.98528">
        <ele>134</ele>
        <time>2014-08-21T11:11:28Z</time>
      </trkpt>
      <trkpt lat="48.87501" lon="1.9853">
        <ele>135</ele>
        <time>2014-08-21T11:11:31Z</time>
      </trkpt>
      <trkpt lat="48.87485" lon="1.98532">
        <ele>133</ele>
        <time>2014-08-21T11:11:42Z</time>
      </trkpt>
      <trkpt lat="48.8748" lon="1.98535">
        <ele>133</ele>
        <time>2014-08-21T11:11:45Z</time>
      </trkpt>
      <trkpt lat="48.87479" lon="1.9853">
        <ele>131</ele>
        <time>2014-08-21T11:11:55Z</time>
      </trkpt>
      <trkpt lat="48.87476" lon="1.98524">
        <ele>129</ele>
        <time>2014-08-21T11:11:59Z</time>
      </trkpt>
      <trkpt lat="48.87471" lon="1.98522">
        <ele>127</ele>
        <time>2014-08-21T11:12:03Z</time>
      </trkpt>
      <trkpt lat="48.87453" lon="1.98507">
        <ele>129</ele>
        <time>2014-08-21T11:12:18Z</time>
      </trkpt>
      <trkpt lat="48.87437" lon="1.98486">
        <ele>133</ele>
        <time>2014-08-21T11:12:37Z</time>
      </trkpt>
      <trkpt lat="48.87419" lon="1.9847">
        <ele>129</ele>
        <time>2014-08-21T11:13:04Z</time>
      </trkpt>
      <trkpt lat="48.87415" lon="1.98464">
        <ele>129</ele>
        <time>2014-08-21T11:13:08Z</time>
      </trkpt>
      <trkpt lat="48.87413" lon="1.98467">
        <ele>128</ele>
        <time>2014-08-21T11:13:20Z</time>
      </trkpt>
      <trkpt lat="48.87408" lon="1.98463">
        <ele>128</ele>
        <time>2014-08-21T11:13:32Z</time>
      </trkpt>
      <trkpt lat="48.87403" lon="1.98459">
        <ele>129</ele>
        <time>2014-08-21T11:13:37Z</time>
      </trkpt>
      <trkpt lat="48.874" lon="1.98454">
        <ele>128</ele>
        <time>2014-08-21T11:13:41Z</time>
      </trkpt>
      <trkpt lat="48.87396" lon="1.98449">
        <ele>128</ele>
        <time>2014-08-21T11:13:45Z</time>
      </trkpt>
      <trkpt lat="48.87392" lon="1.98445">
        <ele>128</ele>
        <time>2014-08-21T11:13:48Z</time>
      </trkpt>
      <trkpt lat="48.87388" lon="1.98437">
        <ele>125</ele>
        <time>2014-08-21T11:13:59Z</time>
      </trkpt>
      <trkpt lat="48.87383" lon="1.98433">
        <ele>125</ele>
        <time>2014-08-21T11:14:05Z</time>
      </trkpt>
      <trkpt lat="48.87378" lon="1.9843">
        <ele>125</ele>
        <time>2014-08-21T11:14:09Z</time>
      </trkpt>
      <trkpt lat="48.87372" lon="1.98427">
        <ele>127</ele>
        <time>2014-08-21T11:14:12Z</time>
      </trkpt>
      <trkpt lat="48.8736" lon="1.98414">
        <ele>124</ele>
        <time>2014-08-21T11:14:24Z</time>
      </trkpt>
      <trkpt lat="48.87359" lon="1.98406">
        <ele>122</ele>
        <time>2014-08-21T11:14:29Z</time>
      </trkpt>
      <trkpt lat="48.87359" lon="1.98383">
        <ele>123</ele>
        <time>2014-08-21T11:14:41Z</time>
      </trkpt>
      <trkpt lat="48.87357" lon="1.98376">
        <ele>123</ele>
        <time>2014-08-21T11:14:46Z</time>
      </trkpt>
      <trkpt lat="48.87357" lon="1.98368">
        <ele>124</ele>
        <time>2014-08-21T11:14:52Z</time>
      </trkpt>
      <trkpt lat="48.87355" lon="1.9836">
        <ele>124</ele>
        <time>2014-08-21T11:14:56Z</time>
      </trkpt>
      <trkpt lat="48.87345" lon="1.98334">
        <ele>118</ele>
        <time>2014-08-21T11:15:08Z</time>
      </trkpt>
      <trkpt lat="48.87346" lon="1.98326">
        <ele>118</ele>
        <time>2014-08-21T11:15:11Z</time>
      </trkpt>
      <trkpt lat="48.87345" lon="1.98309">
        <ele>118</ele>
        <time>2014-08-21T11:15:17Z</time>
      </trkpt>
      <trkpt lat="48.87343" lon="1.98294">
        <ele>120</ele>
        <time>2014-08-21T11:15:26Z</time>
      </trkpt>
      <trkpt lat="48.87342" lon="1.98286">
        <ele>120</ele>
        <time>2014-08-21T11:15:31Z</time>
      </trkpt>
      <trkpt lat="48.87341" lon="1.98261">
        <ele>123</ele>
        <time>2014-08-21T11:15:48Z</time>
      </trkpt>
      <trkpt lat="48.87343" lon="1.98254">
        <ele>123</ele>
        <time>2014-08-21T11:15:52Z</time>
      </trkpt>
      <trkpt lat="48.87341" lon="1.98246">
        <ele>123</ele>
        <time>2014-08-21T11:15:56Z</time>
      </trkpt>
      <trkpt lat="48.87333" lon="1.98237">
        <ele>125</ele>
        <time>2014-08-21T11:16:05Z</time>
      </trkpt>
      <trkpt lat="48.87329" lon="1.98234">
        <ele>126</ele>
        <time>2014-08-21T11:16:09Z</time>
      </trkpt>
      <trkpt lat="48.87319" lon="1.98228">
        <ele>124</ele>
        <time>2014-08-21T11:16:16Z</time>
      </trkpt>
      <trkpt lat="48.87314" lon="1.98229">
        <ele>125</ele>
        <time>2014-08-21T11:16:21Z</time>
      </trkpt>
      <trkpt lat="48.87309" lon="1.98226">
        <ele>124</ele>
        <time>2014-08-21T11:16:25Z</time>
      </trkpt>
      <trkpt lat="48.87304" lon="1.98221">
        <ele>125</ele>
        <time>2014-08-21T11:16:32Z</time>
      </trkpt>
      <trkpt lat="48.8729" lon="1.98217">
        <ele>122</ele>
        <time>2014-08-21T11:16:43Z</time>
      </trkpt>
      <trkpt lat="48.87285" lon="1.98218">
        <ele>122</ele>
        <time>2014-08-21T11:16:46Z</time>
      </trkpt>
      <trkpt lat="48.87276" lon="1.98217">
        <ele>123</ele>
        <time>2014-08-21T11:16:56Z</time>
      </trkpt>
      <trkpt lat="48.87265" lon="1.98216">
        <ele>122</ele>
        <time>2014-08-21T11:17:01Z</time>
      </trkpt>
      <trkpt lat="48.87257" lon="1.98213">
        <ele>122</ele>
        <time>2014-08-21T11:17:03Z</time>
      </trkpt>
      <trkpt lat="48.87253" lon="1.98214">
        <ele>121</ele>
        <time>2014-08-21T11:17:08Z</time>
      </trkpt>
      <trkpt lat="48.87243" lon="1.98214">
        <ele>123</ele>
        <time>2014-08-21T11:17:16Z</time>
      </trkpt>
      <trkpt lat="48.87234" lon="1.98209">
        <ele>120</ele>
        <time>2014-08-21T11:17:25Z</time>
      </trkpt>
      <trkpt lat="48.87229" lon="1.98211">
        <ele>120</ele>
        <time>2014-08-21T11:17:29Z</time>
      </trkpt>
      <trkpt lat="48.87223" lon="1.98213">
        <ele>120</ele>
        <time>2014-08-21T11:17:33Z</time>
      </trkpt>
      <trkpt lat="48.8722" lon="1.98218">
        <ele>119</ele>
        <time>2014-08-21T11:17:38Z</time>
      </trkpt>
      <trkpt lat="48.87215" lon="1.98219">
        <ele>118</ele>
        <time>2014-08-21T11:17:42Z</time>
      </trkpt>
      <trkpt lat="48.87202" lon="1.98218">
        <ele>120</ele>
        <time>2014-08-21T11:17:49Z</time>
      </trkpt>
      <trkpt lat="48.87187" lon="1.98219">
        <ele>119</ele>
        <time>2014-08-21T11:18:02Z</time>
      </trkpt>
      <trkpt lat="48.87181" lon="1.98218">
        <ele>119</ele>
        <time>2014-08-21T11:18:10Z</time>
      </trkpt>
      <trkpt lat="48.87176" lon="1.98217">
        <ele>119</ele>
        <time>2014-08-21T11:18:14Z</time>
      </trkpt>
      <trkpt lat="48.87155" lon="1.98211">
        <ele>114</ele>
        <time>2014-08-21T11:18:30Z</time>
      </trkpt>
      <trkpt lat="48.8715" lon="1.98211">
        <ele>114</ele>
        <time>2014-08-21T11:18:34Z</time>
      </trkpt>
      <trkpt lat="48.87141" lon="1.98216">
        <ele>115</ele>
        <time>2014-08-21T11:18:40Z</time>
      </trkpt>
      <trkpt lat="48.87136" lon="1.98215">
        <ele>114</ele>
        <time>2014-08-21T11:18:44Z</time>
      </trkpt>
      <trkpt lat="48.87131" lon="1.98218">
        <ele>113</ele>
        <time>2014-08-21T11:18:48Z</time>
      </trkpt>
      <trkpt lat="48.87126" lon="1.9822">
        <ele>112</ele>
        <time>2014-08-21T11:18:52Z</time>
      </trkpt>
      <trkpt lat="48.87122" lon="1.98219">
        <ele>110</ele>
        <time>2014-08-21T11:18:56Z</time>
      </trkpt>
      <trkpt lat="48.87112" lon="1.98217">
        <ele>111</ele>
        <time>2014-08-21T11:19:22Z</time>
      </trkpt>
      <trkpt lat="48.87106" lon="1.98216">
        <ele>111</ele>
        <time>2014-08-21T11:19:29Z</time>
      </trkpt>
      <trkpt lat="48.87097" lon="1.98218">
        <ele>113</ele>
        <time>2014-08-21T11:19:38Z</time>
      </trkpt>
      <trkpt lat="48.87082" lon="1.98219">
        <ele>114</ele>
        <time>2014-08-21T11:19:49Z</time>
      </trkpt>
      <trkpt lat="48.87078" lon="1.98219">
        <ele>114</ele>
        <time>2014-08-21T11:19:53Z</time>
      </trkpt>
      <trkpt lat="48.87067" lon="1.98223">
        <ele>113</ele>
        <time>2014-08-21T11:20:01Z</time>
      </trkpt>
      <trkpt lat="48.87063" lon="1.98225">
        <ele>113</ele>
        <time>2014-08-21T11:20:05Z</time>
      </trkpt>
      <trkpt lat="48.87049" lon="1.98222">
        <ele>113</ele>
        <time>2014-08-21T11:20:18Z</time>
      </trkpt>
      <trkpt lat="48.8704" lon="1.98216">
        <ele>113</ele>
        <time>2014-08-21T11:20:29Z</time>
      </trkpt>
      <trkpt lat="48.87019" lon="1.98214">
        <ele>113</ele>
        <time>2014-08-21T11:20:41Z</time>
      </trkpt>
      <trkpt lat="48.86993" lon="1.98213">
        <ele>111</ele>
        <time>2014-08-21T11:21:02Z</time>
      </trkpt>
      <trkpt lat="48.86987" lon="1.98212">
        <ele>111</ele>
        <time>2014-08-21T11:21:05Z</time>
      </trkpt>
      <trkpt lat="48.86977" lon="1.98212">
        <ele>109</ele>
        <time>2014-08-21T11:21:12Z</time>
      </trkpt>
      <trkpt lat="48.86967" lon="1.98211">
        <ele>109</ele>
        <time>2014-08-21T11:21:22Z</time>
      </trkpt>
      <trkpt lat="48.8694" lon="1.98206">
        <ele>114</ele>
        <time>2014-08-21T11:21:40Z</time>
      </trkpt>
      <trkpt lat="48.86935" lon="1.98202">
        <ele>113</ele>
        <time>2014-08-21T11:21:44Z</time>
      </trkpt>
      <trkpt lat="48.8693" lon="1.98203">
        <ele>114</ele>
        <time>2014-08-21T11:21:48Z</time>
      </trkpt>
      <trkpt lat="48.86925" lon="1.98203">
        <ele>113</ele>
        <time>2014-08-21T11:21:51Z</time>
      </trkpt>
      <trkpt lat="48.86919" lon="1.98201">
        <ele>114</ele>
        <time>2014-08-21T11:21:53Z</time>
      </trkpt>
      <trkpt lat="48.86914" lon="1.98202">
        <ele>116</ele>
        <time>2014-08-21T11:21:59Z</time>
      </trkpt>
      <trkpt lat="48.86909" lon="1.98198">
        <ele>115</ele>
        <time>2014-08-21T11:22:02Z</time>
      </trkpt>
      <trkpt lat="48.86873" lon="1.98188">
        <ele>107</ele>
        <time>2014-08-21T11:22:26Z</time>
      </trkpt>
      <trkpt lat="48.8687" lon="1.98187">
        <ele>107</ele>
        <time>2014-08-21T11:22:28Z</time>
      </trkpt>
      <trkpt lat="48.86866" lon="1.9819">
        <ele>109</ele>
        <time>2014-08-21T11:22:37Z</time>
      </trkpt>
      <trkpt lat="48.86861" lon="1.98187">
        <ele>109</ele>
        <time>2014-08-21T11:22:42Z</time>
      </trkpt>
      <trkpt lat="48.86857" lon="1.98184">
        <ele>109</ele>
        <time>2014-08-21T11:22:45Z</time>
      </trkpt>
      <trkpt lat="48.86851" lon="1.98182">
        <ele>109</ele>
        <time>2014-08-21T11:22:52Z</time>
      </trkpt>
      <trkpt lat="48.86836" lon="1.9818">
        <ele>111</ele>
        <time>2014-08-21T11:23:10Z</time>
      </trkpt>
      <trkpt lat="48.8683" lon="1.98176">
        <ele>110</ele>
        <time>2014-08-21T11:23:13Z</time>
      </trkpt>
      <trkpt lat="48.86819" lon="1.98175">
        <ele>108</ele>
        <time>2014-08-21T11:23:23Z</time>
      </trkpt>
      <trkpt lat="48.86805" lon="1.98172">
        <ele>109</ele>
        <time>2014-08-21T11:23:29Z</time>
      </trkpt>
      <trkpt lat="48.86799" lon="1.9817">
        <ele>109</ele>
        <time>2014-08-21T11:23:34Z</time>
      </trkpt>
      <trkpt lat="48.8679" lon="1.98165">
        <ele>108</ele>
        <time>2014-08-21T11:23:43Z</time>
      </trkpt>
      <trkpt lat="48.8678" lon="1.98166">
        <ele>108</ele>
        <time>2014-08-21T11:23:50Z</time>
      </trkpt>
      <trkpt lat="48.8677" lon="1.98166">
        <ele>110</ele>
        <time>2014-08-21T11:24:04Z</time>
      </trkpt>
      <trkpt lat="48.86767" lon="1.98172">
        <ele>110</ele>
        <time>2014-08-21T11:24:08Z</time>
      </trkpt>
      <trkpt lat="48.86765" lon="1.98168">
        <ele>109</ele>
        <time>2014-08-21T11:24:31Z</time>
      </trkpt>
      <trkpt lat="48.8676" lon="1.98169">
        <ele>109</ele>
        <time>2014-08-21T11:25:12Z</time>
      </trkpt>
      <trkpt lat="48.86754" lon="1.98169">
        <ele>109</ele>
        <time>2014-08-21T11:25:14Z</time>
      </trkpt>
      <trkpt lat="48.86745" lon="1.98157">
        <ele>109</ele>
        <time>2014-08-21T11:25:34Z</time>
      </trkpt>
      <trkpt lat="48.86741" lon="1.98154">
        <ele>109</ele>
        <time>2014-08-21T11:25:40Z</time>
      </trkpt>
      <trkpt lat="48.86736" lon="1.98152">
        <ele>109</ele>
        <time>2014-08-21T11:25:43Z</time>
      </trkpt>
      <trkpt lat="48.86731" lon="1.98149">
        <ele>109</ele>
        <time>2014-08-21T11:25:47Z</time>
      </trkpt>
      <trkpt lat="48.86726" lon="1.98148">
        <ele>109</ele>
        <time>2014-08-21T11:25:50Z</time>
      </trkpt>
      <trkpt lat="48.86721" lon="1.98148">
        <ele>108</ele>
        <time>2014-08-21T11:25:53Z</time>
      </trkpt>
      <trkpt lat="48.86715" lon="1.98148">
        <ele>109</ele>
        <time>2014-08-21T11:25:59Z</time>
      </trkpt>
      <trkpt lat="48.86695" lon="1.98138">
        <ele>115</ele>
        <time>2014-08-21T11:26:19Z</time>
      </trkpt>
      <trkpt lat="48.8669" lon="1.98138">
        <ele>115</ele>
        <time>2014-08-21T11:26:21Z</time>
      </trkpt>
      <trkpt lat="48.86682" lon="1.98136">
        <ele>116</ele>
        <time>2014-08-21T11:26:25Z</time>
      </trkpt>
      <trkpt lat="48.86677" lon="1.98137">
        <ele>120</ele>
        <time>2014-08-21T11:26:29Z</time>
      </trkpt>
      <trkpt lat="48.86672" lon="1.98133">
        <ele>121</ele>
        <time>2014-08-21T11:26:34Z</time>
      </trkpt>
      <trkpt lat="48.86667" lon="1.9813">
        <ele>121</ele>
        <time>2014-08-21T11:26:38Z</time>
      </trkpt>
      <trkpt lat="48.86663" lon="1.98133">
        <ele>119</ele>
        <time>2014-08-21T11:26:46Z</time>
      </trkpt>
      <trkpt lat="48.86628" lon="1.9812">
        <ele>110</ele>
        <time>2014-08-21T11:27:14Z</time>
      </trkpt>
      <trkpt lat="48.86618" lon="1.98127">
        <ele>109</ele>
        <time>2014-08-21T11:27:22Z</time>
      </trkpt>
      <trkpt lat="48.86604" lon="1.98138">
        <ele>109</ele>
        <time>2014-08-21T11:27:32Z</time>
      </trkpt>
      <trkpt lat="48.86592" lon="1.9814">
        <ele>110</ele>
        <time>2014-08-21T11:27:47Z</time>
      </trkpt>
      <trkpt lat="48.86578" lon="1.98142">
        <ele>107</ele>
        <time>2014-08-21T11:28:02Z</time>
      </trkpt>
      <trkpt lat="48.8657" lon="1.98151">
        <ele>105</ele>
        <time>2014-08-21T11:28:08Z</time>
      </trkpt>
      <trkpt lat="48.86565" lon="1.98153">
        <ele>104</ele>
        <time>2014-08-21T11:28:12Z</time>
      </trkpt>
      <trkpt lat="48.8656" lon="1.98154">
        <ele>104</ele>
        <time>2014-08-21T11:28:16Z</time>
      </trkpt>
      <trkpt lat="48.86538" lon="1.98176">
        <ele>106</ele>
        <time>2014-08-21T11:28:31Z</time>
      </trkpt>
      <trkpt lat="48.86534" lon="1.98178">
        <ele>107</ele>
        <time>2014-08-21T11:28:39Z</time>
      </trkpt>
      <trkpt lat="48.86531" lon="1.98175">
        <ele>108</ele>
        <time>2014-08-21T11:28:51Z</time>
      </trkpt>
      <trkpt lat="48.86526" lon="1.98174">
        <ele>108</ele>
        <time>2014-08-21T11:28:57Z</time>
      </trkpt>
      <trkpt lat="48.86521" lon="1.98174">
        <ele>109</ele>
        <time>2014-08-21T11:29:03Z</time>
      </trkpt>
      <trkpt lat="48.86518" lon="1.98179">
        <ele>109</ele>
        <time>2014-08-21T11:29:06Z</time>
      </trkpt>
      <trkpt lat="48.86504" lon="1.98203">
        <ele>111</ele>
        <time>2014-08-21T11:29:21Z</time>
      </trkpt>
      <trkpt lat="48.865" lon="1.98203">
        <ele>112</ele>
        <time>2014-08-21T11:29:26Z</time>
      </trkpt>
      <trkpt lat="48.86485" lon="1.98201">
        <ele>110</ele>
        <time>2014-08-21T11:29:42Z</time>
      </trkpt>
      <trkpt lat="48.8648" lon="1.98204">
        <ele>109</ele>
        <time>2014-08-21T11:29:46Z</time>
      </trkpt>
      <trkpt lat="48.86477" lon="1.9821">
        <ele>108</ele>
        <time>2014-08-21T11:29:51Z</time>
      </trkpt>
      <trkpt lat="48.86472" lon="1.98212">
        <ele>107</ele>
        <time>2014-08-21T11:29:57Z</time>
      </trkpt>
      <trkpt lat="48.86459" lon="1.98223">
        <ele>105</ele>
        <time>2014-08-21T11:30:09Z</time>
      </trkpt>
      <trkpt lat="48.86456" lon="1.9823">
        <ele>105</ele>
        <time>2014-08-21T11:30:13Z</time>
      </trkpt>
      <trkpt lat="48.86452" lon="1.98235">
        <ele>105</ele>
        <time>2014-08-21T11:30:17Z</time>
      </trkpt>
      <trkpt lat="48.86439" lon="1.98246">
        <ele>106</ele>
        <time>2014-08-21T11:30:29Z</time>
      </trkpt>
      <trkpt lat="48.86432" lon="1.98259">
        <ele>107</ele>
        <time>2014-08-21T11:30:37Z</time>
      </trkpt>
      <trkpt lat="48.86422" lon="1.98267">
        <ele>108</ele>
        <time>2014-08-21T11:30:47Z</time>
      </trkpt>
      <trkpt lat="48.86418" lon="1.9827">
        <ele>107</ele>
        <time>2014-08-21T11:30:51Z</time>
      </trkpt>
      <trkpt lat="48.86402" lon="1.98287">
        <ele>108</ele>
        <time>2014-08-21T11:31:05Z</time>
      </trkpt>
      <trkpt lat="48.86398" lon="1.98292">
        <ele>108</ele>
        <time>2014-08-21T11:31:09Z</time>
      </trkpt>
      <trkpt lat="48.86392" lon="1.98293">
        <ele>108</ele>
        <time>2014-08-21T11:31:13Z</time>
      </trkpt>
      <trkpt lat="48.8638" lon="1.98305">
        <ele>108</ele>
        <time>2014-08-21T11:31:25Z</time>
      </trkpt>
      <trkpt lat="48.8636" lon="1.98318">
        <ele>112</ele>
        <time>2014-08-21T11:31:43Z</time>
      </trkpt>
      <trkpt lat="48.86357" lon="1.98323">
        <ele>112</ele>
        <time>2014-08-21T11:31:49Z</time>
      </trkpt>
      <trkpt lat="48.86344" lon="1.98333">
        <ele>110</ele>
        <time>2014-08-21T11:32:01Z</time>
      </trkpt>
      <trkpt lat="48.86339" lon="1.98336">
        <ele>110</ele>
        <time>2014-08-21T11:32:03Z</time>
      </trkpt>
      <trkpt lat="48.86329" lon="1.98341">
        <ele>110</ele>
        <time>2014-08-21T11:32:09Z</time>
      </trkpt>
      <trkpt lat="48.86325" lon="1.98344">
        <ele>110</ele>
        <time>2014-08-21T11:32:13Z</time>
      </trkpt>
      <trkpt lat="48.8632" lon="1.98349">
        <ele>111</ele>
        <time>2014-08-21T11:32:17Z</time>
      </trkpt>
      <trkpt lat="48.86315" lon="1.98351">
        <ele>111</ele>
        <time>2014-08-21T11:32:20Z</time>
      </trkpt>
      <trkpt lat="48.8631" lon="1.98355">
        <ele>111</ele>
        <time>2014-08-21T11:32:24Z</time>
      </trkpt>
      <trkpt lat="48.86306" lon="1.98358">
        <ele>111</ele>
        <time>2014-08-21T11:32:27Z</time>
      </trkpt>
      <trkpt lat="48.86302" lon="1.98362">
        <ele>111</ele>
        <time>2014-08-21T11:32:31Z</time>
      </trkpt>
      <trkpt lat="48.86294" lon="1.98371">
        <ele>110</ele>
        <time>2014-08-21T11:32:38Z</time>
      </trkpt>
      <trkpt lat="48.8629" lon="1.98375">
        <ele>109</ele>
        <time>2014-08-21T11:32:42Z</time>
      </trkpt>
      <trkpt lat="48.86285" lon="1.98375">
        <ele>108</ele>
        <time>2014-08-21T11:32:50Z</time>
      </trkpt>
      <trkpt lat="48.8628" lon="1.98377">
        <ele>108</ele>
        <time>2014-08-21T11:32:53Z</time>
      </trkpt>
      <trkpt lat="48.86254" lon="1.98406">
        <ele>111</ele>
        <time>2014-08-21T11:33:06Z</time>
      </trkpt>
      <trkpt lat="48.86249" lon="1.98408">
        <ele>111</ele>
        <time>2014-08-21T11:33:08Z</time>
      </trkpt>
      <trkpt lat="48.86243" lon="1.98417">
        <ele>109</ele>
        <time>2014-08-21T11:33:15Z</time>
      </trkpt>
      <trkpt lat="48.86237" lon="1.98418">
        <ele>108</ele>
        <time>2014-08-21T11:33:25Z</time>
      </trkpt>
      <trkpt lat="48.86233" lon="1.98415">
        <ele>106</ele>
        <time>2014-08-21T11:33:32Z</time>
      </trkpt>
      <trkpt lat="48.86227" lon="1.98415">
        <ele>105</ele>
        <time>2014-08-21T11:33:39Z</time>
      </trkpt>
      <trkpt lat="48.86222" lon="1.98419">
        <ele>104</ele>
        <time>2014-08-21T11:33:41Z</time>
      </trkpt>
      <trkpt lat="48.86214" lon="1.98425">
        <ele>104</ele>
        <time>2014-08-21T11:33:44Z</time>
      </trkpt>
      <trkpt lat="48.86212" lon="1.98427">
        <ele>105</ele>
        <time>2014-08-21T11:33:45Z</time>
      </trkpt>
      <trkpt lat="48.86207" lon="1.98433">
        <ele>105</ele>
        <time>2014-08-21T11:33:48Z</time>
      </trkpt>
      <trkpt lat="48.86205" lon="1.98437">
        <ele>105</ele>
        <time>2014-08-21T11:33:50Z</time>
      </trkpt>
      <trkpt lat="48.86199" lon="1.9844">
        <ele>104</ele>
        <time>2014-08-21T11:33:58Z</time>
      </trkpt>
      <trkpt lat="48.86177" lon="1.98457">
        <ele>106</ele>
        <time>2014-08-21T11:34:18Z</time>
      </trkpt>
      <trkpt lat="48.86171" lon="1.9846">
        <ele>106</ele>
        <time>2014-08-21T11:34:22Z</time>
      </trkpt>
      <trkpt lat="48.86162" lon="1.98456">
        <ele>103</ele>
        <time>2014-08-21T11:34:37Z</time>
      </trkpt>
      <trkpt lat="48.86158" lon="1.98462">
        <ele>103</ele>
        <time>2014-08-21T11:34:43Z</time>
      </trkpt>
      <trkpt lat="48.86153" lon="1.98465">
        <ele>103</ele>
        <time>2014-08-21T11:34:47Z</time>
      </trkpt>
      <trkpt lat="48.86152" lon="1.98469">
        <ele>102</ele>
        <time>2014-08-21T11:35:48Z</time>
      </trkpt>
      <trkpt lat="48.86148" lon="1.98469">
        <ele>100</ele>
        <time>2014-08-21T11:35:57Z</time>
      </trkpt>
      <trkpt lat="48.86147" lon="1.98478">
        <ele>101</ele>
        <time>2014-08-21T11:36:16Z</time>
      </trkpt>
      <trkpt lat="48.86141" lon="1.98477">
        <ele>101</ele>
        <time>2014-08-21T11:36:22Z</time>
      </trkpt>
      <trkpt lat="48.86137" lon="1.9848">
        <ele>100</ele>
        <time>2014-08-21T11:36:25Z</time>
      </trkpt>
      <trkpt lat="48.86119" lon="1.98498">
        <ele>102</ele>
        <time>2014-08-21T11:36:42Z</time>
      </trkpt>
      <trkpt lat="48.86114" lon="1.98498">
        <ele>102</ele>
        <time>2014-08-21T11:36:51Z</time>
      </trkpt>
      <trkpt lat="48.86089" lon="1.98511">
        <ele>100</ele>
        <time>2014-08-21T11:37:08Z</time>
      </trkpt>
      <trkpt lat="48.86079" lon="1.98516">
        <ele>98</ele>
        <time>2014-08-21T11:37:18Z</time>
      </trkpt>
      <trkpt lat="48.86069" lon="1.98523">
        <ele>98</ele>
        <time>2014-08-21T11:37:24Z</time>
      </trkpt>
      <trkpt lat="48.86044" lon="1.98535">
        <ele>95</ele>
        <time>2014-08-21T11:37:45Z</time>
      </trkpt>
      <trkpt lat="48.86039" lon="1.98537">
        <ele>95</ele>
        <time>2014-08-21T11:37:49Z</time>
      </trkpt>
      <trkpt lat="48.85997" lon="1.98537">
        <ele>93</ele>
        <time>2014-08-21T11:38:20Z</time>
      </trkpt>
      <trkpt lat="48.85992" lon="1.98535">
        <ele>93</ele>
        <time>2014-08-21T11:38:24Z</time>
      </trkpt>
      <trkpt lat="48.85983" lon="1.98531">
        <ele>94</ele>
        <time>2014-08-21T11:38:32Z</time>
      </trkpt>
      <trkpt lat="48.85978" lon="1.98529">
        <ele>93</ele>
        <time>2014-08-21T11:38:36Z</time>
      </trkpt>
      <trkpt lat="48.85973" lon="1.98529">
        <ele>93</ele>
        <time>2014-08-21T11:38:40Z</time>
      </trkpt>
      <trkpt lat="48.85968" lon="1.9853">
        <ele>94</ele>
        <time>2014-08-21T11:38:45Z</time>
      </trkpt>
      <trkpt lat="48.85957" lon="1.98536">
        <ele>91</ele>
        <time>2014-08-21T11:38:57Z</time>
      </trkpt>
      <trkpt lat="48.85942" lon="1.98544">
        <ele>91</ele>
        <time>2014-08-21T11:39:07Z</time>
      </trkpt>
      <trkpt lat="48.85937" lon="1.98543">
        <ele>92</ele>
        <time>2014-08-21T11:39:11Z</time>
      </trkpt>
      <trkpt lat="48.85932" lon="1.98543">
        <ele>92</ele>
        <time>2014-08-21T11:39:15Z</time>
      </trkpt>
      <trkpt lat="48.85927" lon="1.98542">
        <ele>91</ele>
        <time>2014-08-21T11:39:18Z</time>
      </trkpt>
      <trkpt lat="48.85891" lon="1.98533">
        <ele>92</ele>
        <time>2014-08-21T11:39:54Z</time>
      </trkpt>
      <trkpt lat="48.85871" lon="1.98538">
        <ele>92</ele>
        <time>2014-08-21T11:40:07Z</time>
      </trkpt>
      <trkpt lat="48.85865" lon="1.98528">
        <ele>91</ele>
        <time>2014-08-21T11:40:22Z</time>
      </trkpt>
      <trkpt lat="48.85856" lon="1.98526">
        <ele>91</ele>
        <time>2014-08-21T11:40:27Z</time>
      </trkpt>
      <trkpt lat="48.85836" lon="1.98525">
        <ele>94</ele>
        <time>2014-08-21T11:40:37Z</time>
      </trkpt>
      <trkpt lat="48.8582" lon="1.98524">
        <ele>92</ele>
        <time>2014-08-21T11:40:46Z</time>
      </trkpt>
      <trkpt lat="48.85816" lon="1.9852">
        <ele>91</ele>
        <time>2014-08-21T11:40:49Z</time>
      </trkpt>
      <trkpt lat="48.85811" lon="1.98517">
        <ele>91</ele>
        <time>2014-08-21T11:40:54Z</time>
      </trkpt>
      <trkpt lat="48.85807" lon="1.98519">
        <ele>90</ele>
        <time>2014-08-21T11:40:58Z</time>
      </trkpt>
      <trkpt lat="48.85798" lon="1.98513">
        <ele>87</ele>
        <time>2014-08-21T11:41:05Z</time>
      </trkpt>
      <trkpt lat="48.85794" lon="1.98509">
        <ele>87</ele>
        <time>2014-08-21T11:41:08Z</time>
      </trkpt>
      <trkpt lat="48.85783" lon="1.98504">
        <ele>83</ele>
        <time>2014-08-21T11:41:16Z</time>
      </trkpt>
      <trkpt lat="48.85778" lon="1.98504">
        <ele>83</ele>
        <time>2014-08-21T11:41:21Z</time>
      </trkpt>
      <trkpt lat="48.85776" lon="1.98497">
        <ele>83</ele>
        <time>2014-08-21T11:41:26Z</time>
      </trkpt>
      <trkpt lat="48.85774" lon="1.98489">
        <ele>83</ele>
        <time>2014-08-21T11:41:33Z</time>
      </trkpt>
      <trkpt lat="48.8577" lon="1.98487">
        <ele>83</ele>
        <time>2014-08-21T11:41:35Z</time>
      </trkpt>
      <trkpt lat="48.85749" lon="1.98477">
        <ele>86</ele>
        <time>2014-08-21T11:41:44Z</time>
      </trkpt>
      <trkpt lat="48.8573" lon="1.9847">
        <ele>86</ele>
        <time>2014-08-21T11:42:00Z</time>
      </trkpt>
      <trkpt lat="48.85721" lon="1.9846">
        <ele>83</ele>
        <time>2014-08-21T11:42:12Z</time>
      </trkpt>
      <trkpt lat="48.85711" lon="1.98454">
        <ele>83</ele>
        <time>2014-08-21T11:42:23Z</time>
      </trkpt>
      <trkpt lat="48.85707" lon="1.98451">
        <ele>83</ele>
        <time>2014-08-21T11:42:25Z</time>
      </trkpt>
      <trkpt lat="48.85703" lon="1.98448">
        <ele>83</ele>
        <time>2014-08-21T11:42:27Z</time>
      </trkpt>
      <trkpt lat="48.857" lon="1.98447">
        <ele>82</ele>
        <time>2014-08-21T11:42:29Z</time>
      </trkpt>
      <trkpt lat="48.85692" lon="1.98442">
        <ele>80</ele>
        <time>2014-08-21T11:42:38Z</time>
      </trkpt>
      <trkpt lat="48.85683" lon="1.98437">
        <ele>80</ele>
        <time>2014-08-21T11:42:42Z</time>
      </trkpt>
      <trkpt lat="48.85672" lon="1.98434">
        <ele>79</ele>
        <time>2014-08-21T11:42:51Z</time>
      </trkpt>
      <trkpt lat="48.85667" lon="1.98432">
        <ele>79</ele>
        <time>2014-08-21T11:42:54Z</time>
      </trkpt>
      <trkpt lat="48.85656" lon="1.98428">
        <ele>80</ele>
        <time>2014-08-21T11:43:06Z</time>
      </trkpt>
      <trkpt lat="48.85652" lon="1.98425">
        <ele>80</ele>
        <time>2014-08-21T11:43:11Z</time>
      </trkpt>
      <trkpt lat="48.85643" lon="1.98419">
        <ele>80</ele>
        <time>2014-08-21T11:43:21Z</time>
      </trkpt>
      <trkpt lat="48.85637" lon="1.98418">
        <ele>79</ele>
        <time>2014-08-21T11:43:25Z</time>
      </trkpt>
      <trkpt lat="48.85632" lon="1.98415">
        <ele>79</ele>
        <time>2014-08-21T11:43:28Z</time>
      </trkpt>
      <trkpt lat="48.85626" lon="1.98413">
        <ele>80</ele>
        <time>2014-08-21T11:43:32Z</time>
      </trkpt>
      <trkpt lat="48.85615" lon="1.98397">
        <ele>81</ele>
        <time>2014-08-21T11:43:44Z</time>
      </trkpt>
      <trkpt lat="48.85613" lon="1.9839">
        <ele>81</ele>
        <time>2014-08-21T11:43:47Z</time>
      </trkpt>
      <trkpt lat="48.85609" lon="1.98384">
        <ele>81</ele>
        <time>2014-08-21T11:43:52Z</time>
      </trkpt>
      <trkpt lat="48.85604" lon="1.98385">
        <ele>81</ele>
        <time>2014-08-21T11:43:55Z</time>
      </trkpt>
      <trkpt lat="48.85584" lon="1.98388">
        <ele>81</ele>
        <time>2014-08-21T11:44:09Z</time>
      </trkpt>
      <trkpt lat="48.85579" lon="1.98387">
        <ele>81</ele>
        <time>2014-08-21T11:44:16Z</time>
      </trkpt>
      <trkpt lat="48.85575" lon="1.98382">
        <ele>81</ele>
        <time>2014-08-21T11:44:21Z</time>
      </trkpt>
      <trkpt lat="48.85569" lon="1.98383">
        <ele>81</ele>
        <time>2014-08-21T11:44:25Z</time>
      </trkpt>
      <trkpt lat="48.8556" lon="1.98386">
        <ele>81</ele>
        <time>2014-08-21T11:44:32Z</time>
      </trkpt>
      <trkpt lat="48.85555" lon="1.98384">
        <ele>81</ele>
        <time>2014-08-21T11:44:35Z</time>
      </trkpt>
      <trkpt lat="48.8555" lon="1.98383">
        <ele>79</ele>
        <time>2014-08-21T11:44:37Z</time>
      </trkpt>
      <trkpt lat="48.85545" lon="1.98383">
        <ele>80</ele>
        <time>2014-08-21T11:44:40Z</time>
      </trkpt>
      <trkpt lat="48.85534" lon="1.98384">
        <ele>82</ele>
        <time>2014-08-21T11:44:49Z</time>
      </trkpt>
    </trkseg>
  </trk>
</gpx>